<?xml version="1.0" encoding="UTF-8" standalone="no" ?>
<gpx xmlns="http://www.topografix.com/GPX/1/1" xmlns:xsi="http://www.w3.org/2001/XMLSchema-instance" xsi:schemaLocation="http://www.topografix.com/GPX/1/1 http://www.topografix.com/GPX/1/1/gpx.xsd" version="1.1" creator="VisuGPX - https://www.visugpx.com">
  <metadata>
    <name>Sources de l'Huveaune</name>
    <desc><![CDATA[
Parcours facile.
Site fragile, respecter la réglementation.]]></desc>
  </metadata>
  <trk>
    <name><![CDATA[www.ibpindex.com 38300566367529]]></name>
    <desc><![CDATA[www.ibpindex.com 38300566367529]]></desc>
    <extensions>
      <line xmlns="http://www.topografix.com/GPX/gpx_style/0/2">
        <color>0000FF</color>
        <width>4</width>
      </line>
    </extensions>
    <trkseg>
      <trkpt lat="43.38413" lon="5.72987">
        <ele>303.5</ele>
        <time>2021-05-12T08:44:14Z</time>
      </trkpt>
      <trkpt lat="43.38411" lon="5.72997">
        <ele>303.8</ele>
        <time>2021-05-12T08:45:24Z</time>
      </trkpt>
      <trkpt lat="43.38401" lon="5.73">
        <ele>306.6</ele>
        <time>2021-05-12T08:45:46Z</time>
      </trkpt>
      <trkpt lat="43.38392" lon="5.73012">
        <ele>309.5</ele>
        <time>2021-05-12T08:46:02Z</time>
      </trkpt>
      <trkpt lat="43.38383" lon="5.73022">
        <ele>311.8</ele>
        <time>2021-05-12T08:46:20Z</time>
      </trkpt>
      <trkpt lat="43.38375" lon="5.7303">
        <ele>313.8</ele>
        <time>2021-05-12T08:46:32Z</time>
      </trkpt>
      <trkpt lat="43.38368" lon="5.73039">
        <ele>315.4</ele>
        <time>2021-05-12T08:46:48Z</time>
      </trkpt>
      <trkpt lat="43.38362" lon="5.7305">
        <ele>316.2</ele>
        <time>2021-05-12T08:47:02Z</time>
      </trkpt>
      <trkpt lat="43.38358" lon="5.73063">
        <ele>316.5</ele>
        <time>2021-05-12T08:47:14Z</time>
      </trkpt>
      <trkpt lat="43.38356" lon="5.73077">
        <ele>316.3</ele>
        <time>2021-05-12T08:47:26Z</time>
      </trkpt>
      <trkpt lat="43.38353" lon="5.73088">
        <ele>316.9</ele>
        <time>2021-05-12T08:47:44Z</time>
      </trkpt>
      <trkpt lat="43.38347" lon="5.731">
        <ele>318.6</ele>
        <time>2021-05-12T08:47:58Z</time>
      </trkpt>
      <trkpt lat="43.38347" lon="5.73114">
        <ele>319.7</ele>
        <time>2021-05-12T08:48:10Z</time>
      </trkpt>
      <trkpt lat="43.38344" lon="5.73127">
        <ele>321</ele>
        <time>2021-05-12T08:48:26Z</time>
      </trkpt>
      <trkpt lat="43.38339" lon="5.73138">
        <ele>322.5</ele>
        <time>2021-05-12T08:48:38Z</time>
      </trkpt>
      <trkpt lat="43.38337" lon="5.7315">
        <ele>323.4</ele>
        <time>2021-05-12T08:48:56Z</time>
      </trkpt>
      <trkpt lat="43.38334" lon="5.73162">
        <ele>324.7</ele>
        <time>2021-05-12T08:49:12Z</time>
      </trkpt>
      <trkpt lat="43.38324" lon="5.73167">
        <ele>327.2</ele>
        <time>2021-05-12T08:49:28Z</time>
      </trkpt>
      <trkpt lat="43.38314" lon="5.73172">
        <ele>330</ele>
        <time>2021-05-12T08:49:44Z</time>
      </trkpt>
      <trkpt lat="43.38309" lon="5.73184">
        <ele>332.3</ele>
        <time>2021-05-12T08:50:00Z</time>
      </trkpt>
      <trkpt lat="43.38301" lon="5.73193">
        <ele>334.5</ele>
        <time>2021-05-12T08:50:08Z</time>
      </trkpt>
      <trkpt lat="43.38292" lon="5.73201">
        <ele>336.4</ele>
        <time>2021-05-12T08:50:20Z</time>
      </trkpt>
      <trkpt lat="43.38282" lon="5.73206">
        <ele>337.8</ele>
        <time>2021-05-12T08:50:32Z</time>
      </trkpt>
      <trkpt lat="43.38273" lon="5.73212">
        <ele>338.9</ele>
        <time>2021-05-12T08:50:46Z</time>
      </trkpt>
      <trkpt lat="43.38263" lon="5.73214">
        <ele>339.8</ele>
        <time>2021-05-12T08:51:00Z</time>
      </trkpt>
      <trkpt lat="43.38255" lon="5.73209">
        <ele>340.9</ele>
        <time>2021-05-12T08:51:16Z</time>
      </trkpt>
      <trkpt lat="43.38248" lon="5.732">
        <ele>342.4</ele>
        <time>2021-05-12T08:51:28Z</time>
      </trkpt>
      <trkpt lat="43.38238" lon="5.73202">
        <ele>344.5</ele>
        <time>2021-05-12T08:51:40Z</time>
      </trkpt>
      <trkpt lat="43.38228" lon="5.73206">
        <ele>346.3</ele>
        <time>2021-05-12T08:51:50Z</time>
      </trkpt>
      <trkpt lat="43.38216" lon="5.73212">
        <ele>348.1</ele>
        <time>2021-05-12T08:52:02Z</time>
      </trkpt>
      <trkpt lat="43.3821" lon="5.73221">
        <ele>348.2</ele>
        <time>2021-05-12T08:52:20Z</time>
      </trkpt>
      <trkpt lat="43.38204" lon="5.73235">
        <ele>347.6</ele>
        <time>2021-05-12T08:52:32Z</time>
      </trkpt>
      <trkpt lat="43.38201" lon="5.73248">
        <ele>346.4</ele>
        <time>2021-05-12T08:52:44Z</time>
      </trkpt>
      <trkpt lat="43.38198" lon="5.73263">
        <ele>347.9</ele>
        <time>2021-05-12T08:52:58Z</time>
      </trkpt>
      <trkpt lat="43.38195" lon="5.73275">
        <ele>349.5</ele>
        <time>2021-05-12T08:53:16Z</time>
      </trkpt>
      <trkpt lat="43.38188" lon="5.73285">
        <ele>350.6</ele>
        <time>2021-05-12T08:53:30Z</time>
      </trkpt>
      <trkpt lat="43.38184" lon="5.73298">
        <ele>351.5</ele>
        <time>2021-05-12T08:53:44Z</time>
      </trkpt>
      <trkpt lat="43.38179" lon="5.7331">
        <ele>351.9</ele>
        <time>2021-05-12T08:53:58Z</time>
      </trkpt>
      <trkpt lat="43.3817" lon="5.73315">
        <ele>351.3</ele>
        <time>2021-05-12T08:54:12Z</time>
      </trkpt>
      <trkpt lat="43.3816" lon="5.73318">
        <ele>351.5</ele>
        <time>2021-05-12T08:54:24Z</time>
      </trkpt>
      <trkpt lat="43.38148" lon="5.73319">
        <ele>352.3</ele>
        <time>2021-05-12T08:54:38Z</time>
      </trkpt>
      <trkpt lat="43.38139" lon="5.73317">
        <ele>353.2</ele>
        <time>2021-05-12T08:55:40Z</time>
      </trkpt>
      <trkpt lat="43.38129" lon="5.73315">
        <ele>354.1</ele>
        <time>2021-05-12T08:55:54Z</time>
      </trkpt>
      <trkpt lat="43.38118" lon="5.73317">
        <ele>354.8</ele>
        <time>2021-05-12T08:56:08Z</time>
      </trkpt>
      <trkpt lat="43.38107" lon="5.7332">
        <ele>355.2</ele>
        <time>2021-05-12T08:56:18Z</time>
      </trkpt>
      <trkpt lat="43.38098" lon="5.73326">
        <ele>354.8</ele>
        <time>2021-05-12T08:56:30Z</time>
      </trkpt>
      <trkpt lat="43.3809" lon="5.73335">
        <ele>354.1</ele>
        <time>2021-05-12T08:56:46Z</time>
      </trkpt>
      <trkpt lat="43.38081" lon="5.73339">
        <ele>355.3</ele>
        <time>2021-05-12T08:57:06Z</time>
      </trkpt>
      <trkpt lat="43.3807" lon="5.73339">
        <ele>356.4</ele>
        <time>2021-05-12T08:57:20Z</time>
      </trkpt>
      <trkpt lat="43.38061" lon="5.73343">
        <ele>358</ele>
        <time>2021-05-12T08:57:34Z</time>
      </trkpt>
      <trkpt lat="43.38052" lon="5.73341">
        <ele>358.6</ele>
        <time>2021-05-12T08:57:46Z</time>
      </trkpt>
      <trkpt lat="43.38041" lon="5.73343">
        <ele>359.8</ele>
        <time>2021-05-12T08:58:00Z</time>
      </trkpt>
      <trkpt lat="43.38031" lon="5.73342">
        <ele>360.7</ele>
        <time>2021-05-12T08:58:14Z</time>
      </trkpt>
      <trkpt lat="43.3802" lon="5.73345">
        <ele>362</ele>
        <time>2021-05-12T08:58:30Z</time>
      </trkpt>
      <trkpt lat="43.38008" lon="5.73348">
        <ele>363.4</ele>
        <time>2021-05-12T08:58:42Z</time>
      </trkpt>
      <trkpt lat="43.37998" lon="5.73351">
        <ele>364.4</ele>
        <time>2021-05-12T08:58:52Z</time>
      </trkpt>
      <trkpt lat="43.37989" lon="5.73358">
        <ele>365.7</ele>
        <time>2021-05-12T08:59:12Z</time>
      </trkpt>
      <trkpt lat="43.37983" lon="5.73368">
        <ele>366.8</ele>
        <time>2021-05-12T08:59:22Z</time>
      </trkpt>
      <trkpt lat="43.37977" lon="5.73378">
        <ele>367.7</ele>
        <time>2021-05-12T08:59:34Z</time>
      </trkpt>
      <trkpt lat="43.37967" lon="5.7338">
        <ele>368.3</ele>
        <time>2021-05-12T08:59:48Z</time>
      </trkpt>
      <trkpt lat="43.37959" lon="5.73375">
        <ele>368.7</ele>
        <time>2021-05-12T09:00:16Z</time>
      </trkpt>
      <trkpt lat="43.37947" lon="5.73374">
        <ele>369.5</ele>
        <time>2021-05-12T09:00:30Z</time>
      </trkpt>
      <trkpt lat="43.37938" lon="5.7338">
        <ele>370</ele>
        <time>2021-05-12T09:00:42Z</time>
      </trkpt>
      <trkpt lat="43.37927" lon="5.73382">
        <ele>370.7</ele>
        <time>2021-05-12T09:00:54Z</time>
      </trkpt>
      <trkpt lat="43.37916" lon="5.73383">
        <ele>371.2</ele>
        <time>2021-05-12T09:01:04Z</time>
      </trkpt>
      <trkpt lat="43.37907" lon="5.73378">
        <ele>371.8</ele>
        <time>2021-05-12T09:01:20Z</time>
      </trkpt>
      <trkpt lat="43.37896" lon="5.73376">
        <ele>372.4</ele>
        <time>2021-05-12T09:01:36Z</time>
      </trkpt>
      <trkpt lat="43.37886" lon="5.73373">
        <ele>373.1</ele>
        <time>2021-05-12T09:01:58Z</time>
      </trkpt>
      <trkpt lat="43.37877" lon="5.73381">
        <ele>373</ele>
        <time>2021-05-12T09:02:12Z</time>
      </trkpt>
      <trkpt lat="43.37868" lon="5.73389">
        <ele>373</ele>
        <time>2021-05-12T09:02:26Z</time>
      </trkpt>
      <trkpt lat="43.37859" lon="5.73394">
        <ele>373</ele>
        <time>2021-05-12T09:02:34Z</time>
      </trkpt>
      <trkpt lat="43.37849" lon="5.73401">
        <ele>372.8</ele>
        <time>2021-05-12T09:02:46Z</time>
      </trkpt>
      <trkpt lat="43.37839" lon="5.73411">
        <ele>372.3</ele>
        <time>2021-05-12T09:03:00Z</time>
      </trkpt>
      <trkpt lat="43.37833" lon="5.73422">
        <ele>372.8</ele>
        <time>2021-05-12T09:03:16Z</time>
      </trkpt>
      <trkpt lat="43.37824" lon="5.73427">
        <ele>374.1</ele>
        <time>2021-05-12T09:03:28Z</time>
      </trkpt>
      <trkpt lat="43.37813" lon="5.73426">
        <ele>374.8</ele>
        <time>2021-05-12T09:03:42Z</time>
      </trkpt>
      <trkpt lat="43.37802" lon="5.73426">
        <ele>375.7</ele>
        <time>2021-05-12T09:03:58Z</time>
      </trkpt>
      <trkpt lat="43.37792" lon="5.73423">
        <ele>376.1</ele>
        <time>2021-05-12T09:04:18Z</time>
      </trkpt>
      <trkpt lat="43.37781" lon="5.73422">
        <ele>376.8</ele>
        <time>2021-05-12T09:04:30Z</time>
      </trkpt>
      <trkpt lat="43.37772" lon="5.73425">
        <ele>377.9</ele>
        <time>2021-05-12T09:04:44Z</time>
      </trkpt>
      <trkpt lat="43.37761" lon="5.73428">
        <ele>378.8</ele>
        <time>2021-05-12T09:04:56Z</time>
      </trkpt>
      <trkpt lat="43.37752" lon="5.73432">
        <ele>379.7</ele>
        <time>2021-05-12T09:05:08Z</time>
      </trkpt>
      <trkpt lat="43.37743" lon="5.73437">
        <ele>380.7</ele>
        <time>2021-05-12T09:05:26Z</time>
      </trkpt>
      <trkpt lat="43.37735" lon="5.73446">
        <ele>381.9</ele>
        <time>2021-05-12T09:05:38Z</time>
      </trkpt>
      <trkpt lat="43.37725" lon="5.73451">
        <ele>383</ele>
        <time>2021-05-12T09:05:54Z</time>
      </trkpt>
      <trkpt lat="43.37723" lon="5.73436">
        <ele>382.2</ele>
        <time>2021-05-12T09:06:12Z</time>
      </trkpt>
      <trkpt lat="43.37717" lon="5.73423">
        <ele>381.8</ele>
        <time>2021-05-12T09:06:28Z</time>
      </trkpt>
      <trkpt lat="43.37709" lon="5.73413">
        <ele>382.4</ele>
        <time>2021-05-12T09:06:42Z</time>
      </trkpt>
      <trkpt lat="43.37699" lon="5.73407">
        <ele>383.7</ele>
        <time>2021-05-12T09:06:56Z</time>
      </trkpt>
      <trkpt lat="43.37694" lon="5.73396">
        <ele>385.2</ele>
        <time>2021-05-12T09:07:22Z</time>
      </trkpt>
      <trkpt lat="43.37685" lon="5.73391">
        <ele>386.3</ele>
        <time>2021-05-12T09:08:12Z</time>
      </trkpt>
      <trkpt lat="43.37676" lon="5.73387">
        <ele>387.2</ele>
        <time>2021-05-12T09:08:26Z</time>
      </trkpt>
      <trkpt lat="43.37666" lon="5.73382">
        <ele>388.4</ele>
        <time>2021-05-12T09:08:38Z</time>
      </trkpt>
      <trkpt lat="43.37656" lon="5.73379">
        <ele>389.5</ele>
        <time>2021-05-12T09:08:50Z</time>
      </trkpt>
      <trkpt lat="43.37646" lon="5.73378">
        <ele>390.4</ele>
        <time>2021-05-12T09:09:02Z</time>
      </trkpt>
      <trkpt lat="43.37634" lon="5.7338">
        <ele>391.1</ele>
        <time>2021-05-12T09:09:16Z</time>
      </trkpt>
      <trkpt lat="43.37625" lon="5.73389">
        <ele>391.4</ele>
        <time>2021-05-12T09:09:28Z</time>
      </trkpt>
      <trkpt lat="43.37617" lon="5.73395">
        <ele>391.7</ele>
        <time>2021-05-12T09:09:38Z</time>
      </trkpt>
      <trkpt lat="43.37608" lon="5.73401">
        <ele>392.2</ele>
        <time>2021-05-12T09:09:50Z</time>
      </trkpt>
      <trkpt lat="43.37596" lon="5.73405">
        <ele>393.1</ele>
        <time>2021-05-12T09:10:04Z</time>
      </trkpt>
      <trkpt lat="43.37587" lon="5.73405">
        <ele>394.1</ele>
        <time>2021-05-12T09:10:16Z</time>
      </trkpt>
      <trkpt lat="43.37577" lon="5.73411">
        <ele>395</ele>
        <time>2021-05-12T09:10:32Z</time>
      </trkpt>
      <trkpt lat="43.37567" lon="5.73413">
        <ele>396.3</ele>
        <time>2021-05-12T09:10:44Z</time>
      </trkpt>
      <trkpt lat="43.37556" lon="5.73412">
        <ele>397.7</ele>
        <time>2021-05-12T09:10:58Z</time>
      </trkpt>
      <trkpt lat="43.37546" lon="5.73409">
        <ele>399.1</ele>
        <time>2021-05-12T09:11:12Z</time>
      </trkpt>
      <trkpt lat="43.37536" lon="5.73413">
        <ele>400.3</ele>
        <time>2021-05-12T09:11:22Z</time>
      </trkpt>
      <trkpt lat="43.37525" lon="5.73418">
        <ele>401.7</ele>
        <time>2021-05-12T09:11:36Z</time>
      </trkpt>
      <trkpt lat="43.37516" lon="5.73425">
        <ele>403.1</ele>
        <time>2021-05-12T09:11:48Z</time>
      </trkpt>
      <trkpt lat="43.37507" lon="5.73434">
        <ele>404.6</ele>
        <time>2021-05-12T09:12:00Z</time>
      </trkpt>
      <trkpt lat="43.37499" lon="5.73441">
        <ele>405.7</ele>
        <time>2021-05-12T09:12:14Z</time>
      </trkpt>
      <trkpt lat="43.37489" lon="5.73445">
        <ele>407</ele>
        <time>2021-05-12T09:12:28Z</time>
      </trkpt>
      <trkpt lat="43.37478" lon="5.7344">
        <ele>408</ele>
        <time>2021-05-12T09:12:44Z</time>
      </trkpt>
      <trkpt lat="43.37466" lon="5.73441">
        <ele>409.5</ele>
        <time>2021-05-12T09:12:58Z</time>
      </trkpt>
      <trkpt lat="43.37456" lon="5.73441">
        <ele>410.6</ele>
        <time>2021-05-12T09:13:10Z</time>
      </trkpt>
      <trkpt lat="43.37446" lon="5.73443">
        <ele>411.8</ele>
        <time>2021-05-12T09:13:24Z</time>
      </trkpt>
      <trkpt lat="43.37438" lon="5.73438">
        <ele>412.6</ele>
        <time>2021-05-12T09:13:42Z</time>
      </trkpt>
      <trkpt lat="43.37426" lon="5.73438">
        <ele>414</ele>
        <time>2021-05-12T09:13:52Z</time>
      </trkpt>
      <trkpt lat="43.37414" lon="5.73436">
        <ele>415.2</ele>
        <time>2021-05-12T09:14:06Z</time>
      </trkpt>
      <trkpt lat="43.37405" lon="5.73437">
        <ele>416.1</ele>
        <time>2021-05-12T09:14:16Z</time>
      </trkpt>
      <trkpt lat="43.37395" lon="5.73442">
        <ele>417.4</ele>
        <time>2021-05-12T09:14:28Z</time>
      </trkpt>
      <trkpt lat="43.37394" lon="5.73441">
        <ele>417.4</ele>
        <time>2021-05-12T09:15:36Z</time>
      </trkpt>
      <trkpt lat="43.37382" lon="5.73442">
        <ele>418.7</ele>
        <time>2021-05-12T09:17:50Z</time>
      </trkpt>
      <trkpt lat="43.3737" lon="5.73441">
        <ele>419.7</ele>
        <time>2021-05-12T09:18:04Z</time>
      </trkpt>
      <trkpt lat="43.3736" lon="5.73441">
        <ele>420.7</ele>
        <time>2021-05-12T09:18:16Z</time>
      </trkpt>
      <trkpt lat="43.3735" lon="5.73431">
        <ele>420.9</ele>
        <time>2021-05-12T09:18:28Z</time>
      </trkpt>
      <trkpt lat="43.37341" lon="5.73422">
        <ele>420.8</ele>
        <time>2021-05-12T09:18:38Z</time>
      </trkpt>
      <trkpt lat="43.37335" lon="5.73408">
        <ele>421.1</ele>
        <time>2021-05-12T09:18:50Z</time>
      </trkpt>
      <trkpt lat="43.37329" lon="5.73397">
        <ele>422.2</ele>
        <time>2021-05-12T09:19:02Z</time>
      </trkpt>
      <trkpt lat="43.37322" lon="5.73381">
        <ele>423.4</ele>
        <time>2021-05-12T09:19:14Z</time>
      </trkpt>
      <trkpt lat="43.37316" lon="5.73369">
        <ele>424.3</ele>
        <time>2021-05-12T09:19:26Z</time>
      </trkpt>
      <trkpt lat="43.37312" lon="5.73355">
        <ele>425</ele>
        <time>2021-05-12T09:20:20Z</time>
      </trkpt>
      <trkpt lat="43.37314" lon="5.73341">
        <ele>425</ele>
        <time>2021-05-12T09:20:42Z</time>
      </trkpt>
      <trkpt lat="43.37311" lon="5.73326">
        <ele>425.9</ele>
        <time>2021-05-12T09:20:54Z</time>
      </trkpt>
      <trkpt lat="43.37308" lon="5.73311">
        <ele>427.3</ele>
        <time>2021-05-12T09:21:06Z</time>
      </trkpt>
      <trkpt lat="43.37302" lon="5.73299">
        <ele>428.8</ele>
        <time>2021-05-12T09:21:18Z</time>
      </trkpt>
      <trkpt lat="43.37299" lon="5.73285">
        <ele>430.3</ele>
        <time>2021-05-12T09:21:30Z</time>
      </trkpt>
      <trkpt lat="43.37293" lon="5.73274">
        <ele>431.7</ele>
        <time>2021-05-12T09:21:42Z</time>
      </trkpt>
      <trkpt lat="43.37284" lon="5.73267">
        <ele>433.1</ele>
        <time>2021-05-12T09:21:52Z</time>
      </trkpt>
      <trkpt lat="43.37283" lon="5.73254">
        <ele>434.2</ele>
        <time>2021-05-12T09:22:06Z</time>
      </trkpt>
      <trkpt lat="43.37285" lon="5.73239">
        <ele>434.4</ele>
        <time>2021-05-12T09:22:18Z</time>
      </trkpt>
      <trkpt lat="43.37289" lon="5.73226">
        <ele>434.2</ele>
        <time>2021-05-12T09:22:32Z</time>
      </trkpt>
      <trkpt lat="43.37296" lon="5.73212">
        <ele>433.8</ele>
        <time>2021-05-12T09:22:44Z</time>
      </trkpt>
      <trkpt lat="43.37296" lon="5.73198">
        <ele>434</ele>
        <time>2021-05-12T09:22:56Z</time>
      </trkpt>
      <trkpt lat="43.37297" lon="5.73182">
        <ele>434.2</ele>
        <time>2021-05-12T09:23:08Z</time>
      </trkpt>
      <trkpt lat="43.37296" lon="5.73166">
        <ele>434.6</ele>
        <time>2021-05-12T09:23:18Z</time>
      </trkpt>
      <trkpt lat="43.37288" lon="5.73153">
        <ele>435.4</ele>
        <time>2021-05-12T09:23:30Z</time>
      </trkpt>
      <trkpt lat="43.37279" lon="5.73143">
        <ele>436.1</ele>
        <time>2021-05-12T09:23:42Z</time>
      </trkpt>
      <trkpt lat="43.37269" lon="5.73137">
        <ele>436.7</ele>
        <time>2021-05-12T09:23:54Z</time>
      </trkpt>
      <trkpt lat="43.3726" lon="5.73131">
        <ele>437.1</ele>
        <time>2021-05-12T09:26:28Z</time>
      </trkpt>
      <trkpt lat="43.37251" lon="5.73123">
        <ele>437.3</ele>
        <time>2021-05-12T09:26:40Z</time>
      </trkpt>
      <trkpt lat="43.37245" lon="5.73111">
        <ele>437.4</ele>
        <time>2021-05-12T09:26:54Z</time>
      </trkpt>
      <trkpt lat="43.37236" lon="5.73104">
        <ele>437.6</ele>
        <time>2021-05-12T09:27:06Z</time>
      </trkpt>
      <trkpt lat="43.37229" lon="5.73094">
        <ele>437.7</ele>
        <time>2021-05-12T09:27:18Z</time>
      </trkpt>
      <trkpt lat="43.37221" lon="5.73081">
        <ele>437.5</ele>
        <time>2021-05-12T09:27:30Z</time>
      </trkpt>
      <trkpt lat="43.37215" lon="5.73067">
        <ele>436.1</ele>
        <time>2021-05-12T09:27:42Z</time>
      </trkpt>
      <trkpt lat="43.37208" lon="5.73054">
        <ele>435</ele>
        <time>2021-05-12T09:27:52Z</time>
      </trkpt>
      <trkpt lat="43.37201" lon="5.73041">
        <ele>433.8</ele>
        <time>2021-05-12T09:28:04Z</time>
      </trkpt>
      <trkpt lat="43.37196" lon="5.73026">
        <ele>432.3</ele>
        <time>2021-05-12T09:28:16Z</time>
      </trkpt>
      <trkpt lat="43.3719" lon="5.73011">
        <ele>430.9</ele>
        <time>2021-05-12T09:28:28Z</time>
      </trkpt>
      <trkpt lat="43.37185" lon="5.72999">
        <ele>429.8</ele>
        <time>2021-05-12T09:28:38Z</time>
      </trkpt>
      <trkpt lat="43.37181" lon="5.72984">
        <ele>426.9</ele>
        <time>2021-05-12T09:28:50Z</time>
      </trkpt>
      <trkpt lat="43.37177" lon="5.7297">
        <ele>424.2</ele>
        <time>2021-05-12T09:29:02Z</time>
      </trkpt>
      <trkpt lat="43.37174" lon="5.72956">
        <ele>421.2</ele>
        <time>2021-05-12T09:29:12Z</time>
      </trkpt>
      <trkpt lat="43.37171" lon="5.72941">
        <ele>417.9</ele>
        <time>2021-05-12T09:29:22Z</time>
      </trkpt>
      <trkpt lat="43.37168" lon="5.72926">
        <ele>414.2</ele>
        <time>2021-05-12T09:29:34Z</time>
      </trkpt>
      <trkpt lat="43.37161" lon="5.72916">
        <ele>411.6</ele>
        <time>2021-05-12T09:29:42Z</time>
      </trkpt>
      <trkpt lat="43.37153" lon="5.72905">
        <ele>409.3</ele>
        <time>2021-05-12T09:29:54Z</time>
      </trkpt>
      <trkpt lat="43.37142" lon="5.72903">
        <ele>408.5</ele>
        <time>2021-05-12T09:30:04Z</time>
      </trkpt>
      <trkpt lat="43.37131" lon="5.72903">
        <ele>408.1</ele>
        <time>2021-05-12T09:30:12Z</time>
      </trkpt>
      <trkpt lat="43.3712" lon="5.72908">
        <ele>408.6</ele>
        <time>2021-05-12T09:30:20Z</time>
      </trkpt>
      <trkpt lat="43.3711" lon="5.72914">
        <ele>409.3</ele>
        <time>2021-05-12T09:30:30Z</time>
      </trkpt>
      <trkpt lat="43.37099" lon="5.72913">
        <ele>408.8</ele>
        <time>2021-05-12T09:30:42Z</time>
      </trkpt>
      <trkpt lat="43.37086" lon="5.72913">
        <ele>408.2</ele>
        <time>2021-05-12T09:30:54Z</time>
      </trkpt>
      <trkpt lat="43.37075" lon="5.72913">
        <ele>408.4</ele>
        <time>2021-05-12T09:31:04Z</time>
      </trkpt>
      <trkpt lat="43.37064" lon="5.72918">
        <ele>409.7</ele>
        <time>2021-05-12T09:31:14Z</time>
      </trkpt>
      <trkpt lat="43.37053" lon="5.72924">
        <ele>411.1</ele>
        <time>2021-05-12T09:31:24Z</time>
      </trkpt>
      <trkpt lat="43.37045" lon="5.72932">
        <ele>412.4</ele>
        <time>2021-05-12T09:31:32Z</time>
      </trkpt>
      <trkpt lat="43.37038" lon="5.72945">
        <ele>414.3</ele>
        <time>2021-05-12T09:31:42Z</time>
      </trkpt>
      <trkpt lat="43.37034" lon="5.72957">
        <ele>415.9</ele>
        <time>2021-05-12T09:31:50Z</time>
      </trkpt>
      <trkpt lat="43.37031" lon="5.72974">
        <ele>418</ele>
        <time>2021-05-12T09:32:00Z</time>
      </trkpt>
      <trkpt lat="43.37029" lon="5.72989">
        <ele>419.8</ele>
        <time>2021-05-12T09:32:10Z</time>
      </trkpt>
      <trkpt lat="43.37029" lon="5.73004">
        <ele>421.7</ele>
        <time>2021-05-12T09:32:20Z</time>
      </trkpt>
      <trkpt lat="43.37031" lon="5.73017">
        <ele>423.8</ele>
        <time>2021-05-12T09:32:28Z</time>
      </trkpt>
      <trkpt lat="43.37028" lon="5.73032">
        <ele>425.4</ele>
        <time>2021-05-12T09:32:40Z</time>
      </trkpt>
      <trkpt lat="43.37019" lon="5.73042">
        <ele>425.2</ele>
        <time>2021-05-12T09:32:50Z</time>
      </trkpt>
      <trkpt lat="43.37009" lon="5.7305">
        <ele>424.5</ele>
        <time>2021-05-12T09:33:02Z</time>
      </trkpt>
      <trkpt lat="43.37003" lon="5.73063">
        <ele>425.2</ele>
        <time>2021-05-12T09:33:20Z</time>
      </trkpt>
      <trkpt lat="43.37001" lon="5.73081">
        <ele>426.9</ele>
        <time>2021-05-12T09:33:32Z</time>
      </trkpt>
      <trkpt lat="43.36998" lon="5.73097">
        <ele>429.3</ele>
        <time>2021-05-12T09:33:44Z</time>
      </trkpt>
      <trkpt lat="43.36993" lon="5.73111">
        <ele>432.2</ele>
        <time>2021-05-12T09:33:56Z</time>
      </trkpt>
      <trkpt lat="43.36987" lon="5.73124">
        <ele>434.5</ele>
        <time>2021-05-12T09:34:10Z</time>
      </trkpt>
      <trkpt lat="43.36981" lon="5.73136">
        <ele>436.2</ele>
        <time>2021-05-12T09:34:22Z</time>
      </trkpt>
      <trkpt lat="43.36972" lon="5.73141">
        <ele>437.3</ele>
        <time>2021-05-12T09:34:34Z</time>
      </trkpt>
      <trkpt lat="43.36962" lon="5.73149">
        <ele>438.1</ele>
        <time>2021-05-12T09:34:48Z</time>
      </trkpt>
      <trkpt lat="43.36952" lon="5.73157">
        <ele>438.5</ele>
        <time>2021-05-12T09:35:04Z</time>
      </trkpt>
      <trkpt lat="43.36941" lon="5.7316">
        <ele>438.6</ele>
        <time>2021-05-12T09:35:16Z</time>
      </trkpt>
      <trkpt lat="43.36931" lon="5.73165">
        <ele>438.3</ele>
        <time>2021-05-12T09:35:28Z</time>
      </trkpt>
      <trkpt lat="43.36922" lon="5.73171">
        <ele>438.7</ele>
        <time>2021-05-12T09:35:40Z</time>
      </trkpt>
      <trkpt lat="43.36914" lon="5.73181">
        <ele>440.6</ele>
        <time>2021-05-12T09:35:52Z</time>
      </trkpt>
      <trkpt lat="43.36906" lon="5.73191">
        <ele>443.6</ele>
        <time>2021-05-12T09:36:04Z</time>
      </trkpt>
      <trkpt lat="43.36897" lon="5.73202">
        <ele>446.2</ele>
        <time>2021-05-12T09:36:16Z</time>
      </trkpt>
      <trkpt lat="43.36887" lon="5.73208">
        <ele>447.9</ele>
        <time>2021-05-12T09:36:28Z</time>
      </trkpt>
      <trkpt lat="43.36878" lon="5.73214">
        <ele>449.1</ele>
        <time>2021-05-12T09:36:40Z</time>
      </trkpt>
      <trkpt lat="43.36869" lon="5.73221">
        <ele>450</ele>
        <time>2021-05-12T09:36:52Z</time>
      </trkpt>
      <trkpt lat="43.36857" lon="5.73223">
        <ele>450.9</ele>
        <time>2021-05-12T09:37:04Z</time>
      </trkpt>
      <trkpt lat="43.36848" lon="5.73228">
        <ele>451.2</ele>
        <time>2021-05-12T09:37:16Z</time>
      </trkpt>
      <trkpt lat="43.36837" lon="5.73232">
        <ele>451.4</ele>
        <time>2021-05-12T09:37:26Z</time>
      </trkpt>
      <trkpt lat="43.36827" lon="5.73239">
        <ele>452</ele>
        <time>2021-05-12T09:37:38Z</time>
      </trkpt>
      <trkpt lat="43.36818" lon="5.73249">
        <ele>452.8</ele>
        <time>2021-05-12T09:37:50Z</time>
      </trkpt>
      <trkpt lat="43.36811" lon="5.7326">
        <ele>455.2</ele>
        <time>2021-05-12T09:38:02Z</time>
      </trkpt>
      <trkpt lat="43.36806" lon="5.73273">
        <ele>457.4</ele>
        <time>2021-05-12T09:38:14Z</time>
      </trkpt>
      <trkpt lat="43.36803" lon="5.73286">
        <ele>459</ele>
        <time>2021-05-12T09:38:26Z</time>
      </trkpt>
      <trkpt lat="43.368" lon="5.733">
        <ele>460.3</ele>
        <time>2021-05-12T09:38:38Z</time>
      </trkpt>
      <trkpt lat="43.36795" lon="5.73313">
        <ele>461.4</ele>
        <time>2021-05-12T09:38:50Z</time>
      </trkpt>
      <trkpt lat="43.36788" lon="5.73325">
        <ele>462.3</ele>
        <time>2021-05-12T09:39:02Z</time>
      </trkpt>
      <trkpt lat="43.36783" lon="5.73337">
        <ele>463.2</ele>
        <time>2021-05-12T09:39:14Z</time>
      </trkpt>
      <trkpt lat="43.36778" lon="5.7335">
        <ele>464.8</ele>
        <time>2021-05-12T09:39:26Z</time>
      </trkpt>
      <trkpt lat="43.36773" lon="5.73361">
        <ele>465.8</ele>
        <time>2021-05-12T09:39:38Z</time>
      </trkpt>
      <trkpt lat="43.36767" lon="5.73372">
        <ele>466.6</ele>
        <time>2021-05-12T09:39:50Z</time>
      </trkpt>
      <trkpt lat="43.36758" lon="5.73382">
        <ele>466.8</ele>
        <time>2021-05-12T09:40:02Z</time>
      </trkpt>
      <trkpt lat="43.36749" lon="5.73391">
        <ele>466.6</ele>
        <time>2021-05-12T09:40:14Z</time>
      </trkpt>
      <trkpt lat="43.36738" lon="5.73396">
        <ele>467.4</ele>
        <time>2021-05-12T09:40:26Z</time>
      </trkpt>
      <trkpt lat="43.36728" lon="5.73398">
        <ele>468.1</ele>
        <time>2021-05-12T09:40:40Z</time>
      </trkpt>
      <trkpt lat="43.36715" lon="5.734">
        <ele>468.8</ele>
        <time>2021-05-12T09:40:54Z</time>
      </trkpt>
      <trkpt lat="43.36706" lon="5.73404">
        <ele>469.2</ele>
        <time>2021-05-12T09:41:02Z</time>
      </trkpt>
      <trkpt lat="43.36697" lon="5.73416">
        <ele>469.3</ele>
        <time>2021-05-12T09:41:14Z</time>
      </trkpt>
      <trkpt lat="43.36691" lon="5.7343">
        <ele>471.9</ele>
        <time>2021-05-12T09:41:26Z</time>
      </trkpt>
      <trkpt lat="43.36684" lon="5.73441">
        <ele>473.8</ele>
        <time>2021-05-12T09:41:40Z</time>
      </trkpt>
      <trkpt lat="43.36673" lon="5.73447">
        <ele>474.4</ele>
        <time>2021-05-12T09:41:52Z</time>
      </trkpt>
      <trkpt lat="43.36663" lon="5.73446">
        <ele>474.4</ele>
        <time>2021-05-12T09:42:02Z</time>
      </trkpt>
      <trkpt lat="43.36654" lon="5.73444">
        <ele>474.8</ele>
        <time>2021-05-12T09:42:14Z</time>
      </trkpt>
      <trkpt lat="43.36643" lon="5.73439">
        <ele>475.1</ele>
        <time>2021-05-12T09:42:28Z</time>
      </trkpt>
      <trkpt lat="43.36631" lon="5.73433">
        <ele>475.6</ele>
        <time>2021-05-12T09:42:40Z</time>
      </trkpt>
      <trkpt lat="43.36621" lon="5.73437">
        <ele>476.8</ele>
        <time>2021-05-12T09:42:50Z</time>
      </trkpt>
      <trkpt lat="43.36613" lon="5.73444">
        <ele>477.8</ele>
        <time>2021-05-12T09:43:02Z</time>
      </trkpt>
      <trkpt lat="43.36605" lon="5.73457">
        <ele>478.9</ele>
        <time>2021-05-12T09:43:14Z</time>
      </trkpt>
      <trkpt lat="43.36603" lon="5.73472">
        <ele>479.5</ele>
        <time>2021-05-12T09:43:24Z</time>
      </trkpt>
      <trkpt lat="43.36601" lon="5.73487">
        <ele>480</ele>
        <time>2021-05-12T09:43:34Z</time>
      </trkpt>
      <trkpt lat="43.36598" lon="5.73502">
        <ele>480.6</ele>
        <time>2021-05-12T09:43:46Z</time>
      </trkpt>
      <trkpt lat="43.36595" lon="5.73518">
        <ele>481.8</ele>
        <time>2021-05-12T09:43:58Z</time>
      </trkpt>
      <trkpt lat="43.36593" lon="5.73531">
        <ele>482.7</ele>
        <time>2021-05-12T09:44:08Z</time>
      </trkpt>
      <trkpt lat="43.36588" lon="5.73545">
        <ele>483.3</ele>
        <time>2021-05-12T09:44:20Z</time>
      </trkpt>
      <trkpt lat="43.36584" lon="5.73558">
        <ele>483.6</ele>
        <time>2021-05-12T09:44:32Z</time>
      </trkpt>
      <trkpt lat="43.36576" lon="5.73557">
        <ele>485</ele>
        <time>2021-05-12T09:44:48Z</time>
      </trkpt>
      <trkpt lat="43.36574" lon="5.73541">
        <ele>484.7</ele>
        <time>2021-05-12T09:45:00Z</time>
      </trkpt>
      <trkpt lat="43.36575" lon="5.73523">
        <ele>483.5</ele>
        <time>2021-05-12T09:45:10Z</time>
      </trkpt>
      <trkpt lat="43.36574" lon="5.73507">
        <ele>482.9</ele>
        <time>2021-05-12T09:45:20Z</time>
      </trkpt>
      <trkpt lat="43.36574" lon="5.73494">
        <ele>482.7</ele>
        <time>2021-05-12T09:45:30Z</time>
      </trkpt>
      <trkpt lat="43.36573" lon="5.73479">
        <ele>482.8</ele>
        <time>2021-05-12T09:45:42Z</time>
      </trkpt>
      <trkpt lat="43.36571" lon="5.73463">
        <ele>483</ele>
        <time>2021-05-12T09:45:54Z</time>
      </trkpt>
      <trkpt lat="43.3657" lon="5.73449">
        <ele>482.9</ele>
        <time>2021-05-12T09:46:06Z</time>
      </trkpt>
      <trkpt lat="43.36571" lon="5.73436">
        <ele>482.5</ele>
        <time>2021-05-12T09:46:18Z</time>
      </trkpt>
      <trkpt lat="43.36575" lon="5.73421">
        <ele>481.4</ele>
        <time>2021-05-12T09:46:32Z</time>
      </trkpt>
      <trkpt lat="43.3658" lon="5.73407">
        <ele>479</ele>
        <time>2021-05-12T09:46:44Z</time>
      </trkpt>
      <trkpt lat="43.36585" lon="5.73393">
        <ele>476.3</ele>
        <time>2021-05-12T09:46:56Z</time>
      </trkpt>
      <trkpt lat="43.36585" lon="5.73379">
        <ele>474.1</ele>
        <time>2021-05-12T09:47:08Z</time>
      </trkpt>
      <trkpt lat="43.36574" lon="5.73378">
        <ele>475</ele>
        <time>2021-05-12T09:47:20Z</time>
      </trkpt>
      <trkpt lat="43.36566" lon="5.73387">
        <ele>477.6</ele>
        <time>2021-05-12T09:47:32Z</time>
      </trkpt>
      <trkpt lat="43.36557" lon="5.73396">
        <ele>480.5</ele>
        <time>2021-05-12T09:47:44Z</time>
      </trkpt>
      <trkpt lat="43.36546" lon="5.73399">
        <ele>482.6</ele>
        <time>2021-05-12T09:47:54Z</time>
      </trkpt>
      <trkpt lat="43.36538" lon="5.73406">
        <ele>485.3</ele>
        <time>2021-05-12T09:48:06Z</time>
      </trkpt>
      <trkpt lat="43.36529" lon="5.73415">
        <ele>488.7</ele>
        <time>2021-05-12T09:48:18Z</time>
      </trkpt>
      <trkpt lat="43.36524" lon="5.73428">
        <ele>491</ele>
        <time>2021-05-12T09:48:30Z</time>
      </trkpt>
      <trkpt lat="43.36522" lon="5.73443">
        <ele>492.6</ele>
        <time>2021-05-12T09:48:42Z</time>
      </trkpt>
      <trkpt lat="43.36521" lon="5.73457">
        <ele>494.1</ele>
        <time>2021-05-12T09:48:56Z</time>
      </trkpt>
      <trkpt lat="43.36519" lon="5.7347">
        <ele>495.8</ele>
        <time>2021-05-12T09:49:08Z</time>
      </trkpt>
      <trkpt lat="43.36516" lon="5.73483">
        <ele>497.7</ele>
        <time>2021-05-12T09:49:22Z</time>
      </trkpt>
      <trkpt lat="43.36514" lon="5.73495">
        <ele>499.5</ele>
        <time>2021-05-12T09:49:34Z</time>
      </trkpt>
      <trkpt lat="43.36509" lon="5.73506">
        <ele>501.3</ele>
        <time>2021-05-12T09:49:46Z</time>
      </trkpt>
      <trkpt lat="43.36504" lon="5.7352">
        <ele>502.1</ele>
        <time>2021-05-12T09:50:02Z</time>
      </trkpt>
      <trkpt lat="43.36497" lon="5.73533">
        <ele>503</ele>
        <time>2021-05-12T09:50:18Z</time>
      </trkpt>
      <trkpt lat="43.36491" lon="5.73545">
        <ele>503.5</ele>
        <time>2021-05-12T09:50:32Z</time>
      </trkpt>
      <trkpt lat="43.36484" lon="5.73556">
        <ele>504.4</ele>
        <time>2021-05-12T09:50:46Z</time>
      </trkpt>
      <trkpt lat="43.36474" lon="5.73559">
        <ele>506.4</ele>
        <time>2021-05-12T09:51:02Z</time>
      </trkpt>
      <trkpt lat="43.36475" lon="5.73558">
        <ele>506.3</ele>
        <time>2021-05-12T10:04:46Z</time>
      </trkpt>
      <trkpt lat="43.36468" lon="5.73548">
        <ele>507.9</ele>
        <time>2021-05-12T10:04:58Z</time>
      </trkpt>
      <trkpt lat="43.36463" lon="5.73535">
        <ele>509.3</ele>
        <time>2021-05-12T10:05:12Z</time>
      </trkpt>
      <trkpt lat="43.3646" lon="5.73519">
        <ele>510.2</ele>
        <time>2021-05-12T10:05:24Z</time>
      </trkpt>
      <trkpt lat="43.36447" lon="5.73511">
        <ele>512.8</ele>
        <time>2021-05-12T10:05:34Z</time>
      </trkpt>
      <trkpt lat="43.36436" lon="5.73507">
        <ele>514.6</ele>
        <time>2021-05-12T10:05:42Z</time>
      </trkpt>
      <trkpt lat="43.36426" lon="5.73503">
        <ele>516.4</ele>
        <time>2021-05-12T10:05:54Z</time>
      </trkpt>
      <trkpt lat="43.36417" lon="5.73497">
        <ele>517.2</ele>
        <time>2021-05-12T10:06:06Z</time>
      </trkpt>
      <trkpt lat="43.36407" lon="5.7349">
        <ele>515.7</ele>
        <time>2021-05-12T10:06:18Z</time>
      </trkpt>
      <trkpt lat="43.36398" lon="5.73493">
        <ele>517.2</ele>
        <time>2021-05-12T10:06:30Z</time>
      </trkpt>
      <trkpt lat="43.36386" lon="5.73499">
        <ele>520</ele>
        <time>2021-05-12T10:06:44Z</time>
      </trkpt>
      <trkpt lat="43.36379" lon="5.7351">
        <ele>521.2</ele>
        <time>2021-05-12T10:06:58Z</time>
      </trkpt>
      <trkpt lat="43.36377" lon="5.73523">
        <ele>522.1</ele>
        <time>2021-05-12T10:07:10Z</time>
      </trkpt>
      <trkpt lat="43.36373" lon="5.73535">
        <ele>523.2</ele>
        <time>2021-05-12T10:07:22Z</time>
      </trkpt>
      <trkpt lat="43.36365" lon="5.73547">
        <ele>524.9</ele>
        <time>2021-05-12T10:07:36Z</time>
      </trkpt>
      <trkpt lat="43.36357" lon="5.73556">
        <ele>526.6</ele>
        <time>2021-05-12T10:07:48Z</time>
      </trkpt>
      <trkpt lat="43.36348" lon="5.73564">
        <ele>528.6</ele>
        <time>2021-05-12T10:08:00Z</time>
      </trkpt>
      <trkpt lat="43.36341" lon="5.73575">
        <ele>530.8</ele>
        <time>2021-05-12T10:08:12Z</time>
      </trkpt>
      <trkpt lat="43.36333" lon="5.73585">
        <ele>532.9</ele>
        <time>2021-05-12T10:08:26Z</time>
      </trkpt>
      <trkpt lat="43.36325" lon="5.73593">
        <ele>533.3</ele>
        <time>2021-05-12T10:08:38Z</time>
      </trkpt>
      <trkpt lat="43.36314" lon="5.73597">
        <ele>534.4</ele>
        <time>2021-05-12T10:08:50Z</time>
      </trkpt>
      <trkpt lat="43.36303" lon="5.73595">
        <ele>536</ele>
        <time>2021-05-12T10:09:12Z</time>
      </trkpt>
      <trkpt lat="43.36293" lon="5.73588">
        <ele>537.3</ele>
        <time>2021-05-12T10:09:22Z</time>
      </trkpt>
      <trkpt lat="43.36283" lon="5.73585">
        <ele>538.5</ele>
        <time>2021-05-12T10:09:34Z</time>
      </trkpt>
      <trkpt lat="43.36272" lon="5.73591">
        <ele>539.7</ele>
        <time>2021-05-12T10:09:46Z</time>
      </trkpt>
      <trkpt lat="43.36264" lon="5.736">
        <ele>541</ele>
        <time>2021-05-12T10:09:58Z</time>
      </trkpt>
      <trkpt lat="43.36258" lon="5.73615">
        <ele>542.3</ele>
        <time>2021-05-12T10:10:10Z</time>
      </trkpt>
      <trkpt lat="43.36254" lon="5.73631">
        <ele>543.6</ele>
        <time>2021-05-12T10:10:22Z</time>
      </trkpt>
      <trkpt lat="43.36254" lon="5.73648">
        <ele>544.3</ele>
        <time>2021-05-12T10:10:34Z</time>
      </trkpt>
      <trkpt lat="43.36254" lon="5.73665">
        <ele>545</ele>
        <time>2021-05-12T10:10:46Z</time>
      </trkpt>
      <trkpt lat="43.36253" lon="5.7368">
        <ele>545</ele>
        <time>2021-05-12T10:10:58Z</time>
      </trkpt>
      <trkpt lat="43.36247" lon="5.73694">
        <ele>545.2</ele>
        <time>2021-05-12T10:11:10Z</time>
      </trkpt>
      <trkpt lat="43.36238" lon="5.73703">
        <ele>544.9</ele>
        <time>2021-05-12T10:11:20Z</time>
      </trkpt>
      <trkpt lat="43.36229" lon="5.73711">
        <ele>544.7</ele>
        <time>2021-05-12T10:11:30Z</time>
      </trkpt>
      <trkpt lat="43.36219" lon="5.73722">
        <ele>544.8</ele>
        <time>2021-05-12T10:11:42Z</time>
      </trkpt>
      <trkpt lat="43.36212" lon="5.73736">
        <ele>545.1</ele>
        <time>2021-05-12T10:11:54Z</time>
      </trkpt>
      <trkpt lat="43.36212" lon="5.73749">
        <ele>545.4</ele>
        <time>2021-05-12T10:12:02Z</time>
      </trkpt>
      <trkpt lat="43.36211" lon="5.73762">
        <ele>546.4</ele>
        <time>2021-05-12T10:12:10Z</time>
      </trkpt>
      <trkpt lat="43.36204" lon="5.73772">
        <ele>547.6</ele>
        <time>2021-05-12T10:12:22Z</time>
      </trkpt>
      <trkpt lat="43.36192" lon="5.73776">
        <ele>548.4</ele>
        <time>2021-05-12T10:12:34Z</time>
      </trkpt>
      <trkpt lat="43.3618" lon="5.73778">
        <ele>549.1</ele>
        <time>2021-05-12T10:12:44Z</time>
      </trkpt>
      <trkpt lat="43.3617" lon="5.73782">
        <ele>549.9</ele>
        <time>2021-05-12T10:12:58Z</time>
      </trkpt>
      <trkpt lat="43.3616" lon="5.73787">
        <ele>549.3</ele>
        <time>2021-05-12T10:13:24Z</time>
      </trkpt>
      <trkpt lat="43.36152" lon="5.73793">
        <ele>548.6</ele>
        <time>2021-05-12T10:13:36Z</time>
      </trkpt>
      <trkpt lat="43.36144" lon="5.73801">
        <ele>548.1</ele>
        <time>2021-05-12T10:13:48Z</time>
      </trkpt>
      <trkpt lat="43.36136" lon="5.73809">
        <ele>547.5</ele>
        <time>2021-05-12T10:14:00Z</time>
      </trkpt>
      <trkpt lat="43.36127" lon="5.73803">
        <ele>545.4</ele>
        <time>2021-05-12T10:14:28Z</time>
      </trkpt>
      <trkpt lat="43.36118" lon="5.73799">
        <ele>543.4</ele>
        <time>2021-05-12T10:14:46Z</time>
      </trkpt>
      <trkpt lat="43.36107" lon="5.73795">
        <ele>541.1</ele>
        <time>2021-05-12T10:15:02Z</time>
      </trkpt>
      <trkpt lat="43.36098" lon="5.73792">
        <ele>539</ele>
        <time>2021-05-12T10:15:16Z</time>
      </trkpt>
      <trkpt lat="43.36088" lon="5.73795">
        <ele>537.8</ele>
        <time>2021-05-12T10:15:30Z</time>
      </trkpt>
      <trkpt lat="43.36078" lon="5.73801">
        <ele>535.9</ele>
        <time>2021-05-12T10:15:46Z</time>
      </trkpt>
      <trkpt lat="43.36069" lon="5.73809">
        <ele>533.9</ele>
        <time>2021-05-12T10:15:58Z</time>
      </trkpt>
      <trkpt lat="43.36062" lon="5.73818">
        <ele>532.9</ele>
        <time>2021-05-12T10:16:14Z</time>
      </trkpt>
      <trkpt lat="43.36055" lon="5.73829">
        <ele>532.1</ele>
        <time>2021-05-12T10:16:30Z</time>
      </trkpt>
      <trkpt lat="43.36048" lon="5.7384">
        <ele>531.2</ele>
        <time>2021-05-12T10:16:52Z</time>
      </trkpt>
      <trkpt lat="43.36041" lon="5.73851">
        <ele>530.3</ele>
        <time>2021-05-12T10:17:06Z</time>
      </trkpt>
      <trkpt lat="43.36033" lon="5.7386">
        <ele>528.9</ele>
        <time>2021-05-12T10:17:20Z</time>
      </trkpt>
      <trkpt lat="43.36025" lon="5.73868">
        <ele>527.2</ele>
        <time>2021-05-12T10:17:34Z</time>
      </trkpt>
      <trkpt lat="43.36016" lon="5.73878">
        <ele>525.6</ele>
        <time>2021-05-12T10:17:50Z</time>
      </trkpt>
      <trkpt lat="43.36012" lon="5.73893">
        <ele>525.8</ele>
        <time>2021-05-12T10:18:08Z</time>
      </trkpt>
      <trkpt lat="43.36004" lon="5.73903">
        <ele>524.6</ele>
        <time>2021-05-12T10:18:24Z</time>
      </trkpt>
      <trkpt lat="43.35997" lon="5.73913">
        <ele>523.7</ele>
        <time>2021-05-12T10:18:38Z</time>
      </trkpt>
      <trkpt lat="43.35991" lon="5.73925">
        <ele>523.1</ele>
        <time>2021-05-12T10:18:54Z</time>
      </trkpt>
      <trkpt lat="43.35982" lon="5.73932">
        <ele>520.9</ele>
        <time>2021-05-12T10:19:10Z</time>
      </trkpt>
      <trkpt lat="43.35975" lon="5.73928">
        <ele>518.7</ele>
        <time>2021-05-12T10:19:44Z</time>
      </trkpt>
      <trkpt lat="43.35977" lon="5.73913">
        <ele>517.9</ele>
        <time>2021-05-12T10:20:02Z</time>
      </trkpt>
      <trkpt lat="43.35977" lon="5.739">
        <ele>516.6</ele>
        <time>2021-05-12T10:20:18Z</time>
      </trkpt>
      <trkpt lat="43.35978" lon="5.73887">
        <ele>515.3</ele>
        <time>2021-05-12T10:20:30Z</time>
      </trkpt>
      <trkpt lat="43.35981" lon="5.73871">
        <ele>514.2</ele>
        <time>2021-05-12T10:20:44Z</time>
      </trkpt>
      <trkpt lat="43.3598" lon="5.73858">
        <ele>512.6</ele>
        <time>2021-05-12T10:21:00Z</time>
      </trkpt>
      <trkpt lat="43.35981" lon="5.73843">
        <ele>511.2</ele>
        <time>2021-05-12T10:21:18Z</time>
      </trkpt>
      <trkpt lat="43.35976" lon="5.73835">
        <ele>508.7</ele>
        <time>2021-05-12T10:21:30Z</time>
      </trkpt>
      <trkpt lat="43.35968" lon="5.73841">
        <ele>507.2</ele>
        <time>2021-05-12T10:21:42Z</time>
      </trkpt>
      <trkpt lat="43.35958" lon="5.73847">
        <ele>505.5</ele>
        <time>2021-05-12T10:21:54Z</time>
      </trkpt>
      <trkpt lat="43.35949" lon="5.73854">
        <ele>503.8</ele>
        <time>2021-05-12T10:22:06Z</time>
      </trkpt>
      <trkpt lat="43.3594" lon="5.73851">
        <ele>500.9</ele>
        <time>2021-05-12T10:22:20Z</time>
      </trkpt>
      <trkpt lat="43.35948" lon="5.73844">
        <ele>502.4</ele>
        <time>2021-05-12T10:22:36Z</time>
      </trkpt>
      <trkpt lat="43.35956" lon="5.73833">
        <ele>503.2</ele>
        <time>2021-05-12T10:22:52Z</time>
      </trkpt>
      <trkpt lat="43.35962" lon="5.7382">
        <ele>503.4</ele>
        <time>2021-05-12T10:23:04Z</time>
      </trkpt>
      <trkpt lat="43.35964" lon="5.73806">
        <ele>502.3</ele>
        <time>2021-05-12T10:23:14Z</time>
      </trkpt>
      <trkpt lat="43.35968" lon="5.73791">
        <ele>501.3</ele>
        <time>2021-05-12T10:23:26Z</time>
      </trkpt>
      <trkpt lat="43.35975" lon="5.7378">
        <ele>501.4</ele>
        <time>2021-05-12T10:23:38Z</time>
      </trkpt>
      <trkpt lat="43.35982" lon="5.73771">
        <ele>501.7</ele>
        <time>2021-05-12T10:23:50Z</time>
      </trkpt>
      <trkpt lat="43.35984" lon="5.73758">
        <ele>500.2</ele>
        <time>2021-05-12T10:24:06Z</time>
      </trkpt>
      <trkpt lat="43.35985" lon="5.73742">
        <ele>498.1</ele>
        <time>2021-05-12T10:24:16Z</time>
      </trkpt>
      <trkpt lat="43.35984" lon="5.73728">
        <ele>495.9</ele>
        <time>2021-05-12T10:24:30Z</time>
      </trkpt>
      <trkpt lat="43.35986" lon="5.73715">
        <ele>494.4</ele>
        <time>2021-05-12T10:24:44Z</time>
      </trkpt>
      <trkpt lat="43.35987" lon="5.737">
        <ele>492.6</ele>
        <time>2021-05-12T10:24:56Z</time>
      </trkpt>
      <trkpt lat="43.35988" lon="5.73685">
        <ele>490.7</ele>
        <time>2021-05-12T10:25:10Z</time>
      </trkpt>
      <trkpt lat="43.35984" lon="5.73673">
        <ele>488.2</ele>
        <time>2021-05-12T10:25:26Z</time>
      </trkpt>
      <trkpt lat="43.35982" lon="5.73661">
        <ele>486.2</ele>
        <time>2021-05-12T10:25:38Z</time>
      </trkpt>
      <trkpt lat="43.3598" lon="5.73646">
        <ele>484.5</ele>
        <time>2021-05-12T10:25:50Z</time>
      </trkpt>
      <trkpt lat="43.35979" lon="5.7363">
        <ele>482.8</ele>
        <time>2021-05-12T10:26:02Z</time>
      </trkpt>
      <trkpt lat="43.35982" lon="5.73616">
        <ele>482.6</ele>
        <time>2021-05-12T10:26:16Z</time>
      </trkpt>
      <trkpt lat="43.35987" lon="5.73602">
        <ele>483.1</ele>
        <time>2021-05-12T10:26:36Z</time>
      </trkpt>
      <trkpt lat="43.3599" lon="5.73589">
        <ele>483.2</ele>
        <time>2021-05-12T10:26:48Z</time>
      </trkpt>
      <trkpt lat="43.35987" lon="5.73575">
        <ele>480.3</ele>
        <time>2021-05-12T10:27:08Z</time>
      </trkpt>
      <trkpt lat="43.35984" lon="5.73561">
        <ele>476.8</ele>
        <time>2021-05-12T10:27:18Z</time>
      </trkpt>
      <trkpt lat="43.35983" lon="5.73545">
        <ele>474</ele>
        <time>2021-05-12T10:27:32Z</time>
      </trkpt>
      <trkpt lat="43.35982" lon="5.73529">
        <ele>470.8</ele>
        <time>2021-05-12T10:27:48Z</time>
      </trkpt>
      <trkpt lat="43.35986" lon="5.73514">
        <ele>469.3</ele>
        <time>2021-05-12T10:28:04Z</time>
      </trkpt>
      <trkpt lat="43.3599" lon="5.73502">
        <ele>469</ele>
        <time>2021-05-12T10:28:16Z</time>
      </trkpt>
      <trkpt lat="43.35997" lon="5.73491">
        <ele>468</ele>
        <time>2021-05-12T10:28:34Z</time>
      </trkpt>
      <trkpt lat="43.35999" lon="5.73478">
        <ele>464.5</ele>
        <time>2021-05-12T10:28:56Z</time>
      </trkpt>
      <trkpt lat="43.35989" lon="5.73482">
        <ele>462.4</ele>
        <time>2021-05-12T10:29:18Z</time>
      </trkpt>
      <trkpt lat="43.35979" lon="5.73489">
        <ele>461.3</ele>
        <time>2021-05-12T10:29:32Z</time>
      </trkpt>
      <trkpt lat="43.3597" lon="5.73496">
        <ele>460.4</ele>
        <time>2021-05-12T10:29:44Z</time>
      </trkpt>
      <trkpt lat="43.35962" lon="5.73506">
        <ele>459.8</ele>
        <time>2021-05-12T10:29:58Z</time>
      </trkpt>
      <trkpt lat="43.35953" lon="5.73515">
        <ele>458.3</ele>
        <time>2021-05-12T10:30:10Z</time>
      </trkpt>
      <trkpt lat="43.35947" lon="5.73528">
        <ele>458.8</ele>
        <time>2021-05-12T10:30:26Z</time>
      </trkpt>
      <trkpt lat="43.35942" lon="5.7354">
        <ele>459.2</ele>
        <time>2021-05-12T10:30:40Z</time>
      </trkpt>
      <trkpt lat="43.35937" lon="5.73552">
        <ele>459.7</ele>
        <time>2021-05-12T10:30:52Z</time>
      </trkpt>
      <trkpt lat="43.35932" lon="5.73567">
        <ele>460.9</ele>
        <time>2021-05-12T10:31:06Z</time>
      </trkpt>
      <trkpt lat="43.35929" lon="5.73581">
        <ele>462.4</ele>
        <time>2021-05-12T10:31:22Z</time>
      </trkpt>
      <trkpt lat="43.35924" lon="5.73592">
        <ele>462.6</ele>
        <time>2021-05-12T10:31:42Z</time>
      </trkpt>
      <trkpt lat="43.3592" lon="5.73605">
        <ele>463.2</ele>
        <time>2021-05-12T10:32:12Z</time>
      </trkpt>
      <trkpt lat="43.35918" lon="5.73618">
        <ele>464.4</ele>
        <time>2021-05-12T10:32:28Z</time>
      </trkpt>
      <trkpt lat="43.35914" lon="5.73617">
        <ele>463.3</ele>
        <time>2021-05-12T10:33:00Z</time>
      </trkpt>
      <trkpt lat="43.35909" lon="5.73604">
        <ele>460.6</ele>
        <time>2021-05-12T10:33:22Z</time>
      </trkpt>
      <trkpt lat="43.35899" lon="5.73598">
        <ele>458.2</ele>
        <time>2021-05-12T10:33:34Z</time>
      </trkpt>
      <trkpt lat="43.35894" lon="5.73586">
        <ele>455.9</ele>
        <time>2021-05-12T10:33:58Z</time>
      </trkpt>
      <trkpt lat="43.35889" lon="5.73573">
        <ele>452.8</ele>
        <time>2021-05-12T10:34:12Z</time>
      </trkpt>
      <trkpt lat="43.35884" lon="5.73561">
        <ele>449.9</ele>
        <time>2021-05-12T10:34:30Z</time>
      </trkpt>
      <trkpt lat="43.35878" lon="5.73551">
        <ele>447</ele>
        <time>2021-05-12T10:34:44Z</time>
      </trkpt>
      <trkpt lat="43.35873" lon="5.73537">
        <ele>443.9</ele>
        <time>2021-05-12T10:35:02Z</time>
      </trkpt>
      <trkpt lat="43.35865" lon="5.73528">
        <ele>441.2</ele>
        <time>2021-05-12T10:35:14Z</time>
      </trkpt>
      <trkpt lat="43.35859" lon="5.73516">
        <ele>438.2</ele>
        <time>2021-05-12T10:35:26Z</time>
      </trkpt>
      <trkpt lat="43.3585" lon="5.73509">
        <ele>435.7</ele>
        <time>2021-05-12T10:35:38Z</time>
      </trkpt>
      <trkpt lat="43.35842" lon="5.73504">
        <ele>433.8</ele>
        <time>2021-05-12T10:36:00Z</time>
      </trkpt>
      <trkpt lat="43.3583" lon="5.73502">
        <ele>432.4</ele>
        <time>2021-05-12T10:36:16Z</time>
      </trkpt>
      <trkpt lat="43.35816" lon="5.73502">
        <ele>432.8</ele>
        <time>2021-05-12T10:36:28Z</time>
      </trkpt>
      <trkpt lat="43.35805" lon="5.73505">
        <ele>433.6</ele>
        <time>2021-05-12T10:36:40Z</time>
      </trkpt>
      <trkpt lat="43.35795" lon="5.73511">
        <ele>434.5</ele>
        <time>2021-05-12T10:36:52Z</time>
      </trkpt>
      <trkpt lat="43.35785" lon="5.73521">
        <ele>435.5</ele>
        <time>2021-05-12T10:37:04Z</time>
      </trkpt>
      <trkpt lat="43.35775" lon="5.73529">
        <ele>436</ele>
        <time>2021-05-12T10:37:16Z</time>
      </trkpt>
      <trkpt lat="43.35766" lon="5.73537">
        <ele>436.3</ele>
        <time>2021-05-12T10:37:28Z</time>
      </trkpt>
      <trkpt lat="43.35757" lon="5.73545">
        <ele>436.4</ele>
        <time>2021-05-12T10:37:40Z</time>
      </trkpt>
      <trkpt lat="43.35747" lon="5.73549">
        <ele>436.2</ele>
        <time>2021-05-12T10:38:16Z</time>
      </trkpt>
      <trkpt lat="43.35736" lon="5.73548">
        <ele>436.1</ele>
        <time>2021-05-12T10:38:28Z</time>
      </trkpt>
      <trkpt lat="43.35726" lon="5.7355">
        <ele>436.1</ele>
        <time>2021-05-12T10:38:36Z</time>
      </trkpt>
      <trkpt lat="43.35714" lon="5.7355">
        <ele>436</ele>
        <time>2021-05-12T10:38:48Z</time>
      </trkpt>
      <trkpt lat="43.35704" lon="5.73552">
        <ele>436</ele>
        <time>2021-05-12T10:39:00Z</time>
      </trkpt>
      <trkpt lat="43.35694" lon="5.73559">
        <ele>436.2</ele>
        <time>2021-05-12T10:39:16Z</time>
      </trkpt>
      <trkpt lat="43.35683" lon="5.73564">
        <ele>436.3</ele>
        <time>2021-05-12T10:39:30Z</time>
      </trkpt>
      <trkpt lat="43.35675" lon="5.73572">
        <ele>436.6</ele>
        <time>2021-05-12T10:39:40Z</time>
      </trkpt>
      <trkpt lat="43.35665" lon="5.73578">
        <ele>436.8</ele>
        <time>2021-05-12T10:39:50Z</time>
      </trkpt>
      <trkpt lat="43.35654" lon="5.73585">
        <ele>437</ele>
        <time>2021-05-12T10:40:00Z</time>
      </trkpt>
      <trkpt lat="43.35645" lon="5.73593">
        <ele>437.5</ele>
        <time>2021-05-12T10:40:10Z</time>
      </trkpt>
      <trkpt lat="43.35635" lon="5.736">
        <ele>437.7</ele>
        <time>2021-05-12T10:40:22Z</time>
      </trkpt>
      <trkpt lat="43.35624" lon="5.73602">
        <ele>437.6</ele>
        <time>2021-05-12T10:40:36Z</time>
      </trkpt>
      <trkpt lat="43.35613" lon="5.73608">
        <ele>437.6</ele>
        <time>2021-05-12T10:40:48Z</time>
      </trkpt>
      <trkpt lat="43.35603" lon="5.73617">
        <ele>437.6</ele>
        <time>2021-05-12T10:40:58Z</time>
      </trkpt>
      <trkpt lat="43.35595" lon="5.73626">
        <ele>437.6</ele>
        <time>2021-05-12T10:41:08Z</time>
      </trkpt>
      <trkpt lat="43.35586" lon="5.73636">
        <ele>437.4</ele>
        <time>2021-05-12T10:41:22Z</time>
      </trkpt>
      <trkpt lat="43.35577" lon="5.73641">
        <ele>438.3</ele>
        <time>2021-05-12T10:41:30Z</time>
      </trkpt>
      <trkpt lat="43.35568" lon="5.73647">
        <ele>439.8</ele>
        <time>2021-05-12T10:41:40Z</time>
      </trkpt>
      <trkpt lat="43.35561" lon="5.73659">
        <ele>441.3</ele>
        <time>2021-05-12T10:41:52Z</time>
      </trkpt>
      <trkpt lat="43.35554" lon="5.73672">
        <ele>442.9</ele>
        <time>2021-05-12T10:42:04Z</time>
      </trkpt>
      <trkpt lat="43.35549" lon="5.73685">
        <ele>444.6</ele>
        <time>2021-05-12T10:42:14Z</time>
      </trkpt>
      <trkpt lat="43.35546" lon="5.73699">
        <ele>445.9</ele>
        <time>2021-05-12T10:42:26Z</time>
      </trkpt>
      <trkpt lat="43.35542" lon="5.73711">
        <ele>446.8</ele>
        <time>2021-05-12T10:42:34Z</time>
      </trkpt>
      <trkpt lat="43.35537" lon="5.73725">
        <ele>447.8</ele>
        <time>2021-05-12T10:42:46Z</time>
      </trkpt>
      <trkpt lat="43.3553" lon="5.73738">
        <ele>448.4</ele>
        <time>2021-05-12T10:42:58Z</time>
      </trkpt>
      <trkpt lat="43.3552" lon="5.73748">
        <ele>448.5</ele>
        <time>2021-05-12T10:43:10Z</time>
      </trkpt>
      <trkpt lat="43.35509" lon="5.73755">
        <ele>448.5</ele>
        <time>2021-05-12T10:43:22Z</time>
      </trkpt>
      <trkpt lat="43.35499" lon="5.73761">
        <ele>448.6</ele>
        <time>2021-05-12T10:43:32Z</time>
      </trkpt>
      <trkpt lat="43.3549" lon="5.73767">
        <ele>449.4</ele>
        <time>2021-05-12T10:43:40Z</time>
      </trkpt>
      <trkpt lat="43.35483" lon="5.73776">
        <ele>450.1</ele>
        <time>2021-05-12T10:43:48Z</time>
      </trkpt>
      <trkpt lat="43.35481" lon="5.73789">
        <ele>450.6</ele>
        <time>2021-05-12T10:43:56Z</time>
      </trkpt>
      <trkpt lat="43.35478" lon="5.73803">
        <ele>451.1</ele>
        <time>2021-05-12T10:44:04Z</time>
      </trkpt>
      <trkpt lat="43.35474" lon="5.73819">
        <ele>451.6</ele>
        <time>2021-05-12T10:44:30Z</time>
      </trkpt>
      <trkpt lat="43.35474" lon="5.73833">
        <ele>452</ele>
        <time>2021-05-12T10:44:40Z</time>
      </trkpt>
      <trkpt lat="43.35474" lon="5.73849">
        <ele>452.4</ele>
        <time>2021-05-12T10:44:52Z</time>
      </trkpt>
      <trkpt lat="43.35472" lon="5.73862">
        <ele>452.8</ele>
        <time>2021-05-12T10:45:00Z</time>
      </trkpt>
      <trkpt lat="43.35473" lon="5.73879">
        <ele>453.3</ele>
        <time>2021-05-12T10:45:12Z</time>
      </trkpt>
      <trkpt lat="43.35476" lon="5.73896">
        <ele>453.8</ele>
        <time>2021-05-12T10:45:24Z</time>
      </trkpt>
      <trkpt lat="43.35477" lon="5.73913">
        <ele>454.4</ele>
        <time>2021-05-12T10:45:36Z</time>
      </trkpt>
      <trkpt lat="43.35478" lon="5.73929">
        <ele>454.4</ele>
        <time>2021-05-12T10:45:48Z</time>
      </trkpt>
      <trkpt lat="43.3548" lon="5.73944">
        <ele>454.3</ele>
        <time>2021-05-12T10:45:58Z</time>
      </trkpt>
      <trkpt lat="43.35482" lon="5.73968">
        <ele>454</ele>
        <time>2021-05-12T10:46:18Z</time>
      </trkpt>
      <trkpt lat="43.35489" lon="5.73978">
        <ele>453.5</ele>
        <time>2021-05-12T10:46:27Z</time>
      </trkpt>
      <trkpt lat="43.35494" lon="5.7399">
        <ele>452.9</ele>
        <time>2021-05-12T10:46:35Z</time>
      </trkpt>
      <trkpt lat="43.35499" lon="5.74">
        <ele>452.1</ele>
        <time>2021-05-12T10:46:43Z</time>
      </trkpt>
      <trkpt lat="43.35505" lon="5.74012">
        <ele>453</ele>
        <time>2021-05-12T10:46:53Z</time>
      </trkpt>
      <trkpt lat="43.35513" lon="5.74027">
        <ele>454.2</ele>
        <time>2021-05-12T10:47:05Z</time>
      </trkpt>
      <trkpt lat="43.35517" lon="5.74038">
        <ele>454.7</ele>
        <time>2021-05-12T10:47:13Z</time>
      </trkpt>
      <trkpt lat="43.35524" lon="5.74049">
        <ele>455.6</ele>
        <time>2021-05-12T10:47:21Z</time>
      </trkpt>
      <trkpt lat="43.35529" lon="5.74065">
        <ele>455.6</ele>
        <time>2021-05-12T10:47:33Z</time>
      </trkpt>
      <trkpt lat="43.35532" lon="5.7408">
        <ele>455.4</ele>
        <time>2021-05-12T10:47:43Z</time>
      </trkpt>
      <trkpt lat="43.35535" lon="5.74094">
        <ele>454.9</ele>
        <time>2021-05-12T10:47:51Z</time>
      </trkpt>
      <trkpt lat="43.35538" lon="5.74109">
        <ele>454.3</ele>
        <time>2021-05-12T10:48:03Z</time>
      </trkpt>
      <trkpt lat="43.3554" lon="5.74126">
        <ele>453.5</ele>
        <time>2021-05-12T10:48:15Z</time>
      </trkpt>
      <trkpt lat="43.35541" lon="5.7414">
        <ele>452.8</ele>
        <time>2021-05-12T10:48:23Z</time>
      </trkpt>
      <trkpt lat="43.35546" lon="5.74152">
        <ele>452.4</ele>
        <time>2021-05-12T10:48:31Z</time>
      </trkpt>
      <trkpt lat="43.35552" lon="5.74167">
        <ele>452</ele>
        <time>2021-05-12T10:48:43Z</time>
      </trkpt>
      <trkpt lat="43.35556" lon="5.74183">
        <ele>451.1</ele>
        <time>2021-05-12T10:48:55Z</time>
      </trkpt>
      <trkpt lat="43.35559" lon="5.74198">
        <ele>450.1</ele>
        <time>2021-05-12T10:49:05Z</time>
      </trkpt>
      <trkpt lat="43.35559" lon="5.74214">
        <ele>448.8</ele>
        <time>2021-05-12T10:49:15Z</time>
      </trkpt>
      <trkpt lat="43.35559" lon="5.74228">
        <ele>447.8</ele>
        <time>2021-05-12T10:49:23Z</time>
      </trkpt>
      <trkpt lat="43.35561" lon="5.74242">
        <ele>446.8</ele>
        <time>2021-05-12T10:49:31Z</time>
      </trkpt>
      <trkpt lat="43.35561" lon="5.74255">
        <ele>445.9</ele>
        <time>2021-05-12T10:49:39Z</time>
      </trkpt>
      <trkpt lat="43.35561" lon="5.74268">
        <ele>445.3</ele>
        <time>2021-05-12T10:49:47Z</time>
      </trkpt>
      <trkpt lat="43.35562" lon="5.74284">
        <ele>444.6</ele>
        <time>2021-05-12T10:49:57Z</time>
      </trkpt>
      <trkpt lat="43.35564" lon="5.74302">
        <ele>443.9</ele>
        <time>2021-05-12T10:50:09Z</time>
      </trkpt>
      <trkpt lat="43.35568" lon="5.74316">
        <ele>443.3</ele>
        <time>2021-05-12T10:50:19Z</time>
      </trkpt>
      <trkpt lat="43.35577" lon="5.74331">
        <ele>442.9</ele>
        <time>2021-05-12T10:50:31Z</time>
      </trkpt>
      <trkpt lat="43.35583" lon="5.74342">
        <ele>443</ele>
        <time>2021-05-12T10:50:39Z</time>
      </trkpt>
      <trkpt lat="43.3559" lon="5.74355">
        <ele>443.1</ele>
        <time>2021-05-12T10:50:49Z</time>
      </trkpt>
      <trkpt lat="43.356" lon="5.74367">
        <ele>443</ele>
        <time>2021-05-12T10:51:01Z</time>
      </trkpt>
      <trkpt lat="43.35611" lon="5.74372">
        <ele>442.9</ele>
        <time>2021-05-12T10:51:11Z</time>
      </trkpt>
      <trkpt lat="43.35621" lon="5.74378">
        <ele>442.7</ele>
        <time>2021-05-12T10:51:15Z</time>
      </trkpt>
      <trkpt lat="43.35629" lon="5.74385">
        <ele>442.4</ele>
        <time>2021-05-12T10:51:29Z</time>
      </trkpt>
      <trkpt lat="43.35639" lon="5.74393">
        <ele>441.9</ele>
        <time>2021-05-12T10:51:41Z</time>
      </trkpt>
      <trkpt lat="43.35651" lon="5.74398">
        <ele>441.5</ele>
        <time>2021-05-12T10:51:51Z</time>
      </trkpt>
      <trkpt lat="43.35659" lon="5.74407">
        <ele>440.8</ele>
        <time>2021-05-12T10:51:59Z</time>
      </trkpt>
      <trkpt lat="43.35665" lon="5.74417">
        <ele>440.1</ele>
        <time>2021-05-12T10:52:07Z</time>
      </trkpt>
      <trkpt lat="43.35671" lon="5.74431">
        <ele>439.9</ele>
        <time>2021-05-12T10:52:17Z</time>
      </trkpt>
      <trkpt lat="43.35676" lon="5.74445">
        <ele>439.8</ele>
        <time>2021-05-12T10:52:27Z</time>
      </trkpt>
      <trkpt lat="43.35679" lon="5.74457">
        <ele>439.7</ele>
        <time>2021-05-12T10:52:35Z</time>
      </trkpt>
      <trkpt lat="43.35682" lon="5.74471">
        <ele>439.6</ele>
        <time>2021-05-12T10:52:43Z</time>
      </trkpt>
      <trkpt lat="43.35687" lon="5.74485">
        <ele>439.5</ele>
        <time>2021-05-12T10:52:55Z</time>
      </trkpt>
      <trkpt lat="43.35689" lon="5.745">
        <ele>439.3</ele>
        <time>2021-05-12T10:53:05Z</time>
      </trkpt>
      <trkpt lat="43.3569" lon="5.74515">
        <ele>438.6</ele>
        <time>2021-05-12T10:53:15Z</time>
      </trkpt>
      <trkpt lat="43.3569" lon="5.74533">
        <ele>437.8</ele>
        <time>2021-05-12T10:53:27Z</time>
      </trkpt>
      <trkpt lat="43.35688" lon="5.74547">
        <ele>436.9</ele>
        <time>2021-05-12T10:53:37Z</time>
      </trkpt>
      <trkpt lat="43.35684" lon="5.74561">
        <ele>435.8</ele>
        <time>2021-05-12T10:53:47Z</time>
      </trkpt>
      <trkpt lat="43.35678" lon="5.74575">
        <ele>434.5</ele>
        <time>2021-05-12T10:53:59Z</time>
      </trkpt>
      <trkpt lat="43.35672" lon="5.74588">
        <ele>433.4</ele>
        <time>2021-05-12T10:54:09Z</time>
      </trkpt>
      <trkpt lat="43.35668" lon="5.746">
        <ele>432.8</ele>
        <time>2021-05-12T10:54:17Z</time>
      </trkpt>
      <trkpt lat="43.35664" lon="5.74614">
        <ele>432.6</ele>
        <time>2021-05-12T10:54:27Z</time>
      </trkpt>
      <trkpt lat="43.3566" lon="5.74626">
        <ele>432.6</ele>
        <time>2021-05-12T10:54:35Z</time>
      </trkpt>
      <trkpt lat="43.35659" lon="5.74639">
        <ele>432.3</ele>
        <time>2021-05-12T10:54:43Z</time>
      </trkpt>
      <trkpt lat="43.3566" lon="5.74651">
        <ele>431.9</ele>
        <time>2021-05-12T10:54:51Z</time>
      </trkpt>
      <trkpt lat="43.35662" lon="5.74666">
        <ele>431.3</ele>
        <time>2021-05-12T10:55:01Z</time>
      </trkpt>
      <trkpt lat="43.3566" lon="5.74682">
        <ele>430.8</ele>
        <time>2021-05-12T10:55:11Z</time>
      </trkpt>
      <trkpt lat="43.35662" lon="5.74699">
        <ele>430</ele>
        <time>2021-05-12T10:55:23Z</time>
      </trkpt>
      <trkpt lat="43.35665" lon="5.74711">
        <ele>429.5</ele>
        <time>2021-05-12T10:55:31Z</time>
      </trkpt>
      <trkpt lat="43.35669" lon="5.74723">
        <ele>429.2</ele>
        <time>2021-05-12T10:55:41Z</time>
      </trkpt>
      <trkpt lat="43.35676" lon="5.74736">
        <ele>429.2</ele>
        <time>2021-05-12T10:55:51Z</time>
      </trkpt>
      <trkpt lat="43.35682" lon="5.7475">
        <ele>429.1</ele>
        <time>2021-05-12T10:56:01Z</time>
      </trkpt>
      <trkpt lat="43.35687" lon="5.74763">
        <ele>429.4</ele>
        <time>2021-05-12T10:56:09Z</time>
      </trkpt>
      <trkpt lat="43.35692" lon="5.74776">
        <ele>429.6</ele>
        <time>2021-05-12T10:56:19Z</time>
      </trkpt>
      <trkpt lat="43.35697" lon="5.7479">
        <ele>429.8</ele>
        <time>2021-05-12T10:56:29Z</time>
      </trkpt>
      <trkpt lat="43.35702" lon="5.74802">
        <ele>430</ele>
        <time>2021-05-12T10:56:37Z</time>
      </trkpt>
      <trkpt lat="43.35706" lon="5.74815">
        <ele>430.1</ele>
        <time>2021-05-12T10:56:47Z</time>
      </trkpt>
      <trkpt lat="43.35713" lon="5.74827">
        <ele>430.3</ele>
        <time>2021-05-12T10:56:55Z</time>
      </trkpt>
      <trkpt lat="43.35717" lon="5.74839">
        <ele>430.1</ele>
        <time>2021-05-12T10:57:07Z</time>
      </trkpt>
      <trkpt lat="43.35723" lon="5.74848">
        <ele>430</ele>
        <time>2021-05-12T11:00:21Z</time>
      </trkpt>
      <trkpt lat="43.35729" lon="5.7486">
        <ele>429.4</ele>
        <time>2021-05-12T11:02:59Z</time>
      </trkpt>
      <trkpt lat="43.35733" lon="5.74878">
        <ele>428.5</ele>
        <time>2021-05-12T11:03:11Z</time>
      </trkpt>
      <trkpt lat="43.35738" lon="5.74894">
        <ele>427.5</ele>
        <time>2021-05-12T11:03:23Z</time>
      </trkpt>
      <trkpt lat="43.35741" lon="5.74906">
        <ele>426.8</ele>
        <time>2021-05-12T11:03:31Z</time>
      </trkpt>
      <trkpt lat="43.35745" lon="5.74918">
        <ele>426</ele>
        <time>2021-05-12T11:03:39Z</time>
      </trkpt>
      <trkpt lat="43.35751" lon="5.74931">
        <ele>425</ele>
        <time>2021-05-12T11:03:49Z</time>
      </trkpt>
      <trkpt lat="43.35756" lon="5.74947">
        <ele>424.6</ele>
        <time>2021-05-12T11:04:01Z</time>
      </trkpt>
      <trkpt lat="43.35761" lon="5.74962">
        <ele>424</ele>
        <time>2021-05-12T11:04:11Z</time>
      </trkpt>
      <trkpt lat="43.35762" lon="5.74977">
        <ele>422.9</ele>
        <time>2021-05-12T11:04:21Z</time>
      </trkpt>
      <trkpt lat="43.35763" lon="5.74992">
        <ele>421.8</ele>
        <time>2021-05-12T11:04:31Z</time>
      </trkpt>
      <trkpt lat="43.35764" lon="5.75006">
        <ele>421.2</ele>
        <time>2021-05-12T11:04:39Z</time>
      </trkpt>
      <trkpt lat="43.35764" lon="5.75019">
        <ele>420.9</ele>
        <time>2021-05-12T11:04:47Z</time>
      </trkpt>
      <trkpt lat="43.35761" lon="5.75034">
        <ele>420.5</ele>
        <time>2021-05-12T11:04:57Z</time>
      </trkpt>
      <trkpt lat="43.35759" lon="5.75047">
        <ele>420.3</ele>
        <time>2021-05-12T11:05:05Z</time>
      </trkpt>
      <trkpt lat="43.35757" lon="5.75062">
        <ele>420</ele>
        <time>2021-05-12T11:05:15Z</time>
      </trkpt>
      <trkpt lat="43.35756" lon="5.75076">
        <ele>419.9</ele>
        <time>2021-05-12T11:05:23Z</time>
      </trkpt>
      <trkpt lat="43.35755" lon="5.7509">
        <ele>419.6</ele>
        <time>2021-05-12T11:05:33Z</time>
      </trkpt>
      <trkpt lat="43.35753" lon="5.75105">
        <ele>418.8</ele>
        <time>2021-05-12T11:05:45Z</time>
      </trkpt>
      <trkpt lat="43.35746" lon="5.75116">
        <ele>419</ele>
        <time>2021-05-12T11:05:55Z</time>
      </trkpt>
      <trkpt lat="43.35742" lon="5.75126">
        <ele>419.2</ele>
        <time>2021-05-12T11:06:13Z</time>
      </trkpt>
      <trkpt lat="43.35751" lon="5.7512">
        <ele>418.2</ele>
        <time>2021-05-12T11:07:17Z</time>
      </trkpt>
      <trkpt lat="43.35751" lon="5.75106">
        <ele>418.9</ele>
        <time>2021-05-12T11:08:25Z</time>
      </trkpt>
      <trkpt lat="43.35745" lon="5.75117">
        <ele>419.1</ele>
        <time>2021-05-12T11:09:31Z</time>
      </trkpt>
      <trkpt lat="43.35755" lon="5.75116">
        <ele>418.3</ele>
        <time>2021-05-12T11:13:29Z</time>
      </trkpt>
      <trkpt lat="43.35763" lon="5.75119">
        <ele>417.9</ele>
        <time>2021-05-12T11:13:43Z</time>
      </trkpt>
      <trkpt lat="43.35769" lon="5.75129">
        <ele>417.1</ele>
        <time>2021-05-12T11:13:53Z</time>
      </trkpt>
      <trkpt lat="43.35779" lon="5.75134">
        <ele>416.4</ele>
        <time>2021-05-12T11:14:05Z</time>
      </trkpt>
      <trkpt lat="43.3579" lon="5.75133">
        <ele>416.1</ele>
        <time>2021-05-12T11:14:15Z</time>
      </trkpt>
      <trkpt lat="43.35799" lon="5.75129">
        <ele>416</ele>
        <time>2021-05-12T11:14:29Z</time>
      </trkpt>
      <trkpt lat="43.3581" lon="5.75134">
        <ele>415.2</ele>
        <time>2021-05-12T11:14:43Z</time>
      </trkpt>
      <trkpt lat="43.35816" lon="5.75147">
        <ele>414.2</ele>
        <time>2021-05-12T11:14:57Z</time>
      </trkpt>
      <trkpt lat="43.3582" lon="5.75159">
        <ele>413.1</ele>
        <time>2021-05-12T11:15:09Z</time>
      </trkpt>
      <trkpt lat="43.35818" lon="5.75174">
        <ele>412.7</ele>
        <time>2021-05-12T11:15:21Z</time>
      </trkpt>
      <trkpt lat="43.35812" lon="5.75187">
        <ele>413.1</ele>
        <time>2021-05-12T11:15:33Z</time>
      </trkpt>
      <trkpt lat="43.35805" lon="5.75198">
        <ele>413.6</ele>
        <time>2021-05-12T11:15:47Z</time>
      </trkpt>
      <trkpt lat="43.35798" lon="5.75207">
        <ele>414.3</ele>
        <time>2021-05-12T11:15:59Z</time>
      </trkpt>
      <trkpt lat="43.35791" lon="5.75216">
        <ele>415</ele>
        <time>2021-05-12T11:16:11Z</time>
      </trkpt>
      <trkpt lat="43.35784" lon="5.75228">
        <ele>415.8</ele>
        <time>2021-05-12T11:16:21Z</time>
      </trkpt>
      <trkpt lat="43.3578" lon="5.75243">
        <ele>416.6</ele>
        <time>2021-05-12T11:16:29Z</time>
      </trkpt>
      <trkpt lat="43.3578" lon="5.75256">
        <ele>416.5</ele>
        <time>2021-05-12T11:16:39Z</time>
      </trkpt>
      <trkpt lat="43.35785" lon="5.75269">
        <ele>415.2</ele>
        <time>2021-05-12T11:16:53Z</time>
      </trkpt>
      <trkpt lat="43.35788" lon="5.75284">
        <ele>414.2</ele>
        <time>2021-05-12T11:17:09Z</time>
      </trkpt>
      <trkpt lat="43.35786" lon="5.75301">
        <ele>413.6</ele>
        <time>2021-05-12T11:17:23Z</time>
      </trkpt>
      <trkpt lat="43.35784" lon="5.75314">
        <ele>413.2</ele>
        <time>2021-05-12T11:17:35Z</time>
      </trkpt>
      <trkpt lat="43.35784" lon="5.75328">
        <ele>412.4</ele>
        <time>2021-05-12T11:17:47Z</time>
      </trkpt>
      <trkpt lat="43.35779" lon="5.75341">
        <ele>412.4</ele>
        <time>2021-05-12T11:17:59Z</time>
      </trkpt>
      <trkpt lat="43.35777" lon="5.75356">
        <ele>412</ele>
        <time>2021-05-12T11:18:13Z</time>
      </trkpt>
      <trkpt lat="43.35772" lon="5.75369">
        <ele>411.8</ele>
        <time>2021-05-12T11:18:25Z</time>
      </trkpt>
      <trkpt lat="43.35765" lon="5.75382">
        <ele>411.6</ele>
        <time>2021-05-12T11:18:37Z</time>
      </trkpt>
      <trkpt lat="43.3576" lon="5.75396">
        <ele>411</ele>
        <time>2021-05-12T11:18:49Z</time>
      </trkpt>
      <trkpt lat="43.35757" lon="5.75408">
        <ele>410.4</ele>
        <time>2021-05-12T11:18:59Z</time>
      </trkpt>
      <trkpt lat="43.35751" lon="5.7542">
        <ele>410.1</ele>
        <time>2021-05-12T11:19:13Z</time>
      </trkpt>
      <trkpt lat="43.35746" lon="5.75431">
        <ele>411</ele>
        <time>2021-05-12T11:19:21Z</time>
      </trkpt>
      <trkpt lat="43.35739" lon="5.75442">
        <ele>412.3</ele>
        <time>2021-05-12T11:19:31Z</time>
      </trkpt>
      <trkpt lat="43.35732" lon="5.75454">
        <ele>413.3</ele>
        <time>2021-05-12T11:19:41Z</time>
      </trkpt>
      <trkpt lat="43.35725" lon="5.75467">
        <ele>414</ele>
        <time>2021-05-12T11:19:53Z</time>
      </trkpt>
      <trkpt lat="43.35721" lon="5.75481">
        <ele>414.1</ele>
        <time>2021-05-12T11:20:05Z</time>
      </trkpt>
      <trkpt lat="43.35718" lon="5.75494">
        <ele>414.1</ele>
        <time>2021-05-12T11:20:15Z</time>
      </trkpt>
      <trkpt lat="43.35711" lon="5.75506">
        <ele>414.4</ele>
        <time>2021-05-12T11:20:25Z</time>
      </trkpt>
      <trkpt lat="43.35705" lon="5.75519">
        <ele>414.6</ele>
        <time>2021-05-12T11:20:35Z</time>
      </trkpt>
      <trkpt lat="43.35698" lon="5.75533">
        <ele>414.8</ele>
        <time>2021-05-12T11:20:49Z</time>
      </trkpt>
      <trkpt lat="43.35697" lon="5.75546">
        <ele>414.7</ele>
        <time>2021-05-12T11:20:57Z</time>
      </trkpt>
      <trkpt lat="43.35695" lon="5.75561">
        <ele>414.6</ele>
        <time>2021-05-12T11:21:09Z</time>
      </trkpt>
      <trkpt lat="43.35691" lon="5.75575">
        <ele>414.4</ele>
        <time>2021-05-12T11:21:21Z</time>
      </trkpt>
      <trkpt lat="43.35685" lon="5.75589">
        <ele>414.4</ele>
        <time>2021-05-12T11:21:33Z</time>
      </trkpt>
      <trkpt lat="43.35678" lon="5.75601">
        <ele>414.5</ele>
        <time>2021-05-12T11:21:45Z</time>
      </trkpt>
      <trkpt lat="43.35668" lon="5.75607">
        <ele>414.3</ele>
        <time>2021-05-12T11:21:57Z</time>
      </trkpt>
      <trkpt lat="43.35657" lon="5.75612">
        <ele>415.4</ele>
        <time>2021-05-12T11:22:09Z</time>
      </trkpt>
      <trkpt lat="43.3565" lon="5.7562">
        <ele>416.1</ele>
        <time>2021-05-12T11:22:21Z</time>
      </trkpt>
      <trkpt lat="43.3564" lon="5.75628">
        <ele>416.8</ele>
        <time>2021-05-12T11:22:33Z</time>
      </trkpt>
      <trkpt lat="43.35628" lon="5.75631">
        <ele>417.7</ele>
        <time>2021-05-12T11:22:45Z</time>
      </trkpt>
      <trkpt lat="43.35617" lon="5.75631">
        <ele>418.5</ele>
        <time>2021-05-12T11:22:57Z</time>
      </trkpt>
      <trkpt lat="43.35609" lon="5.75642">
        <ele>418.3</ele>
        <time>2021-05-12T11:25:13Z</time>
      </trkpt>
      <trkpt lat="43.35604" lon="5.75654">
        <ele>417.7</ele>
        <time>2021-05-12T11:25:23Z</time>
      </trkpt>
      <trkpt lat="43.35594" lon="5.75657">
        <ele>417.8</ele>
        <time>2021-05-12T11:25:33Z</time>
      </trkpt>
      <trkpt lat="43.35583" lon="5.7566">
        <ele>417.8</ele>
        <time>2021-05-12T11:25:45Z</time>
      </trkpt>
      <trkpt lat="43.3557" lon="5.75661">
        <ele>418.6</ele>
        <time>2021-05-12T11:25:59Z</time>
      </trkpt>
      <trkpt lat="43.35558" lon="5.75663">
        <ele>419</ele>
        <time>2021-05-12T11:26:11Z</time>
      </trkpt>
      <trkpt lat="43.35548" lon="5.75665">
        <ele>419.4</ele>
        <time>2021-05-12T11:26:19Z</time>
      </trkpt>
      <trkpt lat="43.35538" lon="5.75677">
        <ele>419.7</ele>
        <time>2021-05-12T11:26:27Z</time>
      </trkpt>
      <trkpt lat="43.35531" lon="5.75688">
        <ele>420</ele>
        <time>2021-05-12T11:26:37Z</time>
      </trkpt>
      <trkpt lat="43.35524" lon="5.757">
        <ele>420.2</ele>
        <time>2021-05-12T11:26:49Z</time>
      </trkpt>
      <trkpt lat="43.35519" lon="5.75711">
        <ele>420.3</ele>
        <time>2021-05-12T11:26:57Z</time>
      </trkpt>
      <trkpt lat="43.35509" lon="5.75721">
        <ele>420.4</ele>
        <time>2021-05-12T11:27:09Z</time>
      </trkpt>
      <trkpt lat="43.355" lon="5.75729">
        <ele>420.6</ele>
        <time>2021-05-12T11:27:19Z</time>
      </trkpt>
      <trkpt lat="43.35492" lon="5.75738">
        <ele>421.7</ele>
        <time>2021-05-12T11:27:31Z</time>
      </trkpt>
      <trkpt lat="43.35482" lon="5.75746">
        <ele>423.1</ele>
        <time>2021-05-12T11:27:47Z</time>
      </trkpt>
      <trkpt lat="43.35472" lon="5.75751">
        <ele>424.6</ele>
        <time>2021-05-12T11:27:59Z</time>
      </trkpt>
      <trkpt lat="43.35468" lon="5.75766">
        <ele>425.4</ele>
        <time>2021-05-12T11:28:09Z</time>
      </trkpt>
      <trkpt lat="43.3546" lon="5.75782">
        <ele>426.2</ele>
        <time>2021-05-12T11:28:17Z</time>
      </trkpt>
      <trkpt lat="43.35453" lon="5.75793">
        <ele>426.7</ele>
        <time>2021-05-12T11:28:25Z</time>
      </trkpt>
      <trkpt lat="43.35445" lon="5.75802">
        <ele>427</ele>
        <time>2021-05-12T11:28:39Z</time>
      </trkpt>
      <trkpt lat="43.35433" lon="5.75809">
        <ele>427.4</ele>
        <time>2021-05-12T11:28:55Z</time>
      </trkpt>
      <trkpt lat="43.35428" lon="5.75819">
        <ele>427</ele>
        <time>2021-05-12T11:29:21Z</time>
      </trkpt>
      <trkpt lat="43.35417" lon="5.75826">
        <ele>426.7</ele>
        <time>2021-05-12T11:29:31Z</time>
      </trkpt>
      <trkpt lat="43.35408" lon="5.75833">
        <ele>427.7</ele>
        <time>2021-05-12T11:29:41Z</time>
      </trkpt>
      <trkpt lat="43.354" lon="5.75841">
        <ele>429.3</ele>
        <time>2021-05-12T11:29:49Z</time>
      </trkpt>
      <trkpt lat="43.35392" lon="5.75853">
        <ele>430.3</ele>
        <time>2021-05-12T11:29:59Z</time>
      </trkpt>
      <trkpt lat="43.35385" lon="5.75865">
        <ele>430.7</ele>
        <time>2021-05-12T11:30:09Z</time>
      </trkpt>
      <trkpt lat="43.35377" lon="5.75874">
        <ele>431.1</ele>
        <time>2021-05-12T11:30:19Z</time>
      </trkpt>
      <trkpt lat="43.35367" lon="5.75881">
        <ele>431.6</ele>
        <time>2021-05-12T11:30:31Z</time>
      </trkpt>
      <trkpt lat="43.35358" lon="5.75893">
        <ele>431.2</ele>
        <time>2021-05-12T11:30:43Z</time>
      </trkpt>
      <trkpt lat="43.35347" lon="5.75903">
        <ele>430.5</ele>
        <time>2021-05-12T11:30:53Z</time>
      </trkpt>
      <trkpt lat="43.35338" lon="5.7591">
        <ele>430</ele>
        <time>2021-05-12T11:31:01Z</time>
      </trkpt>
      <trkpt lat="43.35329" lon="5.75915">
        <ele>429.6</ele>
        <time>2021-05-12T11:31:09Z</time>
      </trkpt>
      <trkpt lat="43.35318" lon="5.75922">
        <ele>430.5</ele>
        <time>2021-05-12T11:31:21Z</time>
      </trkpt>
      <trkpt lat="43.35309" lon="5.75934">
        <ele>432</ele>
        <time>2021-05-12T11:31:33Z</time>
      </trkpt>
      <trkpt lat="43.35301" lon="5.75942">
        <ele>432.9</ele>
        <time>2021-05-12T11:31:45Z</time>
      </trkpt>
      <trkpt lat="43.35293" lon="5.75954">
        <ele>433.7</ele>
        <time>2021-05-12T11:31:57Z</time>
      </trkpt>
      <trkpt lat="43.35285" lon="5.75965">
        <ele>434.3</ele>
        <time>2021-05-12T11:32:09Z</time>
      </trkpt>
      <trkpt lat="43.35276" lon="5.75975">
        <ele>434.3</ele>
        <time>2021-05-12T11:32:21Z</time>
      </trkpt>
      <trkpt lat="43.35268" lon="5.75983">
        <ele>434.2</ele>
        <time>2021-05-12T11:32:33Z</time>
      </trkpt>
      <trkpt lat="43.35258" lon="5.75987">
        <ele>433.6</ele>
        <time>2021-05-12T11:32:45Z</time>
      </trkpt>
      <trkpt lat="43.35247" lon="5.75996">
        <ele>433.1</ele>
        <time>2021-05-12T11:32:57Z</time>
      </trkpt>
      <trkpt lat="43.35239" lon="5.76006">
        <ele>434.2</ele>
        <time>2021-05-12T11:33:09Z</time>
      </trkpt>
      <trkpt lat="43.35233" lon="5.76021">
        <ele>436.5</ele>
        <time>2021-05-12T11:33:19Z</time>
      </trkpt>
      <trkpt lat="43.35228" lon="5.76033">
        <ele>438.2</ele>
        <time>2021-05-12T11:33:27Z</time>
      </trkpt>
      <trkpt lat="43.35221" lon="5.76044">
        <ele>439.2</ele>
        <time>2021-05-12T11:33:37Z</time>
      </trkpt>
      <trkpt lat="43.35212" lon="5.76052">
        <ele>439.6</ele>
        <time>2021-05-12T11:33:49Z</time>
      </trkpt>
      <trkpt lat="43.35206" lon="5.76063">
        <ele>440.3</ele>
        <time>2021-05-12T11:34:01Z</time>
      </trkpt>
      <trkpt lat="43.35205" lon="5.76078">
        <ele>441.5</ele>
        <time>2021-05-12T11:34:13Z</time>
      </trkpt>
      <trkpt lat="43.35197" lon="5.76089">
        <ele>442</ele>
        <time>2021-05-12T11:34:25Z</time>
      </trkpt>
      <trkpt lat="43.35188" lon="5.761">
        <ele>442.2</ele>
        <time>2021-05-12T11:34:37Z</time>
      </trkpt>
      <trkpt lat="43.35179" lon="5.76112">
        <ele>442.5</ele>
        <time>2021-05-12T11:34:49Z</time>
      </trkpt>
      <trkpt lat="43.35172" lon="5.76124">
        <ele>443.1</ele>
        <time>2021-05-12T11:35:01Z</time>
      </trkpt>
      <trkpt lat="43.35166" lon="5.76134">
        <ele>443.7</ele>
        <time>2021-05-12T11:35:09Z</time>
      </trkpt>
      <trkpt lat="43.35162" lon="5.76148">
        <ele>445.2</ele>
        <time>2021-05-12T11:35:21Z</time>
      </trkpt>
      <trkpt lat="43.35163" lon="5.76165">
        <ele>447.4</ele>
        <time>2021-05-12T11:35:33Z</time>
      </trkpt>
      <trkpt lat="43.35163" lon="5.76179">
        <ele>448.5</ele>
        <time>2021-05-12T11:35:49Z</time>
      </trkpt>
      <trkpt lat="43.3516" lon="5.76196">
        <ele>449.3</ele>
        <time>2021-05-12T11:36:01Z</time>
      </trkpt>
      <trkpt lat="43.35158" lon="5.76209">
        <ele>449.9</ele>
        <time>2021-05-12T11:36:25Z</time>
      </trkpt>
      <trkpt lat="43.35155" lon="5.76223">
        <ele>450.4</ele>
        <time>2021-05-12T11:36:37Z</time>
      </trkpt>
      <trkpt lat="43.35155" lon="5.76237">
        <ele>451.3</ele>
        <time>2021-05-12T11:36:51Z</time>
      </trkpt>
      <trkpt lat="43.35151" lon="5.7625">
        <ele>451.4</ele>
        <time>2021-05-12T11:36:59Z</time>
      </trkpt>
      <trkpt lat="43.3515" lon="5.76265">
        <ele>452.5</ele>
        <time>2021-05-12T11:37:09Z</time>
      </trkpt>
      <trkpt lat="43.35151" lon="5.76278">
        <ele>453.7</ele>
        <time>2021-05-12T11:37:17Z</time>
      </trkpt>
      <trkpt lat="43.3515" lon="5.76294">
        <ele>455.2</ele>
        <time>2021-05-12T11:37:29Z</time>
      </trkpt>
      <trkpt lat="43.35153" lon="5.7631">
        <ele>457</ele>
        <time>2021-05-12T11:37:41Z</time>
      </trkpt>
      <trkpt lat="43.35151" lon="5.76323">
        <ele>457.9</ele>
        <time>2021-05-12T11:37:53Z</time>
      </trkpt>
      <trkpt lat="43.35149" lon="5.76338">
        <ele>458.9</ele>
        <time>2021-05-12T11:38:07Z</time>
      </trkpt>
      <trkpt lat="43.35148" lon="5.76354">
        <ele>460.2</ele>
        <time>2021-05-12T11:38:23Z</time>
      </trkpt>
      <trkpt lat="43.35145" lon="5.76368">
        <ele>460.9</ele>
        <time>2021-05-12T11:38:33Z</time>
      </trkpt>
      <trkpt lat="43.35143" lon="5.76382">
        <ele>462</ele>
        <time>2021-05-12T11:38:47Z</time>
      </trkpt>
      <trkpt lat="43.35137" lon="5.76394">
        <ele>462.4</ele>
        <time>2021-05-12T11:39:01Z</time>
      </trkpt>
      <trkpt lat="43.35132" lon="5.76409">
        <ele>463.1</ele>
        <time>2021-05-12T11:39:11Z</time>
      </trkpt>
      <trkpt lat="43.35129" lon="5.76423">
        <ele>463.8</ele>
        <time>2021-05-12T11:39:49Z</time>
      </trkpt>
      <trkpt lat="43.35122" lon="5.76436">
        <ele>463.7</ele>
        <time>2021-05-12T11:40:13Z</time>
      </trkpt>
      <trkpt lat="43.35126" lon="5.76447">
        <ele>464.8</ele>
        <time>2021-05-12T11:40:41Z</time>
      </trkpt>
      <trkpt lat="43.35132" lon="5.76452">
        <ele>465.8</ele>
        <time>2021-05-12T11:41:25Z</time>
      </trkpt>
      <trkpt lat="43.35138" lon="5.76463">
        <ele>466.9</ele>
        <time>2021-05-12T11:42:25Z</time>
      </trkpt>
      <trkpt lat="43.35138" lon="5.76464">
        <ele>467.1</ele>
        <time>2021-05-12T11:45:37Z</time>
      </trkpt>
      <trkpt lat="43.35132" lon="5.76475">
        <ele>467</ele>
        <time>2021-05-12T12:19:27Z</time>
      </trkpt>
      <trkpt lat="43.35132" lon="5.76474">
        <ele>466.9</ele>
        <time>2021-05-12T12:59:47Z</time>
      </trkpt>
      <trkpt lat="43.35137" lon="5.76464">
        <ele>467</ele>
        <time>2021-05-12T13:01:47Z</time>
      </trkpt>
      <trkpt lat="43.35139" lon="5.76453">
        <ele>466.6</ele>
        <time>2021-05-12T13:04:24Z</time>
      </trkpt>
      <trkpt lat="43.35134" lon="5.76443">
        <ele>465.5</ele>
        <time>2021-05-12T13:09:12Z</time>
      </trkpt>
      <trkpt lat="43.3513" lon="5.76452">
        <ele>465.5</ele>
        <time>2021-05-12T13:11:08Z</time>
      </trkpt>
      <trkpt lat="43.35131" lon="5.76466">
        <ele>466.4</ele>
        <time>2021-05-12T13:11:36Z</time>
      </trkpt>
      <trkpt lat="43.35133" lon="5.7648">
        <ele>467.3</ele>
        <time>2021-05-12T13:11:50Z</time>
      </trkpt>
      <trkpt lat="43.35138" lon="5.76491">
        <ele>468.5</ele>
        <time>2021-05-12T13:12:06Z</time>
      </trkpt>
      <trkpt lat="43.35138" lon="5.76506">
        <ele>469.3</ele>
        <time>2021-05-12T13:12:18Z</time>
      </trkpt>
      <trkpt lat="43.35138" lon="5.7652">
        <ele>470.5</ele>
        <time>2021-05-12T13:12:28Z</time>
      </trkpt>
      <trkpt lat="43.35138" lon="5.76534">
        <ele>471.6</ele>
        <time>2021-05-12T13:12:40Z</time>
      </trkpt>
      <trkpt lat="43.35136" lon="5.76548">
        <ele>472.6</ele>
        <time>2021-05-12T13:12:54Z</time>
      </trkpt>
      <trkpt lat="43.35129" lon="5.76556">
        <ele>472.8</ele>
        <time>2021-05-12T13:13:06Z</time>
      </trkpt>
      <trkpt lat="43.35124" lon="5.76567">
        <ele>473.5</ele>
        <time>2021-05-12T13:13:18Z</time>
      </trkpt>
      <trkpt lat="43.35116" lon="5.76575">
        <ele>473.8</ele>
        <time>2021-05-12T13:13:32Z</time>
      </trkpt>
      <trkpt lat="43.35107" lon="5.76583">
        <ele>474.1</ele>
        <time>2021-05-12T13:13:52Z</time>
      </trkpt>
      <trkpt lat="43.351" lon="5.7659">
        <ele>474.5</ele>
        <time>2021-05-12T13:14:06Z</time>
      </trkpt>
      <trkpt lat="43.3509" lon="5.76586">
        <ele>473.6</ele>
        <time>2021-05-12T13:14:18Z</time>
      </trkpt>
      <trkpt lat="43.35085" lon="5.76575">
        <ele>472</ele>
        <time>2021-05-12T13:14:40Z</time>
      </trkpt>
      <trkpt lat="43.35082" lon="5.76561">
        <ele>470.6</ele>
        <time>2021-05-12T13:14:56Z</time>
      </trkpt>
      <trkpt lat="43.35081" lon="5.76547">
        <ele>468.9</ele>
        <time>2021-05-12T13:15:08Z</time>
      </trkpt>
      <trkpt lat="43.35079" lon="5.76535">
        <ele>467.8</ele>
        <time>2021-05-12T13:15:20Z</time>
      </trkpt>
      <trkpt lat="43.35074" lon="5.7652">
        <ele>466.2</ele>
        <time>2021-05-12T13:15:30Z</time>
      </trkpt>
      <trkpt lat="43.35068" lon="5.76509">
        <ele>465.2</ele>
        <time>2021-05-12T13:15:44Z</time>
      </trkpt>
      <trkpt lat="43.35062" lon="5.765">
        <ele>464</ele>
        <time>2021-05-12T13:15:58Z</time>
      </trkpt>
      <trkpt lat="43.35061" lon="5.76486">
        <ele>462.8</ele>
        <time>2021-05-12T13:16:12Z</time>
      </trkpt>
      <trkpt lat="43.35056" lon="5.76474">
        <ele>462</ele>
        <time>2021-05-12T13:16:20Z</time>
      </trkpt>
      <trkpt lat="43.35045" lon="5.7647">
        <ele>461.7</ele>
        <time>2021-05-12T13:16:32Z</time>
      </trkpt>
      <trkpt lat="43.35035" lon="5.76467">
        <ele>461.5</ele>
        <time>2021-05-12T13:16:46Z</time>
      </trkpt>
      <trkpt lat="43.35024" lon="5.7647">
        <ele>461.9</ele>
        <time>2021-05-12T13:17:02Z</time>
      </trkpt>
      <trkpt lat="43.35012" lon="5.76469">
        <ele>462.1</ele>
        <time>2021-05-12T13:17:14Z</time>
      </trkpt>
      <trkpt lat="43.35001" lon="5.76467">
        <ele>461.8</ele>
        <time>2021-05-12T13:17:26Z</time>
      </trkpt>
      <trkpt lat="43.34991" lon="5.76461">
        <ele>462.2</ele>
        <time>2021-05-12T13:17:38Z</time>
      </trkpt>
      <trkpt lat="43.34981" lon="5.76454">
        <ele>462.2</ele>
        <time>2021-05-12T13:17:52Z</time>
      </trkpt>
      <trkpt lat="43.34972" lon="5.7645">
        <ele>462.9</ele>
        <time>2021-05-12T13:18:06Z</time>
      </trkpt>
      <trkpt lat="43.34961" lon="5.7645">
        <ele>464.1</ele>
        <time>2021-05-12T13:18:22Z</time>
      </trkpt>
      <trkpt lat="43.34952" lon="5.76447">
        <ele>464.9</ele>
        <time>2021-05-12T13:18:50Z</time>
      </trkpt>
      <trkpt lat="43.34942" lon="5.76444">
        <ele>465.7</ele>
        <time>2021-05-12T13:19:10Z</time>
      </trkpt>
      <trkpt lat="43.34933" lon="5.76441">
        <ele>466.3</ele>
        <time>2021-05-12T13:19:22Z</time>
      </trkpt>
      <trkpt lat="43.34922" lon="5.76435">
        <ele>466.7</ele>
        <time>2021-05-12T13:19:34Z</time>
      </trkpt>
      <trkpt lat="43.34911" lon="5.76433">
        <ele>467.3</ele>
        <time>2021-05-12T13:19:44Z</time>
      </trkpt>
      <trkpt lat="43.34903" lon="5.76428">
        <ele>466.9</ele>
        <time>2021-05-12T13:19:58Z</time>
      </trkpt>
      <trkpt lat="43.34894" lon="5.76423">
        <ele>466.3</ele>
        <time>2021-05-12T13:20:20Z</time>
      </trkpt>
      <trkpt lat="43.34885" lon="5.76422">
        <ele>466.5</ele>
        <time>2021-05-12T13:20:52Z</time>
      </trkpt>
      <trkpt lat="43.34876" lon="5.76418">
        <ele>466.2</ele>
        <time>2021-05-12T13:21:30Z</time>
      </trkpt>
      <trkpt lat="43.34866" lon="5.76419">
        <ele>467</ele>
        <time>2021-05-12T13:21:50Z</time>
      </trkpt>
      <trkpt lat="43.34857" lon="5.76419">
        <ele>467.4</ele>
        <time>2021-05-12T13:22:44Z</time>
      </trkpt>
      <trkpt lat="43.34847" lon="5.7642">
        <ele>468.2</ele>
        <time>2021-05-12T13:22:58Z</time>
      </trkpt>
      <trkpt lat="43.34837" lon="5.76423">
        <ele>469.3</ele>
        <time>2021-05-12T13:23:14Z</time>
      </trkpt>
      <trkpt lat="43.34828" lon="5.76427">
        <ele>470.8</ele>
        <time>2021-05-12T13:23:34Z</time>
      </trkpt>
      <trkpt lat="43.34817" lon="5.76427">
        <ele>471.4</ele>
        <time>2021-05-12T13:23:54Z</time>
      </trkpt>
      <trkpt lat="43.34807" lon="5.7643">
        <ele>472.5</ele>
        <time>2021-05-12T13:24:06Z</time>
      </trkpt>
      <trkpt lat="43.34797" lon="5.7643">
        <ele>473.1</ele>
        <time>2021-05-12T13:24:18Z</time>
      </trkpt>
      <trkpt lat="43.34786" lon="5.76426">
        <ele>472.6</ele>
        <time>2021-05-12T13:24:34Z</time>
      </trkpt>
      <trkpt lat="43.34776" lon="5.76423">
        <ele>471.9</ele>
        <time>2021-05-12T13:24:48Z</time>
      </trkpt>
      <trkpt lat="43.34767" lon="5.76417">
        <ele>470.5</ele>
        <time>2021-05-12T13:25:04Z</time>
      </trkpt>
      <trkpt lat="43.34758" lon="5.7641">
        <ele>471.4</ele>
        <time>2021-05-12T13:25:16Z</time>
      </trkpt>
      <trkpt lat="43.3475" lon="5.76402">
        <ele>472.4</ele>
        <time>2021-05-12T13:25:30Z</time>
      </trkpt>
      <trkpt lat="43.34742" lon="5.76393">
        <ele>474.6</ele>
        <time>2021-05-12T13:25:54Z</time>
      </trkpt>
      <trkpt lat="43.34733" lon="5.76383">
        <ele>476.6</ele>
        <time>2021-05-12T13:26:12Z</time>
      </trkpt>
      <trkpt lat="43.34725" lon="5.76374">
        <ele>477.8</ele>
        <time>2021-05-12T13:26:24Z</time>
      </trkpt>
      <trkpt lat="43.34718" lon="5.76366">
        <ele>478.7</ele>
        <time>2021-05-12T13:26:42Z</time>
      </trkpt>
      <trkpt lat="43.34705" lon="5.76364">
        <ele>479.7</ele>
        <time>2021-05-12T13:26:56Z</time>
      </trkpt>
      <trkpt lat="43.34699" lon="5.76355">
        <ele>479.6</ele>
        <time>2021-05-12T13:27:10Z</time>
      </trkpt>
      <trkpt lat="43.34694" lon="5.76343">
        <ele>479.1</ele>
        <time>2021-05-12T13:27:30Z</time>
      </trkpt>
      <trkpt lat="43.34685" lon="5.76335">
        <ele>478.4</ele>
        <time>2021-05-12T13:27:44Z</time>
      </trkpt>
      <trkpt lat="43.34679" lon="5.76326">
        <ele>479.4</ele>
        <time>2021-05-12T13:27:54Z</time>
      </trkpt>
      <trkpt lat="43.34671" lon="5.76316">
        <ele>480.6</ele>
        <time>2021-05-12T13:28:10Z</time>
      </trkpt>
      <trkpt lat="43.34664" lon="5.76304">
        <ele>482.1</ele>
        <time>2021-05-12T13:28:26Z</time>
      </trkpt>
      <trkpt lat="43.34658" lon="5.76291">
        <ele>483.9</ele>
        <time>2021-05-12T13:28:42Z</time>
      </trkpt>
      <trkpt lat="43.34652" lon="5.7628">
        <ele>485</ele>
        <time>2021-05-12T13:28:58Z</time>
      </trkpt>
      <trkpt lat="43.34643" lon="5.76275">
        <ele>485.3</ele>
        <time>2021-05-12T13:29:12Z</time>
      </trkpt>
      <trkpt lat="43.34635" lon="5.76265">
        <ele>485.3</ele>
        <time>2021-05-12T13:29:30Z</time>
      </trkpt>
      <trkpt lat="43.34623" lon="5.7627">
        <ele>484.8</ele>
        <time>2021-05-12T13:29:56Z</time>
      </trkpt>
      <trkpt lat="43.34609" lon="5.76267">
        <ele>484.1</ele>
        <time>2021-05-12T13:30:08Z</time>
      </trkpt>
      <trkpt lat="43.34602" lon="5.76267">
        <ele>483.8</ele>
        <time>2021-05-12T13:30:54Z</time>
      </trkpt>
      <trkpt lat="43.34595" lon="5.76277">
        <ele>484.6</ele>
        <time>2021-05-12T13:31:14Z</time>
      </trkpt>
      <trkpt lat="43.34588" lon="5.76287">
        <ele>486</ele>
        <time>2021-05-12T13:31:34Z</time>
      </trkpt>
      <trkpt lat="43.34586" lon="5.76298">
        <ele>487.9</ele>
        <time>2021-05-12T13:32:34Z</time>
      </trkpt>
      <trkpt lat="43.3459" lon="5.76298">
        <ele>487.6</ele>
        <time>2021-05-12T13:34:06Z</time>
      </trkpt>
      <trkpt lat="43.34585" lon="5.76284">
        <ele>485.7</ele>
        <time>2021-05-12T13:37:04Z</time>
      </trkpt>
      <trkpt lat="43.34581" lon="5.76272">
        <ele>484.2</ele>
        <time>2021-05-12T13:37:16Z</time>
      </trkpt>
      <trkpt lat="43.34573" lon="5.76276">
        <ele>487.1</ele>
        <time>2021-05-12T13:37:36Z</time>
      </trkpt>
      <trkpt lat="43.34565" lon="5.7627">
        <ele>488</ele>
        <time>2021-05-12T13:38:24Z</time>
      </trkpt>
      <trkpt lat="43.34559" lon="5.76257">
        <ele>487</ele>
        <time>2021-05-12T13:39:22Z</time>
      </trkpt>
      <trkpt lat="43.34549" lon="5.76252">
        <ele>488.3</ele>
        <time>2021-05-12T13:39:36Z</time>
      </trkpt>
      <trkpt lat="43.3454" lon="5.76246">
        <ele>490.1</ele>
        <time>2021-05-12T13:39:50Z</time>
      </trkpt>
      <trkpt lat="43.3453" lon="5.76241">
        <ele>492.5</ele>
        <time>2021-05-12T13:40:06Z</time>
      </trkpt>
      <trkpt lat="43.34526" lon="5.76249">
        <ele>493.2</ele>
        <time>2021-05-12T13:40:24Z</time>
      </trkpt>
      <trkpt lat="43.34528" lon="5.76264">
        <ele>496.2</ele>
        <time>2021-05-12T13:40:40Z</time>
      </trkpt>
      <trkpt lat="43.3452" lon="5.76268">
        <ele>499.4</ele>
        <time>2021-05-12T13:41:00Z</time>
      </trkpt>
      <trkpt lat="43.34511" lon="5.76274">
        <ele>503.3</ele>
        <time>2021-05-12T13:41:16Z</time>
      </trkpt>
      <trkpt lat="43.34512" lon="5.76288">
        <ele>507.1</ele>
        <time>2021-05-12T13:41:36Z</time>
      </trkpt>
      <trkpt lat="43.34505" lon="5.76297">
        <ele>511.6</ele>
        <time>2021-05-12T13:41:58Z</time>
      </trkpt>
      <trkpt lat="43.34493" lon="5.76296">
        <ele>514.5</ele>
        <time>2021-05-12T13:42:20Z</time>
      </trkpt>
      <trkpt lat="43.34483" lon="5.76292">
        <ele>515.8</ele>
        <time>2021-05-12T13:42:34Z</time>
      </trkpt>
      <trkpt lat="43.34472" lon="5.76293">
        <ele>519.3</ele>
        <time>2021-05-12T13:42:48Z</time>
      </trkpt>
      <trkpt lat="43.34464" lon="5.763">
        <ele>523.4</ele>
        <time>2021-05-12T13:43:10Z</time>
      </trkpt>
      <trkpt lat="43.34453" lon="5.76305">
        <ele>527.3</ele>
        <time>2021-05-12T13:43:24Z</time>
      </trkpt>
      <trkpt lat="43.34443" lon="5.76306">
        <ele>530.2</ele>
        <time>2021-05-12T13:43:38Z</time>
      </trkpt>
      <trkpt lat="43.34433" lon="5.76309">
        <ele>533.4</ele>
        <time>2021-05-12T13:43:56Z</time>
      </trkpt>
      <trkpt lat="43.34424" lon="5.76313">
        <ele>536.6</ele>
        <time>2021-05-12T13:44:14Z</time>
      </trkpt>
      <trkpt lat="43.34413" lon="5.76314">
        <ele>539.4</ele>
        <time>2021-05-12T13:44:38Z</time>
      </trkpt>
      <trkpt lat="43.34403" lon="5.76315">
        <ele>542.4</ele>
        <time>2021-05-12T13:44:52Z</time>
      </trkpt>
      <trkpt lat="43.34393" lon="5.76317">
        <ele>545.4</ele>
        <time>2021-05-12T13:45:02Z</time>
      </trkpt>
      <trkpt lat="43.34384" lon="5.76324">
        <ele>549.1</ele>
        <time>2021-05-12T13:45:14Z</time>
      </trkpt>
      <trkpt lat="43.34376" lon="5.76332">
        <ele>552.5</ele>
        <time>2021-05-12T13:45:28Z</time>
      </trkpt>
      <trkpt lat="43.34367" lon="5.76333">
        <ele>554.9</ele>
        <time>2021-05-12T13:45:48Z</time>
      </trkpt>
      <trkpt lat="43.34364" lon="5.76318">
        <ele>553.1</ele>
        <time>2021-05-12T13:46:06Z</time>
      </trkpt>
      <trkpt lat="43.34363" lon="5.76304">
        <ele>551.1</ele>
        <time>2021-05-12T13:46:14Z</time>
      </trkpt>
      <trkpt lat="43.34363" lon="5.76289">
        <ele>548.5</ele>
        <time>2021-05-12T13:46:30Z</time>
      </trkpt>
      <trkpt lat="43.34364" lon="5.76275">
        <ele>545.9</ele>
        <time>2021-05-12T13:46:44Z</time>
      </trkpt>
      <trkpt lat="43.34362" lon="5.76261">
        <ele>544.2</ele>
        <time>2021-05-12T13:46:56Z</time>
      </trkpt>
      <trkpt lat="43.3436" lon="5.76248">
        <ele>543.2</ele>
        <time>2021-05-12T13:47:08Z</time>
      </trkpt>
      <trkpt lat="43.34362" lon="5.76238">
        <ele>544.4</ele>
        <time>2021-05-12T13:47:34Z</time>
      </trkpt>
      <trkpt lat="43.3437" lon="5.76232">
        <ele>542.5</ele>
        <time>2021-05-12T13:47:40Z</time>
      </trkpt>
      <trkpt lat="43.34374" lon="5.7622">
        <ele>543</ele>
        <time>2021-05-12T13:47:52Z</time>
      </trkpt>
      <trkpt lat="43.34377" lon="5.76207">
        <ele>544.3</ele>
        <time>2021-05-12T13:48:06Z</time>
      </trkpt>
      <trkpt lat="43.34379" lon="5.76194">
        <ele>545.6</ele>
        <time>2021-05-12T13:48:22Z</time>
      </trkpt>
      <trkpt lat="43.34386" lon="5.76184">
        <ele>544.8</ele>
        <time>2021-05-12T13:48:42Z</time>
      </trkpt>
      <trkpt lat="43.34392" lon="5.76173">
        <ele>544.4</ele>
        <time>2021-05-12T13:48:56Z</time>
      </trkpt>
      <trkpt lat="43.34395" lon="5.76159">
        <ele>545.4</ele>
        <time>2021-05-12T13:49:10Z</time>
      </trkpt>
      <trkpt lat="43.34401" lon="5.76148">
        <ele>544.8</ele>
        <time>2021-05-12T13:49:22Z</time>
      </trkpt>
      <trkpt lat="43.34406" lon="5.76135">
        <ele>544.6</ele>
        <time>2021-05-12T13:49:36Z</time>
      </trkpt>
      <trkpt lat="43.34409" lon="5.76121">
        <ele>545.7</ele>
        <time>2021-05-12T13:49:50Z</time>
      </trkpt>
      <trkpt lat="43.3441" lon="5.76105">
        <ele>547.5</ele>
        <time>2021-05-12T13:50:06Z</time>
      </trkpt>
      <trkpt lat="43.34412" lon="5.76093">
        <ele>548.5</ele>
        <time>2021-05-12T13:50:18Z</time>
      </trkpt>
      <trkpt lat="43.34412" lon="5.76078">
        <ele>550.2</ele>
        <time>2021-05-12T13:50:32Z</time>
      </trkpt>
      <trkpt lat="43.34412" lon="5.76062">
        <ele>552.2</ele>
        <time>2021-05-12T13:50:44Z</time>
      </trkpt>
      <trkpt lat="43.34412" lon="5.76047">
        <ele>554.6</ele>
        <time>2021-05-12T13:50:56Z</time>
      </trkpt>
      <trkpt lat="43.34414" lon="5.76033">
        <ele>555.1</ele>
        <time>2021-05-12T13:51:06Z</time>
      </trkpt>
      <trkpt lat="43.34415" lon="5.76018">
        <ele>556.4</ele>
        <time>2021-05-12T13:51:16Z</time>
      </trkpt>
      <trkpt lat="43.34415" lon="5.76002">
        <ele>558.2</ele>
        <time>2021-05-12T13:51:30Z</time>
      </trkpt>
      <trkpt lat="43.34414" lon="5.75988">
        <ele>561.2</ele>
        <time>2021-05-12T13:51:42Z</time>
      </trkpt>
      <trkpt lat="43.34408" lon="5.75973">
        <ele>567.7</ele>
        <time>2021-05-12T13:51:56Z</time>
      </trkpt>
      <trkpt lat="43.34404" lon="5.75961">
        <ele>573.2</ele>
        <time>2021-05-12T13:52:12Z</time>
      </trkpt>
      <trkpt lat="43.34403" lon="5.75946">
        <ele>577.2</ele>
        <time>2021-05-12T13:52:28Z</time>
      </trkpt>
      <trkpt lat="43.34399" lon="5.75933">
        <ele>582.7</ele>
        <time>2021-05-12T13:52:44Z</time>
      </trkpt>
      <trkpt lat="43.34398" lon="5.75919">
        <ele>586.2</ele>
        <time>2021-05-12T13:53:08Z</time>
      </trkpt>
      <trkpt lat="43.34402" lon="5.75904">
        <ele>587.5</ele>
        <time>2021-05-12T13:53:22Z</time>
      </trkpt>
      <trkpt lat="43.34402" lon="5.75892">
        <ele>590.8</ele>
        <time>2021-05-12T13:53:46Z</time>
      </trkpt>
      <trkpt lat="43.34396" lon="5.75882">
        <ele>598.9</ele>
        <time>2021-05-12T13:54:26Z</time>
      </trkpt>
      <trkpt lat="43.34398" lon="5.75869">
        <ele>601.7</ele>
        <time>2021-05-12T13:54:56Z</time>
      </trkpt>
      <trkpt lat="43.344" lon="5.75856">
        <ele>603.4</ele>
        <time>2021-05-12T13:55:12Z</time>
      </trkpt>
      <trkpt lat="43.34402" lon="5.75842">
        <ele>605.7</ele>
        <time>2021-05-12T13:55:30Z</time>
      </trkpt>
      <trkpt lat="43.34405" lon="5.75827">
        <ele>610.2</ele>
        <time>2021-05-12T13:55:42Z</time>
      </trkpt>
      <trkpt lat="43.34409" lon="5.75816">
        <ele>616.1</ele>
        <time>2021-05-12T13:56:08Z</time>
      </trkpt>
      <trkpt lat="43.34418" lon="5.75813">
        <ele>611.8</ele>
        <time>2021-05-12T13:56:38Z</time>
      </trkpt>
      <trkpt lat="43.34417" lon="5.75805">
        <ele>618.4</ele>
        <time>2021-05-12T14:00:44Z</time>
      </trkpt>
      <trkpt lat="43.34408" lon="5.75812">
        <ele>619.5</ele>
        <time>2021-05-12T14:02:48Z</time>
      </trkpt>
      <trkpt lat="43.34404" lon="5.75824">
        <ele>613.4</ele>
        <time>2021-05-12T14:03:06Z</time>
      </trkpt>
      <trkpt lat="43.34399" lon="5.75836">
        <ele>610.8</ele>
        <time>2021-05-12T14:03:20Z</time>
      </trkpt>
      <trkpt lat="43.34396" lon="5.75851">
        <ele>608.7</ele>
        <time>2021-05-12T14:03:42Z</time>
      </trkpt>
      <trkpt lat="43.34393" lon="5.75863">
        <ele>608.2</ele>
        <time>2021-05-12T14:03:58Z</time>
      </trkpt>
      <trkpt lat="43.34385" lon="5.75875">
        <ele>611.2</ele>
        <time>2021-05-12T14:04:10Z</time>
      </trkpt>
      <trkpt lat="43.3439" lon="5.75887">
        <ele>602.8</ele>
        <time>2021-05-12T14:04:30Z</time>
      </trkpt>
      <trkpt lat="43.34398" lon="5.75898">
        <ele>592.7</ele>
        <time>2021-05-12T14:04:40Z</time>
      </trkpt>
      <trkpt lat="43.34395" lon="5.75911">
        <ele>591.2</ele>
        <time>2021-05-12T14:05:54Z</time>
      </trkpt>
      <trkpt lat="43.34398" lon="5.75927">
        <ele>584.9</ele>
        <time>2021-05-12T14:06:04Z</time>
      </trkpt>
      <trkpt lat="43.34398" lon="5.75943">
        <ele>581.9</ele>
        <time>2021-05-12T14:06:14Z</time>
      </trkpt>
      <trkpt lat="43.34401" lon="5.75957">
        <ele>576.7</ele>
        <time>2021-05-12T14:06:26Z</time>
      </trkpt>
      <trkpt lat="43.34405" lon="5.75969">
        <ele>571.5</ele>
        <time>2021-05-12T14:06:36Z</time>
      </trkpt>
      <trkpt lat="43.34409" lon="5.75984">
        <ele>565.2</ele>
        <time>2021-05-12T14:06:48Z</time>
      </trkpt>
      <trkpt lat="43.34409" lon="5.76">
        <ele>562.4</ele>
        <time>2021-05-12T14:07:00Z</time>
      </trkpt>
      <trkpt lat="43.34406" lon="5.76015">
        <ele>562.6</ele>
        <time>2021-05-12T14:07:08Z</time>
      </trkpt>
      <trkpt lat="43.34402" lon="5.76031">
        <ele>563.3</ele>
        <time>2021-05-12T14:07:20Z</time>
      </trkpt>
      <trkpt lat="43.34403" lon="5.76045">
        <ele>560</ele>
        <time>2021-05-12T14:07:28Z</time>
      </trkpt>
      <trkpt lat="43.34403" lon="5.76059">
        <ele>558.1</ele>
        <time>2021-05-12T14:07:36Z</time>
      </trkpt>
      <trkpt lat="43.34402" lon="5.76076">
        <ele>556.2</ele>
        <time>2021-05-12T14:07:46Z</time>
      </trkpt>
      <trkpt lat="43.34399" lon="5.76089">
        <ele>555.4</ele>
        <time>2021-05-12T14:07:54Z</time>
      </trkpt>
      <trkpt lat="43.34398" lon="5.76102">
        <ele>553.8</ele>
        <time>2021-05-12T14:08:02Z</time>
      </trkpt>
      <trkpt lat="43.34398" lon="5.76119">
        <ele>551.1</ele>
        <time>2021-05-12T14:08:10Z</time>
      </trkpt>
      <trkpt lat="43.34395" lon="5.76133">
        <ele>550</ele>
        <time>2021-05-12T14:08:20Z</time>
      </trkpt>
      <trkpt lat="43.34392" lon="5.76148">
        <ele>548.8</ele>
        <time>2021-05-12T14:08:30Z</time>
      </trkpt>
      <trkpt lat="43.3439" lon="5.76163">
        <ele>546.7</ele>
        <time>2021-05-12T14:08:40Z</time>
      </trkpt>
      <trkpt lat="43.34385" lon="5.76176">
        <ele>546.3</ele>
        <time>2021-05-12T14:08:50Z</time>
      </trkpt>
      <trkpt lat="43.34377" lon="5.76192">
        <ele>546.8</ele>
        <time>2021-05-12T14:09:02Z</time>
      </trkpt>
      <trkpt lat="43.34371" lon="5.76205">
        <ele>546.6</ele>
        <time>2021-05-12T14:09:10Z</time>
      </trkpt>
      <trkpt lat="43.34365" lon="5.76216">
        <ele>547</ele>
        <time>2021-05-12T14:09:18Z</time>
      </trkpt>
      <trkpt lat="43.34357" lon="5.76224">
        <ele>548.3</ele>
        <time>2021-05-12T14:09:28Z</time>
      </trkpt>
      <trkpt lat="43.34355" lon="5.76236">
        <ele>547.1</ele>
        <time>2021-05-12T14:09:48Z</time>
      </trkpt>
      <trkpt lat="43.34356" lon="5.76252">
        <ele>544.8</ele>
        <time>2021-05-12T14:10:00Z</time>
      </trkpt>
      <trkpt lat="43.34357" lon="5.76268">
        <ele>547</ele>
        <time>2021-05-12T14:10:12Z</time>
      </trkpt>
      <trkpt lat="43.34358" lon="5.76284">
        <ele>549.3</ele>
        <time>2021-05-12T14:10:24Z</time>
      </trkpt>
      <trkpt lat="43.34356" lon="5.76299">
        <ele>552.2</ele>
        <time>2021-05-12T14:10:36Z</time>
      </trkpt>
      <trkpt lat="43.34358" lon="5.76315">
        <ele>554.2</ele>
        <time>2021-05-12T14:10:48Z</time>
      </trkpt>
      <trkpt lat="43.34361" lon="5.76328">
        <ele>555.4</ele>
        <time>2021-05-12T14:11:00Z</time>
      </trkpt>
      <trkpt lat="43.34368" lon="5.76338">
        <ele>555.9</ele>
        <time>2021-05-12T14:11:26Z</time>
      </trkpt>
      <trkpt lat="43.34377" lon="5.76331">
        <ele>552</ele>
        <time>2021-05-12T14:11:48Z</time>
      </trkpt>
      <trkpt lat="43.34385" lon="5.76323">
        <ele>548.6</ele>
        <time>2021-05-12T14:12:00Z</time>
      </trkpt>
      <trkpt lat="43.34395" lon="5.76317">
        <ele>544.7</ele>
        <time>2021-05-12T14:12:14Z</time>
      </trkpt>
      <trkpt lat="43.34405" lon="5.76317">
        <ele>542.3</ele>
        <time>2021-05-12T14:12:28Z</time>
      </trkpt>
      <trkpt lat="43.34416" lon="5.76318">
        <ele>539.6</ele>
        <time>2021-05-12T14:12:42Z</time>
      </trkpt>
      <trkpt lat="43.34427" lon="5.76314">
        <ele>536</ele>
        <time>2021-05-12T14:12:58Z</time>
      </trkpt>
      <trkpt lat="43.34438" lon="5.76314">
        <ele>533.4</ele>
        <time>2021-05-12T14:13:12Z</time>
      </trkpt>
      <trkpt lat="43.34448" lon="5.76309">
        <ele>529.8</ele>
        <time>2021-05-12T14:13:34Z</time>
      </trkpt>
      <trkpt lat="43.34459" lon="5.76307">
        <ele>526.4</ele>
        <time>2021-05-12T14:13:48Z</time>
      </trkpt>
      <trkpt lat="43.34467" lon="5.76301">
        <ele>522.7</ele>
        <time>2021-05-12T14:14:04Z</time>
      </trkpt>
      <trkpt lat="43.34478" lon="5.76298">
        <ele>519.1</ele>
        <time>2021-05-12T14:14:22Z</time>
      </trkpt>
      <trkpt lat="43.34487" lon="5.76295">
        <ele>516</ele>
        <time>2021-05-12T14:14:36Z</time>
      </trkpt>
      <trkpt lat="43.34497" lon="5.76291">
        <ele>512.3</ele>
        <time>2021-05-12T14:15:10Z</time>
      </trkpt>
      <trkpt lat="43.34506" lon="5.76293">
        <ele>510.1</ele>
        <time>2021-05-12T14:15:24Z</time>
      </trkpt>
      <trkpt lat="43.34514" lon="5.76301">
        <ele>509.9</ele>
        <time>2021-05-12T14:15:38Z</time>
      </trkpt>
      <trkpt lat="43.34516" lon="5.76302">
        <ele>509.5</ele>
        <time>2021-05-12T14:16:50Z</time>
      </trkpt>
      <trkpt lat="43.34516" lon="5.76289">
        <ele>506</ele>
        <time>2021-05-12T14:17:34Z</time>
      </trkpt>
      <trkpt lat="43.34516" lon="5.76275">
        <ele>502.1</ele>
        <time>2021-05-12T14:17:58Z</time>
      </trkpt>
      <trkpt lat="43.34526" lon="5.7627">
        <ele>498.1</ele>
        <time>2021-05-12T14:18:28Z</time>
      </trkpt>
      <trkpt lat="43.34529" lon="5.76259">
        <ele>494.6</ele>
        <time>2021-05-12T14:18:40Z</time>
      </trkpt>
      <trkpt lat="43.34524" lon="5.76248">
        <ele>493.6</ele>
        <time>2021-05-12T14:19:00Z</time>
      </trkpt>
      <trkpt lat="43.3453" lon="5.76242">
        <ele>492.5</ele>
        <time>2021-05-12T14:19:16Z</time>
      </trkpt>
      <trkpt lat="43.3454" lon="5.76247">
        <ele>490.1</ele>
        <time>2021-05-12T14:19:30Z</time>
      </trkpt>
      <trkpt lat="43.34549" lon="5.7625">
        <ele>487.9</ele>
        <time>2021-05-12T14:20:08Z</time>
      </trkpt>
      <trkpt lat="43.34558" lon="5.76256">
        <ele>487.2</ele>
        <time>2021-05-12T14:20:30Z</time>
      </trkpt>
      <trkpt lat="43.34561" lon="5.7627">
        <ele>489.2</ele>
        <time>2021-05-12T14:20:46Z</time>
      </trkpt>
      <trkpt lat="43.3457" lon="5.76278">
        <ele>488.2</ele>
        <time>2021-05-12T14:21:04Z</time>
      </trkpt>
      <trkpt lat="43.34577" lon="5.76282">
        <ele>487.2</ele>
        <time>2021-05-12T14:21:32Z</time>
      </trkpt>
      <trkpt lat="43.34578" lon="5.76296">
        <ele>489.3</ele>
        <time>2021-05-12T14:21:54Z</time>
      </trkpt>
      <trkpt lat="43.34588" lon="5.76293">
        <ele>487</ele>
        <time>2021-05-12T14:22:20Z</time>
      </trkpt>
      <trkpt lat="43.34594" lon="5.76282">
        <ele>485.3</ele>
        <time>2021-05-12T14:23:28Z</time>
      </trkpt>
      <trkpt lat="43.346" lon="5.76273">
        <ele>484.2</ele>
        <time>2021-05-12T14:23:40Z</time>
      </trkpt>
      <trkpt lat="43.34605" lon="5.76261">
        <ele>483.3</ele>
        <time>2021-05-12T14:23:52Z</time>
      </trkpt>
      <trkpt lat="43.34599" lon="5.76251">
        <ele>481.8</ele>
        <time>2021-05-12T14:24:08Z</time>
      </trkpt>
      <trkpt lat="43.34597" lon="5.76238">
        <ele>483.7</ele>
        <time>2021-05-12T14:24:26Z</time>
      </trkpt>
      <trkpt lat="43.34594" lon="5.76223">
        <ele>485.8</ele>
        <time>2021-05-12T14:24:44Z</time>
      </trkpt>
      <trkpt lat="43.34585" lon="5.76214">
        <ele>485.9</ele>
        <time>2021-05-12T14:24:58Z</time>
      </trkpt>
      <trkpt lat="43.34576" lon="5.76205">
        <ele>488</ele>
        <time>2021-05-12T14:25:20Z</time>
      </trkpt>
      <trkpt lat="43.34567" lon="5.76196">
        <ele>490.3</ele>
        <time>2021-05-12T14:25:32Z</time>
      </trkpt>
      <trkpt lat="43.34559" lon="5.7619">
        <ele>492.1</ele>
        <time>2021-05-12T14:25:42Z</time>
      </trkpt>
      <trkpt lat="43.3455" lon="5.76184">
        <ele>493.4</ele>
        <time>2021-05-12T14:26:02Z</time>
      </trkpt>
      <trkpt lat="43.3454" lon="5.76178">
        <ele>494.9</ele>
        <time>2021-05-12T14:26:38Z</time>
      </trkpt>
      <trkpt lat="43.3453" lon="5.7618">
        <ele>495.6</ele>
        <time>2021-05-12T14:26:52Z</time>
      </trkpt>
      <trkpt lat="43.34532" lon="5.76184">
        <ele>495.2</ele>
        <time>2021-05-12T14:27:46Z</time>
      </trkpt>
      <trkpt lat="43.34538" lon="5.76175">
        <ele>495.2</ele>
        <time>2021-05-12T14:28:26Z</time>
      </trkpt>
      <trkpt lat="43.34546" lon="5.76168">
        <ele>495.2</ele>
        <time>2021-05-12T14:30:36Z</time>
      </trkpt>
      <trkpt lat="43.34552" lon="5.76178">
        <ele>493.8</ele>
        <time>2021-05-12T14:32:00Z</time>
      </trkpt>
      <trkpt lat="43.34562" lon="5.76181">
        <ele>492.7</ele>
        <time>2021-05-12T14:32:18Z</time>
      </trkpt>
      <trkpt lat="43.3457" lon="5.76186">
        <ele>491.2</ele>
        <time>2021-05-12T14:32:36Z</time>
      </trkpt>
      <trkpt lat="43.34579" lon="5.76197">
        <ele>488.8</ele>
        <time>2021-05-12T14:32:50Z</time>
      </trkpt>
      <trkpt lat="43.34587" lon="5.76203">
        <ele>488.1</ele>
        <time>2021-05-12T14:33:02Z</time>
      </trkpt>
      <trkpt lat="43.34597" lon="5.76215">
        <ele>487.9</ele>
        <time>2021-05-12T14:33:14Z</time>
      </trkpt>
      <trkpt lat="43.34602" lon="5.76228">
        <ele>486.3</ele>
        <time>2021-05-12T14:33:28Z</time>
      </trkpt>
      <trkpt lat="43.34605" lon="5.76241">
        <ele>484.1</ele>
        <time>2021-05-12T14:33:42Z</time>
      </trkpt>
      <trkpt lat="43.34614" lon="5.76248">
        <ele>483.6</ele>
        <time>2021-05-12T14:34:02Z</time>
      </trkpt>
      <trkpt lat="43.34622" lon="5.76254">
        <ele>484.3</ele>
        <time>2021-05-12T14:34:16Z</time>
      </trkpt>
      <trkpt lat="43.34632" lon="5.76253">
        <ele>485.2</ele>
        <time>2021-05-12T14:34:28Z</time>
      </trkpt>
      <trkpt lat="43.3464" lon="5.7626">
        <ele>485.8</ele>
        <time>2021-05-12T14:34:52Z</time>
      </trkpt>
      <trkpt lat="43.34653" lon="5.76265">
        <ele>486.3</ele>
        <time>2021-05-12T14:35:04Z</time>
      </trkpt>
      <trkpt lat="43.34661" lon="5.7627">
        <ele>486.2</ele>
        <time>2021-05-12T14:35:12Z</time>
      </trkpt>
      <trkpt lat="43.34668" lon="5.7628">
        <ele>485.3</ele>
        <time>2021-05-12T14:35:32Z</time>
      </trkpt>
      <trkpt lat="43.34674" lon="5.76291">
        <ele>484.5</ele>
        <time>2021-05-12T14:36:18Z</time>
      </trkpt>
      <trkpt lat="43.34681" lon="5.76302">
        <ele>483.6</ele>
        <time>2021-05-12T14:36:38Z</time>
      </trkpt>
      <trkpt lat="43.34688" lon="5.76313">
        <ele>482.2</ele>
        <time>2021-05-12T14:36:52Z</time>
      </trkpt>
      <trkpt lat="43.34694" lon="5.76323">
        <ele>480.4</ele>
        <time>2021-05-12T14:37:10Z</time>
      </trkpt>
      <trkpt lat="43.34699" lon="5.76336">
        <ele>478.5</ele>
        <time>2021-05-12T14:37:24Z</time>
      </trkpt>
      <trkpt lat="43.34707" lon="5.76341">
        <ele>478.8</ele>
        <time>2021-05-12T14:37:42Z</time>
      </trkpt>
      <trkpt lat="43.34717" lon="5.76349">
        <ele>478.7</ele>
        <time>2021-05-12T14:38:08Z</time>
      </trkpt>
      <trkpt lat="43.34723" lon="5.76359">
        <ele>478.3</ele>
        <time>2021-05-12T14:38:22Z</time>
      </trkpt>
      <trkpt lat="43.34731" lon="5.76367">
        <ele>477.5</ele>
        <time>2021-05-12T14:38:48Z</time>
      </trkpt>
      <trkpt lat="43.3474" lon="5.76369">
        <ele>476.5</ele>
        <time>2021-05-12T14:39:52Z</time>
      </trkpt>
      <trkpt lat="43.34745" lon="5.76382">
        <ele>475.1</ele>
        <time>2021-05-12T14:40:04Z</time>
      </trkpt>
      <trkpt lat="43.34751" lon="5.76392">
        <ele>473.4</ele>
        <time>2021-05-12T14:40:30Z</time>
      </trkpt>
      <trkpt lat="43.3476" lon="5.76399">
        <ele>472.6</ele>
        <time>2021-05-12T14:40:42Z</time>
      </trkpt>
      <trkpt lat="43.34769" lon="5.76404">
        <ele>471.9</ele>
        <time>2021-05-12T14:40:50Z</time>
      </trkpt>
      <trkpt lat="43.34781" lon="5.76403">
        <ele>471.8</ele>
        <time>2021-05-12T14:41:02Z</time>
      </trkpt>
      <trkpt lat="43.34791" lon="5.76408">
        <ele>470.9</ele>
        <time>2021-05-12T14:41:20Z</time>
      </trkpt>
      <trkpt lat="43.34802" lon="5.76407">
        <ele>470.8</ele>
        <time>2021-05-12T14:41:48Z</time>
      </trkpt>
      <trkpt lat="43.34812" lon="5.76406">
        <ele>470.9</ele>
        <time>2021-05-12T14:42:02Z</time>
      </trkpt>
      <trkpt lat="43.34824" lon="5.76406">
        <ele>470.6</ele>
        <time>2021-05-12T14:42:14Z</time>
      </trkpt>
      <trkpt lat="43.34835" lon="5.76405">
        <ele>470.7</ele>
        <time>2021-05-12T14:42:22Z</time>
      </trkpt>
      <trkpt lat="43.34845" lon="5.76404">
        <ele>470.2</ele>
        <time>2021-05-12T14:42:34Z</time>
      </trkpt>
      <trkpt lat="43.34857" lon="5.76405">
        <ele>469.4</ele>
        <time>2021-05-12T14:42:46Z</time>
      </trkpt>
      <trkpt lat="43.34868" lon="5.76402">
        <ele>469.4</ele>
        <time>2021-05-12T14:43:04Z</time>
      </trkpt>
      <trkpt lat="43.34879" lon="5.76404">
        <ele>468.4</ele>
        <time>2021-05-12T14:43:16Z</time>
      </trkpt>
      <trkpt lat="43.34891" lon="5.76406">
        <ele>467.4</ele>
        <time>2021-05-12T14:43:26Z</time>
      </trkpt>
      <trkpt lat="43.34901" lon="5.76403">
        <ele>467.4</ele>
        <time>2021-05-12T14:43:40Z</time>
      </trkpt>
      <trkpt lat="43.34912" lon="5.76397">
        <ele>467.7</ele>
        <time>2021-05-12T14:43:52Z</time>
      </trkpt>
      <trkpt lat="43.34923" lon="5.76396">
        <ele>466.7</ele>
        <time>2021-05-12T14:44:00Z</time>
      </trkpt>
      <trkpt lat="43.34933" lon="5.76394">
        <ele>465.4</ele>
        <time>2021-05-12T14:44:10Z</time>
      </trkpt>
      <trkpt lat="43.34944" lon="5.76392">
        <ele>464</ele>
        <time>2021-05-12T14:44:24Z</time>
      </trkpt>
      <trkpt lat="43.34953" lon="5.76384">
        <ele>463.4</ele>
        <time>2021-05-12T14:44:32Z</time>
      </trkpt>
      <trkpt lat="43.3496" lon="5.76375">
        <ele>462.9</ele>
        <time>2021-05-12T14:44:42Z</time>
      </trkpt>
      <trkpt lat="43.34968" lon="5.76365">
        <ele>462.1</ele>
        <time>2021-05-12T14:44:54Z</time>
      </trkpt>
      <trkpt lat="43.34977" lon="5.76355">
        <ele>461</ele>
        <time>2021-05-12T14:45:10Z</time>
      </trkpt>
      <trkpt lat="43.34985" lon="5.76352">
        <ele>459.1</ele>
        <time>2021-05-12T14:45:18Z</time>
      </trkpt>
      <trkpt lat="43.34995" lon="5.76348">
        <ele>457</ele>
        <time>2021-05-12T14:45:34Z</time>
      </trkpt>
      <trkpt lat="43.35003" lon="5.76337">
        <ele>455.7</ele>
        <time>2021-05-12T14:45:46Z</time>
      </trkpt>
      <trkpt lat="43.35004" lon="5.76324">
        <ele>455.8</ele>
        <time>2021-05-12T14:46:00Z</time>
      </trkpt>
      <trkpt lat="43.3501" lon="5.76313">
        <ele>455.4</ele>
        <time>2021-05-12T14:46:18Z</time>
      </trkpt>
      <trkpt lat="43.35015" lon="5.763">
        <ele>454.7</ele>
        <time>2021-05-12T14:46:30Z</time>
      </trkpt>
      <trkpt lat="43.35015" lon="5.76285">
        <ele>454.7</ele>
        <time>2021-05-12T14:46:42Z</time>
      </trkpt>
      <trkpt lat="43.35019" lon="5.76271">
        <ele>454.1</ele>
        <time>2021-05-12T14:46:56Z</time>
      </trkpt>
      <trkpt lat="43.35023" lon="5.76258">
        <ele>453.2</ele>
        <time>2021-05-12T14:47:10Z</time>
      </trkpt>
      <trkpt lat="43.35026" lon="5.76244">
        <ele>452.8</ele>
        <time>2021-05-12T14:47:24Z</time>
      </trkpt>
      <trkpt lat="43.35035" lon="5.76241">
        <ele>450.9</ele>
        <time>2021-05-12T14:47:40Z</time>
      </trkpt>
      <trkpt lat="43.35045" lon="5.76234">
        <ele>449.1</ele>
        <time>2021-05-12T14:48:12Z</time>
      </trkpt>
      <trkpt lat="43.35048" lon="5.76221">
        <ele>449</ele>
        <time>2021-05-12T14:48:28Z</time>
      </trkpt>
      <trkpt lat="43.3505" lon="5.76206">
        <ele>449.2</ele>
        <time>2021-05-12T14:48:46Z</time>
      </trkpt>
      <trkpt lat="43.35054" lon="5.76195">
        <ele>448.4</ele>
        <time>2021-05-12T14:49:02Z</time>
      </trkpt>
      <trkpt lat="43.3506" lon="5.76182">
        <ele>447.1</ele>
        <time>2021-05-12T14:49:18Z</time>
      </trkpt>
      <trkpt lat="43.35064" lon="5.76168">
        <ele>446.4</ele>
        <time>2021-05-12T14:49:36Z</time>
      </trkpt>
      <trkpt lat="43.35072" lon="5.76158">
        <ele>443.8</ele>
        <time>2021-05-12T14:49:48Z</time>
      </trkpt>
      <trkpt lat="43.35075" lon="5.76145">
        <ele>443.2</ele>
        <time>2021-05-12T14:50:04Z</time>
      </trkpt>
      <trkpt lat="43.35081" lon="5.76132">
        <ele>441.2</ele>
        <time>2021-05-12T14:50:14Z</time>
      </trkpt>
      <trkpt lat="43.35085" lon="5.7612">
        <ele>440.6</ele>
        <time>2021-05-12T14:50:26Z</time>
      </trkpt>
      <trkpt lat="43.35085" lon="5.76106">
        <ele>440.7</ele>
        <time>2021-05-12T14:50:38Z</time>
      </trkpt>
      <trkpt lat="43.35091" lon="5.76094">
        <ele>440.6</ele>
        <time>2021-05-12T14:50:50Z</time>
      </trkpt>
      <trkpt lat="43.3509" lon="5.76079">
        <ele>440.8</ele>
        <time>2021-05-12T14:51:00Z</time>
      </trkpt>
      <trkpt lat="43.35094" lon="5.76063">
        <ele>441.3</ele>
        <time>2021-05-12T14:51:20Z</time>
      </trkpt>
      <trkpt lat="43.351" lon="5.76052">
        <ele>441.2</ele>
        <time>2021-05-12T14:51:44Z</time>
      </trkpt>
      <trkpt lat="43.35111" lon="5.76049">
        <ele>440.5</ele>
        <time>2021-05-12T14:51:56Z</time>
      </trkpt>
      <trkpt lat="43.35121" lon="5.76047">
        <ele>439.7</ele>
        <time>2021-05-12T14:52:08Z</time>
      </trkpt>
      <trkpt lat="43.35131" lon="5.76046">
        <ele>439</ele>
        <time>2021-05-12T14:52:18Z</time>
      </trkpt>
      <trkpt lat="43.35141" lon="5.76041">
        <ele>438.1</ele>
        <time>2021-05-12T14:52:34Z</time>
      </trkpt>
      <trkpt lat="43.35145" lon="5.76028">
        <ele>437.7</ele>
        <time>2021-05-12T14:52:57Z</time>
      </trkpt>
      <trkpt lat="43.35163" lon="5.76022">
        <ele>435.9</ele>
        <time>2021-05-12T14:53:05Z</time>
      </trkpt>
      <trkpt lat="43.35174" lon="5.76017">
        <ele>435.5</ele>
        <time>2021-05-12T14:53:11Z</time>
      </trkpt>
      <trkpt lat="43.35181" lon="5.76008">
        <ele>435</ele>
        <time>2021-05-12T14:53:29Z</time>
      </trkpt>
      <trkpt lat="43.35183" lon="5.75995">
        <ele>434.8</ele>
        <time>2021-05-12T14:53:39Z</time>
      </trkpt>
      <trkpt lat="43.35189" lon="5.75984">
        <ele>435.2</ele>
        <time>2021-05-12T14:53:55Z</time>
      </trkpt>
      <trkpt lat="43.35197" lon="5.75976">
        <ele>435.3</ele>
        <time>2021-05-12T14:54:09Z</time>
      </trkpt>
      <trkpt lat="43.35205" lon="5.75966">
        <ele>435.4</ele>
        <time>2021-05-12T14:54:21Z</time>
      </trkpt>
      <trkpt lat="43.35214" lon="5.75958">
        <ele>435.2</ele>
        <time>2021-05-12T14:54:43Z</time>
      </trkpt>
      <trkpt lat="43.35216" lon="5.75944">
        <ele>435.6</ele>
        <time>2021-05-12T14:56:39Z</time>
      </trkpt>
      <trkpt lat="43.35227" lon="5.75943">
        <ele>435</ele>
        <time>2021-05-12T14:57:31Z</time>
      </trkpt>
      <trkpt lat="43.35237" lon="5.75939">
        <ele>434.5</ele>
        <time>2021-05-12T14:57:43Z</time>
      </trkpt>
      <trkpt lat="43.35248" lon="5.75934">
        <ele>433.9</ele>
        <time>2021-05-12T14:57:55Z</time>
      </trkpt>
      <trkpt lat="43.35258" lon="5.75931">
        <ele>433.5</ele>
        <time>2021-05-12T14:58:03Z</time>
      </trkpt>
      <trkpt lat="43.35269" lon="5.75931">
        <ele>433.2</ele>
        <time>2021-05-12T14:58:17Z</time>
      </trkpt>
      <trkpt lat="43.35282" lon="5.75931">
        <ele>432.7</ele>
        <time>2021-05-12T14:58:29Z</time>
      </trkpt>
      <trkpt lat="43.35292" lon="5.75928">
        <ele>432.2</ele>
        <time>2021-05-12T14:58:37Z</time>
      </trkpt>
      <trkpt lat="43.35303" lon="5.75927">
        <ele>431.7</ele>
        <time>2021-05-12T14:58:49Z</time>
      </trkpt>
      <trkpt lat="43.35314" lon="5.75928">
        <ele>431.3</ele>
        <time>2021-05-12T14:59:01Z</time>
      </trkpt>
      <trkpt lat="43.35325" lon="5.75927">
        <ele>430.7</ele>
        <time>2021-05-12T14:59:13Z</time>
      </trkpt>
      <trkpt lat="43.35334" lon="5.75924">
        <ele>430</ele>
        <time>2021-05-12T14:59:21Z</time>
      </trkpt>
      <trkpt lat="43.35345" lon="5.75918">
        <ele>428.9</ele>
        <time>2021-05-12T14:59:31Z</time>
      </trkpt>
      <trkpt lat="43.35354" lon="5.7591">
        <ele>429.3</ele>
        <time>2021-05-12T14:59:41Z</time>
      </trkpt>
      <trkpt lat="43.35362" lon="5.75901">
        <ele>430</ele>
        <time>2021-05-12T14:59:49Z</time>
      </trkpt>
      <trkpt lat="43.3537" lon="5.7589">
        <ele>430.4</ele>
        <time>2021-05-12T14:59:59Z</time>
      </trkpt>
      <trkpt lat="43.35378" lon="5.75882">
        <ele>430.4</ele>
        <time>2021-05-12T15:00:07Z</time>
      </trkpt>
      <trkpt lat="43.35387" lon="5.75872">
        <ele>430</ele>
        <time>2021-05-12T15:00:17Z</time>
      </trkpt>
      <trkpt lat="43.35397" lon="5.75861">
        <ele>429.2</ele>
        <time>2021-05-12T15:00:29Z</time>
      </trkpt>
      <trkpt lat="43.35404" lon="5.7585">
        <ele>428.4</ele>
        <time>2021-05-12T15:00:39Z</time>
      </trkpt>
      <trkpt lat="43.35413" lon="5.7584">
        <ele>426.8</ele>
        <time>2021-05-12T15:00:49Z</time>
      </trkpt>
      <trkpt lat="43.35424" lon="5.75829">
        <ele>426.2</ele>
        <time>2021-05-12T15:01:01Z</time>
      </trkpt>
      <trkpt lat="43.35434" lon="5.75822">
        <ele>426.5</ele>
        <time>2021-05-12T15:01:11Z</time>
      </trkpt>
      <trkpt lat="43.3544" lon="5.75809">
        <ele>427</ele>
        <time>2021-05-12T15:01:21Z</time>
      </trkpt>
      <trkpt lat="43.35445" lon="5.75797">
        <ele>427.2</ele>
        <time>2021-05-12T15:01:29Z</time>
      </trkpt>
      <trkpt lat="43.35447" lon="5.75785">
        <ele>427.5</ele>
        <time>2021-05-12T15:01:37Z</time>
      </trkpt>
      <trkpt lat="43.35448" lon="5.75769">
        <ele>428</ele>
        <time>2021-05-12T15:01:47Z</time>
      </trkpt>
      <trkpt lat="43.35452" lon="5.75756">
        <ele>427.8</ele>
        <time>2021-05-12T15:01:55Z</time>
      </trkpt>
      <trkpt lat="43.35457" lon="5.75744">
        <ele>427.5</ele>
        <time>2021-05-12T15:02:03Z</time>
      </trkpt>
      <trkpt lat="43.35458" lon="5.75728">
        <ele>428.3</ele>
        <time>2021-05-12T15:02:15Z</time>
      </trkpt>
      <trkpt lat="43.35461" lon="5.75712">
        <ele>428.6</ele>
        <time>2021-05-12T15:02:27Z</time>
      </trkpt>
      <trkpt lat="43.35466" lon="5.75699">
        <ele>428.2</ele>
        <time>2021-05-12T15:02:37Z</time>
      </trkpt>
      <trkpt lat="43.35473" lon="5.75688">
        <ele>427.2</ele>
        <time>2021-05-12T15:02:47Z</time>
      </trkpt>
      <trkpt lat="43.35481" lon="5.75676">
        <ele>426</ele>
        <time>2021-05-12T15:02:57Z</time>
      </trkpt>
      <trkpt lat="43.3549" lon="5.75667">
        <ele>424.3</ele>
        <time>2021-05-12T15:03:07Z</time>
      </trkpt>
      <trkpt lat="43.35501" lon="5.75657">
        <ele>423.9</ele>
        <time>2021-05-12T15:03:19Z</time>
      </trkpt>
      <trkpt lat="43.35512" lon="5.75652">
        <ele>424</ele>
        <time>2021-05-12T15:03:31Z</time>
      </trkpt>
      <trkpt lat="43.35523" lon="5.7565">
        <ele>423.6</ele>
        <time>2021-05-12T15:03:39Z</time>
      </trkpt>
      <trkpt lat="43.35533" lon="5.75651">
        <ele>422.7</ele>
        <time>2021-05-12T15:03:49Z</time>
      </trkpt>
      <trkpt lat="43.35544" lon="5.75649">
        <ele>422.3</ele>
        <time>2021-05-12T15:03:59Z</time>
      </trkpt>
      <trkpt lat="43.35556" lon="5.75645">
        <ele>421.8</ele>
        <time>2021-05-12T15:04:11Z</time>
      </trkpt>
      <trkpt lat="43.35565" lon="5.7564">
        <ele>421.8</ele>
        <time>2021-05-12T15:04:19Z</time>
      </trkpt>
      <trkpt lat="43.35573" lon="5.75632">
        <ele>422.1</ele>
        <time>2021-05-12T15:04:27Z</time>
      </trkpt>
      <trkpt lat="43.35581" lon="5.75623">
        <ele>422.5</ele>
        <time>2021-05-12T15:04:35Z</time>
      </trkpt>
      <trkpt lat="43.35588" lon="5.75613">
        <ele>422.9</ele>
        <time>2021-05-12T15:04:43Z</time>
      </trkpt>
      <trkpt lat="43.35598" lon="5.75601">
        <ele>423.1</ele>
        <time>2021-05-12T15:04:55Z</time>
      </trkpt>
      <trkpt lat="43.35603" lon="5.75591">
        <ele>423.2</ele>
        <time>2021-05-12T15:05:03Z</time>
      </trkpt>
      <trkpt lat="43.35611" lon="5.75579">
        <ele>423.1</ele>
        <time>2021-05-12T15:05:13Z</time>
      </trkpt>
      <trkpt lat="43.35618" lon="5.75568">
        <ele>422.8</ele>
        <time>2021-05-12T15:05:23Z</time>
      </trkpt>
      <trkpt lat="43.35624" lon="5.75557">
        <ele>422.6</ele>
        <time>2021-05-12T15:05:31Z</time>
      </trkpt>
      <trkpt lat="43.3563" lon="5.75546">
        <ele>422.2</ele>
        <time>2021-05-12T15:05:39Z</time>
      </trkpt>
      <trkpt lat="43.35637" lon="5.75534">
        <ele>421.6</ele>
        <time>2021-05-12T15:05:49Z</time>
      </trkpt>
      <trkpt lat="43.35644" lon="5.75525">
        <ele>420.7</ele>
        <time>2021-05-12T15:05:57Z</time>
      </trkpt>
      <trkpt lat="43.35651" lon="5.75513">
        <ele>419.9</ele>
        <time>2021-05-12T15:06:05Z</time>
      </trkpt>
      <trkpt lat="43.35659" lon="5.75501">
        <ele>418.8</ele>
        <time>2021-05-12T15:06:15Z</time>
      </trkpt>
      <trkpt lat="43.35667" lon="5.7549">
        <ele>418.1</ele>
        <time>2021-05-12T15:06:25Z</time>
      </trkpt>
      <trkpt lat="43.35674" lon="5.75477">
        <ele>418.8</ele>
        <time>2021-05-12T15:06:35Z</time>
      </trkpt>
      <trkpt lat="43.35679" lon="5.75467">
        <ele>419.2</ele>
        <time>2021-05-12T15:06:43Z</time>
      </trkpt>
      <trkpt lat="43.35684" lon="5.7545">
        <ele>420</ele>
        <time>2021-05-12T15:06:55Z</time>
      </trkpt>
      <trkpt lat="43.3569" lon="5.75436">
        <ele>420.1</ele>
        <time>2021-05-12T15:07:05Z</time>
      </trkpt>
      <trkpt lat="43.35696" lon="5.75423">
        <ele>420</ele>
        <time>2021-05-12T15:07:15Z</time>
      </trkpt>
      <trkpt lat="43.35704" lon="5.75411">
        <ele>419.1</ele>
        <time>2021-05-12T15:07:27Z</time>
      </trkpt>
      <trkpt lat="43.35712" lon="5.75401">
        <ele>418.5</ele>
        <time>2021-05-12T15:07:37Z</time>
      </trkpt>
      <trkpt lat="43.35716" lon="5.75386">
        <ele>418.7</ele>
        <time>2021-05-12T15:07:47Z</time>
      </trkpt>
      <trkpt lat="43.35722" lon="5.75374">
        <ele>418.3</ele>
        <time>2021-05-12T15:07:55Z</time>
      </trkpt>
      <trkpt lat="43.35726" lon="5.75363">
        <ele>418.1</ele>
        <time>2021-05-12T15:08:03Z</time>
      </trkpt>
      <trkpt lat="43.35733" lon="5.75349">
        <ele>417.7</ele>
        <time>2021-05-12T15:08:13Z</time>
      </trkpt>
      <trkpt lat="43.35738" lon="5.75335">
        <ele>417.5</ele>
        <time>2021-05-12T15:08:23Z</time>
      </trkpt>
      <trkpt lat="43.35743" lon="5.75321">
        <ele>417.2</ele>
        <time>2021-05-12T15:08:33Z</time>
      </trkpt>
      <trkpt lat="43.35751" lon="5.75311">
        <ele>416.2</ele>
        <time>2021-05-12T15:08:41Z</time>
      </trkpt>
      <trkpt lat="43.35761" lon="5.75303">
        <ele>415.9</ele>
        <time>2021-05-12T15:08:51Z</time>
      </trkpt>
      <trkpt lat="43.35765" lon="5.75287">
        <ele>416.4</ele>
        <time>2021-05-12T15:09:03Z</time>
      </trkpt>
      <trkpt lat="43.3577" lon="5.75276">
        <ele>416.5</ele>
        <time>2021-05-12T15:09:11Z</time>
      </trkpt>
      <trkpt lat="43.35776" lon="5.75264">
        <ele>416.5</ele>
        <time>2021-05-12T15:09:19Z</time>
      </trkpt>
      <trkpt lat="43.3578" lon="5.75253">
        <ele>416.6</ele>
        <time>2021-05-12T15:09:27Z</time>
      </trkpt>
      <trkpt lat="43.35787" lon="5.75241">
        <ele>415.8</ele>
        <time>2021-05-12T15:09:37Z</time>
      </trkpt>
      <trkpt lat="43.35793" lon="5.7523">
        <ele>415</ele>
        <time>2021-05-12T15:09:45Z</time>
      </trkpt>
      <trkpt lat="43.35799" lon="5.75219">
        <ele>414.3</ele>
        <time>2021-05-12T15:09:55Z</time>
      </trkpt>
      <trkpt lat="43.35806" lon="5.75209">
        <ele>413.6</ele>
        <time>2021-05-12T15:10:05Z</time>
      </trkpt>
      <trkpt lat="43.35814" lon="5.752">
        <ele>413</ele>
        <time>2021-05-12T15:10:15Z</time>
      </trkpt>
      <trkpt lat="43.35821" lon="5.75187">
        <ele>412.6</ele>
        <time>2021-05-12T15:10:23Z</time>
      </trkpt>
      <trkpt lat="43.35824" lon="5.75174">
        <ele>412.4</ele>
        <time>2021-05-12T15:10:31Z</time>
      </trkpt>
      <trkpt lat="43.35826" lon="5.75161">
        <ele>412.8</ele>
        <time>2021-05-12T15:10:39Z</time>
      </trkpt>
      <trkpt lat="43.35828" lon="5.75147">
        <ele>413.6</ele>
        <time>2021-05-12T15:10:51Z</time>
      </trkpt>
      <trkpt lat="43.35825" lon="5.75135">
        <ele>414.6</ele>
        <time>2021-05-12T15:10:59Z</time>
      </trkpt>
      <trkpt lat="43.3583" lon="5.75123">
        <ele>415.3</ele>
        <time>2021-05-12T15:11:17Z</time>
      </trkpt>
      <trkpt lat="43.35829" lon="5.75111">
        <ele>416.1</ele>
        <time>2021-05-12T15:11:43Z</time>
      </trkpt>
      <trkpt lat="43.35839" lon="5.75114">
        <ele>415.8</ele>
        <time>2021-05-12T15:13:53Z</time>
      </trkpt>
      <trkpt lat="43.3585" lon="5.75115">
        <ele>415.6</ele>
        <time>2021-05-12T15:14:07Z</time>
      </trkpt>
      <trkpt lat="43.3586" lon="5.75117">
        <ele>415.3</ele>
        <time>2021-05-12T15:14:15Z</time>
      </trkpt>
      <trkpt lat="43.3587" lon="5.75121">
        <ele>415</ele>
        <time>2021-05-12T15:14:25Z</time>
      </trkpt>
      <trkpt lat="43.3588" lon="5.75129">
        <ele>414.1</ele>
        <time>2021-05-12T15:14:35Z</time>
      </trkpt>
      <trkpt lat="43.35889" lon="5.75137">
        <ele>413.1</ele>
        <time>2021-05-12T15:14:45Z</time>
      </trkpt>
      <trkpt lat="43.35897" lon="5.75144">
        <ele>412.2</ele>
        <time>2021-05-12T15:14:53Z</time>
      </trkpt>
      <trkpt lat="43.35906" lon="5.75151">
        <ele>411.1</ele>
        <time>2021-05-12T15:15:03Z</time>
      </trkpt>
      <trkpt lat="43.35917" lon="5.75158">
        <ele>410</ele>
        <time>2021-05-12T15:15:15Z</time>
      </trkpt>
      <trkpt lat="43.35925" lon="5.75168">
        <ele>408.9</ele>
        <time>2021-05-12T15:15:23Z</time>
      </trkpt>
      <trkpt lat="43.35932" lon="5.75177">
        <ele>408.5</ele>
        <time>2021-05-12T15:15:31Z</time>
      </trkpt>
      <trkpt lat="43.35942" lon="5.75182">
        <ele>408.6</ele>
        <time>2021-05-12T15:15:41Z</time>
      </trkpt>
      <trkpt lat="43.35954" lon="5.75184">
        <ele>408.9</ele>
        <time>2021-05-12T15:15:51Z</time>
      </trkpt>
      <trkpt lat="43.35966" lon="5.75181">
        <ele>409.2</ele>
        <time>2021-05-12T15:16:01Z</time>
      </trkpt>
      <trkpt lat="43.35976" lon="5.75177">
        <ele>409.3</ele>
        <time>2021-05-12T15:16:09Z</time>
      </trkpt>
      <trkpt lat="43.35985" lon="5.75172">
        <ele>409.2</ele>
        <time>2021-05-12T15:16:17Z</time>
      </trkpt>
      <trkpt lat="43.35995" lon="5.75167">
        <ele>409</ele>
        <time>2021-05-12T15:16:27Z</time>
      </trkpt>
      <trkpt lat="43.36006" lon="5.75164">
        <ele>410.3</ele>
        <time>2021-05-12T15:16:39Z</time>
      </trkpt>
      <trkpt lat="43.36018" lon="5.75166">
        <ele>411.2</ele>
        <time>2021-05-12T15:16:51Z</time>
      </trkpt>
      <trkpt lat="43.36029" lon="5.75165">
        <ele>412.4</ele>
        <time>2021-05-12T15:18:19Z</time>
      </trkpt>
      <trkpt lat="43.36037" lon="5.75167">
        <ele>413</ele>
        <time>2021-05-12T15:19:43Z</time>
      </trkpt>
      <trkpt lat="43.36047" lon="5.75157">
        <ele>415.5</ele>
        <time>2021-05-12T15:20:59Z</time>
      </trkpt>
      <trkpt lat="43.36057" lon="5.7515">
        <ele>417.1</ele>
        <time>2021-05-12T15:21:09Z</time>
      </trkpt>
      <trkpt lat="43.36066" lon="5.75144">
        <ele>418.1</ele>
        <time>2021-05-12T15:21:21Z</time>
      </trkpt>
      <trkpt lat="43.36077" lon="5.75141">
        <ele>418.7</ele>
        <time>2021-05-12T15:21:33Z</time>
      </trkpt>
      <trkpt lat="43.36085" lon="5.75136">
        <ele>419.2</ele>
        <time>2021-05-12T15:21:41Z</time>
      </trkpt>
      <trkpt lat="43.36097" lon="5.75132">
        <ele>420</ele>
        <time>2021-05-12T15:21:51Z</time>
      </trkpt>
      <trkpt lat="43.36109" lon="5.75126">
        <ele>420.5</ele>
        <time>2021-05-12T15:22:01Z</time>
      </trkpt>
      <trkpt lat="43.36116" lon="5.75119">
        <ele>420.3</ele>
        <time>2021-05-12T15:22:09Z</time>
      </trkpt>
      <trkpt lat="43.36124" lon="5.7511">
        <ele>419.7</ele>
        <time>2021-05-12T15:22:19Z</time>
      </trkpt>
      <trkpt lat="43.36133" lon="5.75101">
        <ele>418.7</ele>
        <time>2021-05-12T15:22:31Z</time>
      </trkpt>
      <trkpt lat="43.36144" lon="5.751">
        <ele>418.3</ele>
        <time>2021-05-12T15:22:41Z</time>
      </trkpt>
      <trkpt lat="43.36155" lon="5.75103">
        <ele>418.4</ele>
        <time>2021-05-12T15:22:49Z</time>
      </trkpt>
      <trkpt lat="43.36166" lon="5.75106">
        <ele>418.7</ele>
        <time>2021-05-12T15:22:59Z</time>
      </trkpt>
      <trkpt lat="43.36176" lon="5.75113">
        <ele>419.3</ele>
        <time>2021-05-12T15:23:09Z</time>
      </trkpt>
      <trkpt lat="43.36187" lon="5.75118">
        <ele>419.8</ele>
        <time>2021-05-12T15:23:21Z</time>
      </trkpt>
      <trkpt lat="43.36198" lon="5.75117">
        <ele>418.6</ele>
        <time>2021-05-12T15:23:37Z</time>
      </trkpt>
      <trkpt lat="43.36208" lon="5.75116">
        <ele>417.6</ele>
        <time>2021-05-12T15:23:47Z</time>
      </trkpt>
      <trkpt lat="43.36217" lon="5.75111">
        <ele>415.4</ele>
        <time>2021-05-12T15:23:57Z</time>
      </trkpt>
      <trkpt lat="43.36225" lon="5.75104">
        <ele>412.3</ele>
        <time>2021-05-12T15:24:13Z</time>
      </trkpt>
      <trkpt lat="43.36235" lon="5.75095">
        <ele>408.5</ele>
        <time>2021-05-12T15:24:25Z</time>
      </trkpt>
      <trkpt lat="43.36245" lon="5.75085">
        <ele>403.5</ele>
        <time>2021-05-12T15:24:37Z</time>
      </trkpt>
      <trkpt lat="43.36255" lon="5.75077">
        <ele>403.3</ele>
        <time>2021-05-12T15:24:49Z</time>
      </trkpt>
      <trkpt lat="43.36265" lon="5.75066">
        <ele>404.9</ele>
        <time>2021-05-12T15:25:01Z</time>
      </trkpt>
      <trkpt lat="43.36275" lon="5.75055">
        <ele>405.6</ele>
        <time>2021-05-12T15:25:13Z</time>
      </trkpt>
      <trkpt lat="43.36285" lon="5.75049">
        <ele>405.5</ele>
        <time>2021-05-12T15:25:25Z</time>
      </trkpt>
      <trkpt lat="43.36295" lon="5.75041">
        <ele>405</ele>
        <time>2021-05-12T15:25:37Z</time>
      </trkpt>
      <trkpt lat="43.36305" lon="5.75031">
        <ele>403.7</ele>
        <time>2021-05-12T15:25:49Z</time>
      </trkpt>
      <trkpt lat="43.36315" lon="5.75023">
        <ele>402.1</ele>
        <time>2021-05-12T15:25:59Z</time>
      </trkpt>
      <trkpt lat="43.36325" lon="5.75019">
        <ele>400.1</ele>
        <time>2021-05-12T15:26:09Z</time>
      </trkpt>
      <trkpt lat="43.36337" lon="5.75014">
        <ele>397.9</ele>
        <time>2021-05-12T15:26:21Z</time>
      </trkpt>
      <trkpt lat="43.36349" lon="5.75013">
        <ele>397.1</ele>
        <time>2021-05-12T15:26:31Z</time>
      </trkpt>
      <trkpt lat="43.36358" lon="5.75009">
        <ele>396</ele>
        <time>2021-05-12T15:26:39Z</time>
      </trkpt>
      <trkpt lat="43.36368" lon="5.75008">
        <ele>395.1</ele>
        <time>2021-05-12T15:26:51Z</time>
      </trkpt>
      <trkpt lat="43.36377" lon="5.75006">
        <ele>394.3</ele>
        <time>2021-05-12T15:28:23Z</time>
      </trkpt>
      <trkpt lat="43.3638" lon="5.75017">
        <ele>395.9</ele>
        <time>2021-05-12T15:29:29Z</time>
      </trkpt>
      <trkpt lat="43.3639" lon="5.75019">
        <ele>395.7</ele>
        <time>2021-05-12T15:30:13Z</time>
      </trkpt>
      <trkpt lat="43.36398" lon="5.75027">
        <ele>396.6</ele>
        <time>2021-05-12T15:30:59Z</time>
      </trkpt>
      <trkpt lat="43.36407" lon="5.75036">
        <ele>397.6</ele>
        <time>2021-05-12T15:31:15Z</time>
      </trkpt>
      <trkpt lat="43.36417" lon="5.75045">
        <ele>398.5</ele>
        <time>2021-05-12T15:31:27Z</time>
      </trkpt>
      <trkpt lat="43.36426" lon="5.75053">
        <ele>399.3</ele>
        <time>2021-05-12T15:31:39Z</time>
      </trkpt>
      <trkpt lat="43.36436" lon="5.75057">
        <ele>399.4</ele>
        <time>2021-05-12T15:31:55Z</time>
      </trkpt>
      <trkpt lat="43.36447" lon="5.75056">
        <ele>398.5</ele>
        <time>2021-05-12T15:32:11Z</time>
      </trkpt>
      <trkpt lat="43.36457" lon="5.75053">
        <ele>397.6</ele>
        <time>2021-05-12T15:32:27Z</time>
      </trkpt>
      <trkpt lat="43.36465" lon="5.75048">
        <ele>396.6</ele>
        <time>2021-05-12T15:32:43Z</time>
      </trkpt>
      <trkpt lat="43.36475" lon="5.75045">
        <ele>395.9</ele>
        <time>2021-05-12T15:32:57Z</time>
      </trkpt>
      <trkpt lat="43.36486" lon="5.75046">
        <ele>395.4</ele>
        <time>2021-05-12T15:33:13Z</time>
      </trkpt>
      <trkpt lat="43.36495" lon="5.75043">
        <ele>394.8</ele>
        <time>2021-05-12T15:33:31Z</time>
      </trkpt>
      <trkpt lat="43.36505" lon="5.75037">
        <ele>394</ele>
        <time>2021-05-12T15:33:49Z</time>
      </trkpt>
      <trkpt lat="43.36515" lon="5.75036">
        <ele>393.5</ele>
        <time>2021-05-12T15:34:01Z</time>
      </trkpt>
      <trkpt lat="43.36524" lon="5.7504">
        <ele>393.4</ele>
        <time>2021-05-12T15:34:09Z</time>
      </trkpt>
      <trkpt lat="43.36535" lon="5.75037">
        <ele>392.5</ele>
        <time>2021-05-12T15:34:21Z</time>
      </trkpt>
      <trkpt lat="43.36544" lon="5.75029">
        <ele>391.2</ele>
        <time>2021-05-12T15:34:33Z</time>
      </trkpt>
      <trkpt lat="43.36554" lon="5.75027">
        <ele>390.3</ele>
        <time>2021-05-12T15:34:41Z</time>
      </trkpt>
      <trkpt lat="43.36565" lon="5.75023">
        <ele>389</ele>
        <time>2021-05-12T15:34:55Z</time>
      </trkpt>
      <trkpt lat="43.36575" lon="5.75018">
        <ele>387.6</ele>
        <time>2021-05-12T15:35:07Z</time>
      </trkpt>
      <trkpt lat="43.36586" lon="5.75015">
        <ele>386.3</ele>
        <time>2021-05-12T15:35:19Z</time>
      </trkpt>
      <trkpt lat="43.36597" lon="5.7501">
        <ele>385.1</ele>
        <time>2021-05-12T15:35:31Z</time>
      </trkpt>
      <trkpt lat="43.36607" lon="5.75007">
        <ele>383.9</ele>
        <time>2021-05-12T15:35:41Z</time>
      </trkpt>
      <trkpt lat="43.36618" lon="5.75007">
        <ele>383.4</ele>
        <time>2021-05-12T15:35:53Z</time>
      </trkpt>
      <trkpt lat="43.36629" lon="5.75006">
        <ele>382.5</ele>
        <time>2021-05-12T15:36:07Z</time>
      </trkpt>
      <trkpt lat="43.3664" lon="5.75003">
        <ele>381.4</ele>
        <time>2021-05-12T15:36:19Z</time>
      </trkpt>
      <trkpt lat="43.3665" lon="5.75002">
        <ele>380.4</ele>
        <time>2021-05-12T15:36:31Z</time>
      </trkpt>
      <trkpt lat="43.3666" lon="5.75001">
        <ele>379.7</ele>
        <time>2021-05-12T15:36:41Z</time>
      </trkpt>
      <trkpt lat="43.3667" lon="5.75">
        <ele>379</ele>
        <time>2021-05-12T15:36:51Z</time>
      </trkpt>
      <trkpt lat="43.36682" lon="5.74999">
        <ele>378.9</ele>
        <time>2021-05-12T15:37:03Z</time>
      </trkpt>
      <trkpt lat="43.36693" lon="5.74998">
        <ele>378.9</ele>
        <time>2021-05-12T15:37:13Z</time>
      </trkpt>
      <trkpt lat="43.36703" lon="5.74997">
        <ele>378.8</ele>
        <time>2021-05-12T15:37:23Z</time>
      </trkpt>
      <trkpt lat="43.36715" lon="5.74995">
        <ele>378.8</ele>
        <time>2021-05-12T15:37:33Z</time>
      </trkpt>
      <trkpt lat="43.36727" lon="5.74988">
        <ele>379.1</ele>
        <time>2021-05-12T15:37:45Z</time>
      </trkpt>
      <trkpt lat="43.36739" lon="5.74981">
        <ele>379.4</ele>
        <time>2021-05-12T15:37:57Z</time>
      </trkpt>
      <trkpt lat="43.3675" lon="5.74975">
        <ele>379.5</ele>
        <time>2021-05-12T15:38:09Z</time>
      </trkpt>
      <trkpt lat="43.36762" lon="5.74969">
        <ele>380.4</ele>
        <time>2021-05-12T15:38:19Z</time>
      </trkpt>
      <trkpt lat="43.36772" lon="5.74961">
        <ele>381</ele>
        <time>2021-05-12T15:38:31Z</time>
      </trkpt>
      <trkpt lat="43.36783" lon="5.7496">
        <ele>381.3</ele>
        <time>2021-05-12T15:38:41Z</time>
      </trkpt>
      <trkpt lat="43.36793" lon="5.7496">
        <ele>381.6</ele>
        <time>2021-05-12T15:38:49Z</time>
      </trkpt>
      <trkpt lat="43.36804" lon="5.74961">
        <ele>381.9</ele>
        <time>2021-05-12T15:39:01Z</time>
      </trkpt>
      <trkpt lat="43.36817" lon="5.74959">
        <ele>382.2</ele>
        <time>2021-05-12T15:39:11Z</time>
      </trkpt>
      <trkpt lat="43.36829" lon="5.74955">
        <ele>382.2</ele>
        <time>2021-05-12T15:39:21Z</time>
      </trkpt>
      <trkpt lat="43.3684" lon="5.74954">
        <ele>382.9</ele>
        <time>2021-05-12T15:39:31Z</time>
      </trkpt>
      <trkpt lat="43.36848" lon="5.74945">
        <ele>383.1</ele>
        <time>2021-05-12T15:39:43Z</time>
      </trkpt>
      <trkpt lat="43.36857" lon="5.74933">
        <ele>382.8</ele>
        <time>2021-05-12T15:39:55Z</time>
      </trkpt>
      <trkpt lat="43.36864" lon="5.74923">
        <ele>382.2</ele>
        <time>2021-05-12T15:40:45Z</time>
      </trkpt>
      <trkpt lat="43.36865" lon="5.74923">
        <ele>382.4</ele>
        <time>2021-05-12T15:43:35Z</time>
      </trkpt>
      <trkpt lat="43.36873" lon="5.74914">
        <ele>382.5</ele>
        <time>2021-05-12T15:43:47Z</time>
      </trkpt>
      <trkpt lat="43.36877" lon="5.74901">
        <ele>383.2</ele>
        <time>2021-05-12T15:43:57Z</time>
      </trkpt>
      <trkpt lat="43.36881" lon="5.74886">
        <ele>383.5</ele>
        <time>2021-05-12T15:44:07Z</time>
      </trkpt>
      <trkpt lat="43.36886" lon="5.7487">
        <ele>383.1</ele>
        <time>2021-05-12T15:44:19Z</time>
      </trkpt>
      <trkpt lat="43.36888" lon="5.74856">
        <ele>382.6</ele>
        <time>2021-05-12T15:44:29Z</time>
      </trkpt>
      <trkpt lat="43.36892" lon="5.74843">
        <ele>381.3</ele>
        <time>2021-05-12T15:44:41Z</time>
      </trkpt>
      <trkpt lat="43.36901" lon="5.74831">
        <ele>379.3</ele>
        <time>2021-05-12T15:44:53Z</time>
      </trkpt>
      <trkpt lat="43.36911" lon="5.74827">
        <ele>377.4</ele>
        <time>2021-05-12T15:45:03Z</time>
      </trkpt>
      <trkpt lat="43.3692" lon="5.74827">
        <ele>375.6</ele>
        <time>2021-05-12T15:45:11Z</time>
      </trkpt>
      <trkpt lat="43.36932" lon="5.74831">
        <ele>374</ele>
        <time>2021-05-12T15:45:21Z</time>
      </trkpt>
      <trkpt lat="43.36942" lon="5.74837">
        <ele>373.9</ele>
        <time>2021-05-12T15:45:33Z</time>
      </trkpt>
      <trkpt lat="43.36953" lon="5.74838">
        <ele>373.6</ele>
        <time>2021-05-12T15:45:45Z</time>
      </trkpt>
      <trkpt lat="43.36963" lon="5.74843">
        <ele>374.5</ele>
        <time>2021-05-12T15:45:57Z</time>
      </trkpt>
      <trkpt lat="43.36973" lon="5.74847">
        <ele>375.3</ele>
        <time>2021-05-12T15:46:09Z</time>
      </trkpt>
      <trkpt lat="43.36985" lon="5.74847">
        <ele>375</ele>
        <time>2021-05-12T15:46:21Z</time>
      </trkpt>
      <trkpt lat="43.36995" lon="5.74848">
        <ele>375.3</ele>
        <time>2021-05-12T15:46:31Z</time>
      </trkpt>
      <trkpt lat="43.37006" lon="5.74849">
        <ele>374.7</ele>
        <time>2021-05-12T15:46:41Z</time>
      </trkpt>
      <trkpt lat="43.37016" lon="5.74848">
        <ele>373.3</ele>
        <time>2021-05-12T15:46:49Z</time>
      </trkpt>
      <trkpt lat="43.37025" lon="5.74848">
        <ele>372</ele>
        <time>2021-05-12T15:46:57Z</time>
      </trkpt>
      <trkpt lat="43.37038" lon="5.74848">
        <ele>370.5</ele>
        <time>2021-05-12T15:47:07Z</time>
      </trkpt>
      <trkpt lat="43.37049" lon="5.74854">
        <ele>370.5</ele>
        <time>2021-05-12T15:47:19Z</time>
      </trkpt>
      <trkpt lat="43.3706" lon="5.74856">
        <ele>369.8</ele>
        <time>2021-05-12T15:47:29Z</time>
      </trkpt>
      <trkpt lat="43.3707" lon="5.74858">
        <ele>369.1</ele>
        <time>2021-05-12T15:47:37Z</time>
      </trkpt>
      <trkpt lat="43.37081" lon="5.74861">
        <ele>368.1</ele>
        <time>2021-05-12T15:47:49Z</time>
      </trkpt>
      <trkpt lat="43.37094" lon="5.74858">
        <ele>368.7</ele>
        <time>2021-05-12T15:48:01Z</time>
      </trkpt>
      <trkpt lat="43.37104" lon="5.74855">
        <ele>369</ele>
        <time>2021-05-12T15:48:09Z</time>
      </trkpt>
      <trkpt lat="43.37112" lon="5.74849">
        <ele>368.7</ele>
        <time>2021-05-12T15:48:17Z</time>
      </trkpt>
      <trkpt lat="43.37123" lon="5.74841">
        <ele>368.1</ele>
        <time>2021-05-12T15:48:29Z</time>
      </trkpt>
      <trkpt lat="43.37131" lon="5.7483">
        <ele>367.4</ele>
        <time>2021-05-12T15:48:41Z</time>
      </trkpt>
      <trkpt lat="43.37136" lon="5.74817">
        <ele>368.2</ele>
        <time>2021-05-12T15:48:49Z</time>
      </trkpt>
      <trkpt lat="43.37141" lon="5.74803">
        <ele>368.6</ele>
        <time>2021-05-12T15:48:57Z</time>
      </trkpt>
      <trkpt lat="43.37145" lon="5.74791">
        <ele>368.7</ele>
        <time>2021-05-12T15:49:05Z</time>
      </trkpt>
      <trkpt lat="43.37149" lon="5.7478">
        <ele>368.5</ele>
        <time>2021-05-12T15:49:13Z</time>
      </trkpt>
      <trkpt lat="43.37153" lon="5.74766">
        <ele>368</ele>
        <time>2021-05-12T15:49:21Z</time>
      </trkpt>
      <trkpt lat="43.37157" lon="5.74753">
        <ele>367.2</ele>
        <time>2021-05-12T15:49:31Z</time>
      </trkpt>
      <trkpt lat="43.37162" lon="5.74738">
        <ele>366</ele>
        <time>2021-05-12T15:49:43Z</time>
      </trkpt>
      <trkpt lat="43.37164" lon="5.74723">
        <ele>365</ele>
        <time>2021-05-12T15:49:53Z</time>
      </trkpt>
      <trkpt lat="43.37166" lon="5.7471">
        <ele>363.8</ele>
        <time>2021-05-12T15:50:01Z</time>
      </trkpt>
      <trkpt lat="43.37168" lon="5.74697">
        <ele>363.1</ele>
        <time>2021-05-12T15:50:09Z</time>
      </trkpt>
      <trkpt lat="43.37168" lon="5.74684">
        <ele>362.4</ele>
        <time>2021-05-12T15:50:17Z</time>
      </trkpt>
      <trkpt lat="43.37171" lon="5.74672">
        <ele>362.3</ele>
        <time>2021-05-12T15:50:25Z</time>
      </trkpt>
      <trkpt lat="43.3717" lon="5.74657">
        <ele>361.8</ele>
        <time>2021-05-12T15:50:35Z</time>
      </trkpt>
      <trkpt lat="43.37171" lon="5.74639">
        <ele>361.7</ele>
        <time>2021-05-12T15:50:47Z</time>
      </trkpt>
      <trkpt lat="43.37171" lon="5.74623">
        <ele>361.6</ele>
        <time>2021-05-12T15:50:57Z</time>
      </trkpt>
      <trkpt lat="43.37172" lon="5.74608">
        <ele>361.5</ele>
        <time>2021-05-12T15:51:07Z</time>
      </trkpt>
      <trkpt lat="43.37172" lon="5.74595">
        <ele>361.4</ele>
        <time>2021-05-12T15:51:15Z</time>
      </trkpt>
      <trkpt lat="43.37174" lon="5.7458">
        <ele>361.8</ele>
        <time>2021-05-12T15:51:25Z</time>
      </trkpt>
      <trkpt lat="43.37181" lon="5.74565">
        <ele>363.5</ele>
        <time>2021-05-12T15:51:37Z</time>
      </trkpt>
      <trkpt lat="43.37189" lon="5.74551">
        <ele>364.4</ele>
        <time>2021-05-12T15:51:49Z</time>
      </trkpt>
      <trkpt lat="43.37196" lon="5.74537">
        <ele>364.6</ele>
        <time>2021-05-12T15:52:01Z</time>
      </trkpt>
      <trkpt lat="43.37206" lon="5.74531">
        <ele>363.6</ele>
        <time>2021-05-12T15:52:11Z</time>
      </trkpt>
      <trkpt lat="43.37215" lon="5.74524">
        <ele>362.4</ele>
        <time>2021-05-12T15:52:21Z</time>
      </trkpt>
      <trkpt lat="43.37223" lon="5.74514">
        <ele>360.7</ele>
        <time>2021-05-12T15:52:33Z</time>
      </trkpt>
      <trkpt lat="43.37232" lon="5.74511">
        <ele>358.9</ele>
        <time>2021-05-12T15:52:43Z</time>
      </trkpt>
      <trkpt lat="43.3724" lon="5.74502">
        <ele>356.5</ele>
        <time>2021-05-12T15:53:17Z</time>
      </trkpt>
      <trkpt lat="43.37249" lon="5.74498">
        <ele>354.4</ele>
        <time>2021-05-12T15:55:25Z</time>
      </trkpt>
      <trkpt lat="43.37248" lon="5.74495">
        <ele>354.6</ele>
        <time>2021-05-12T15:56:37Z</time>
      </trkpt>
      <trkpt lat="43.37257" lon="5.74504">
        <ele>356.4</ele>
        <time>2021-05-12T15:56:55Z</time>
      </trkpt>
      <trkpt lat="43.3726" lon="5.74501">
        <ele>357.2</ele>
        <time>2021-05-12T15:57:29Z</time>
      </trkpt>
      <trkpt lat="43.37251" lon="5.74495">
        <ele>354.6</ele>
        <time>2021-05-12T15:57:47Z</time>
      </trkpt>
      <trkpt lat="43.37244" lon="5.7449">
        <ele>355.9</ele>
        <time>2021-05-12T15:59:23Z</time>
      </trkpt>
      <trkpt lat="43.37245" lon="5.74477">
        <ele>356.3</ele>
        <time>2021-05-12T16:03:47Z</time>
      </trkpt>
      <trkpt lat="43.37246" lon="5.74464">
        <ele>356.4</ele>
        <time>2021-05-12T16:04:01Z</time>
      </trkpt>
      <trkpt lat="43.37248" lon="5.74451">
        <ele>356.3</ele>
        <time>2021-05-12T16:04:13Z</time>
      </trkpt>
      <trkpt lat="43.37253" lon="5.74437">
        <ele>356.6</ele>
        <time>2021-05-12T16:04:27Z</time>
      </trkpt>
      <trkpt lat="43.37255" lon="5.74424">
        <ele>357.3</ele>
        <time>2021-05-12T16:04:37Z</time>
      </trkpt>
      <trkpt lat="43.3726" lon="5.74409">
        <ele>358.9</ele>
        <time>2021-05-12T16:04:49Z</time>
      </trkpt>
      <trkpt lat="43.37266" lon="5.74396">
        <ele>360.7</ele>
        <time>2021-05-12T16:05:01Z</time>
      </trkpt>
      <trkpt lat="43.37276" lon="5.74384">
        <ele>361.5</ele>
        <time>2021-05-12T16:05:13Z</time>
      </trkpt>
      <trkpt lat="43.37284" lon="5.74376">
        <ele>361.5</ele>
        <time>2021-05-12T16:05:23Z</time>
      </trkpt>
      <trkpt lat="43.37294" lon="5.74368">
        <ele>360.8</ele>
        <time>2021-05-12T16:05:35Z</time>
      </trkpt>
      <trkpt lat="43.37303" lon="5.74358">
        <ele>359.5</ele>
        <time>2021-05-12T16:05:45Z</time>
      </trkpt>
      <trkpt lat="43.37308" lon="5.74347">
        <ele>357.9</ele>
        <time>2021-05-12T16:05:53Z</time>
      </trkpt>
      <trkpt lat="43.37313" lon="5.74335">
        <ele>355.9</ele>
        <time>2021-05-12T16:06:01Z</time>
      </trkpt>
      <trkpt lat="43.37316" lon="5.74321">
        <ele>356</ele>
        <time>2021-05-12T16:06:11Z</time>
      </trkpt>
      <trkpt lat="43.37317" lon="5.74306">
        <ele>356.5</ele>
        <time>2021-05-12T16:06:21Z</time>
      </trkpt>
      <trkpt lat="43.3732" lon="5.74293">
        <ele>356.2</ele>
        <time>2021-05-12T16:06:29Z</time>
      </trkpt>
      <trkpt lat="43.37323" lon="5.74281">
        <ele>355.9</ele>
        <time>2021-05-12T16:06:37Z</time>
      </trkpt>
      <trkpt lat="43.37327" lon="5.74267">
        <ele>354.9</ele>
        <time>2021-05-12T16:06:47Z</time>
      </trkpt>
      <trkpt lat="43.3733" lon="5.74253">
        <ele>354.3</ele>
        <time>2021-05-12T16:06:57Z</time>
      </trkpt>
      <trkpt lat="43.37337" lon="5.74239">
        <ele>354.1</ele>
        <time>2021-05-12T16:07:09Z</time>
      </trkpt>
      <trkpt lat="43.37347" lon="5.74228">
        <ele>354.7</ele>
        <time>2021-05-12T16:07:21Z</time>
      </trkpt>
      <trkpt lat="43.37355" lon="5.7422">
        <ele>354.6</ele>
        <time>2021-05-12T16:07:31Z</time>
      </trkpt>
      <trkpt lat="43.37363" lon="5.7421">
        <ele>354.2</ele>
        <time>2021-05-12T16:07:41Z</time>
      </trkpt>
      <trkpt lat="43.37372" lon="5.74203">
        <ele>353.4</ele>
        <time>2021-05-12T16:07:51Z</time>
      </trkpt>
      <trkpt lat="43.37381" lon="5.74199">
        <ele>352.1</ele>
        <time>2021-05-12T16:08:01Z</time>
      </trkpt>
      <trkpt lat="43.3739" lon="5.7419">
        <ele>350.7</ele>
        <time>2021-05-12T16:08:09Z</time>
      </trkpt>
      <trkpt lat="43.37396" lon="5.74177">
        <ele>349</ele>
        <time>2021-05-12T16:08:17Z</time>
      </trkpt>
      <trkpt lat="43.37403" lon="5.74166">
        <ele>347</ele>
        <time>2021-05-12T16:08:27Z</time>
      </trkpt>
      <trkpt lat="43.37412" lon="5.74157">
        <ele>347.2</ele>
        <time>2021-05-12T16:08:37Z</time>
      </trkpt>
      <trkpt lat="43.37422" lon="5.74149">
        <ele>348</ele>
        <time>2021-05-12T16:08:47Z</time>
      </trkpt>
      <trkpt lat="43.37431" lon="5.7414">
        <ele>349.8</ele>
        <time>2021-05-12T16:08:57Z</time>
      </trkpt>
      <trkpt lat="43.37438" lon="5.7413">
        <ele>351</ele>
        <time>2021-05-12T16:09:05Z</time>
      </trkpt>
      <trkpt lat="43.37446" lon="5.7412">
        <ele>351.6</ele>
        <time>2021-05-12T16:09:15Z</time>
      </trkpt>
      <trkpt lat="43.37454" lon="5.74109">
        <ele>351.6</ele>
        <time>2021-05-12T16:09:25Z</time>
      </trkpt>
      <trkpt lat="43.37461" lon="5.74098">
        <ele>351.1</ele>
        <time>2021-05-12T16:09:33Z</time>
      </trkpt>
      <trkpt lat="43.37467" lon="5.74087">
        <ele>350.2</ele>
        <time>2021-05-12T16:09:41Z</time>
      </trkpt>
      <trkpt lat="43.3747" lon="5.74074">
        <ele>351.7</ele>
        <time>2021-05-12T16:09:49Z</time>
      </trkpt>
      <trkpt lat="43.37472" lon="5.74061">
        <ele>354.3</ele>
        <time>2021-05-12T16:09:57Z</time>
      </trkpt>
      <trkpt lat="43.37476" lon="5.74045">
        <ele>356.7</ele>
        <time>2021-05-12T16:10:09Z</time>
      </trkpt>
      <trkpt lat="43.37484" lon="5.74036">
        <ele>356.3</ele>
        <time>2021-05-12T16:10:17Z</time>
      </trkpt>
      <trkpt lat="43.37494" lon="5.74031">
        <ele>354.4</ele>
        <time>2021-05-12T16:10:27Z</time>
      </trkpt>
      <trkpt lat="43.37503" lon="5.74029">
        <ele>353</ele>
        <time>2021-05-12T16:10:35Z</time>
      </trkpt>
      <trkpt lat="43.37514" lon="5.74031">
        <ele>352.7</ele>
        <time>2021-05-12T16:10:45Z</time>
      </trkpt>
      <trkpt lat="43.37524" lon="5.7403">
        <ele>352.9</ele>
        <time>2021-05-12T16:10:53Z</time>
      </trkpt>
      <trkpt lat="43.37535" lon="5.7403">
        <ele>352.9</ele>
        <time>2021-05-12T16:11:01Z</time>
      </trkpt>
      <trkpt lat="43.37545" lon="5.74032">
        <ele>352.6</ele>
        <time>2021-05-12T16:11:09Z</time>
      </trkpt>
      <trkpt lat="43.37555" lon="5.74033">
        <ele>352.2</ele>
        <time>2021-05-12T16:11:19Z</time>
      </trkpt>
      <trkpt lat="43.37565" lon="5.74038">
        <ele>351.3</ele>
        <time>2021-05-12T16:11:29Z</time>
      </trkpt>
      <trkpt lat="43.37578" lon="5.74044">
        <ele>350</ele>
        <time>2021-05-12T16:11:41Z</time>
      </trkpt>
      <trkpt lat="43.37588" lon="5.74052">
        <ele>348</ele>
        <time>2021-05-12T16:11:51Z</time>
      </trkpt>
      <trkpt lat="43.37595" lon="5.74059">
        <ele>345.8</ele>
        <time>2021-05-12T16:11:59Z</time>
      </trkpt>
      <trkpt lat="43.37604" lon="5.74066">
        <ele>343.7</ele>
        <time>2021-05-12T16:12:07Z</time>
      </trkpt>
      <trkpt lat="43.37611" lon="5.74074">
        <ele>341.7</ele>
        <time>2021-05-12T16:12:15Z</time>
      </trkpt>
      <trkpt lat="43.37621" lon="5.74085">
        <ele>339.3</ele>
        <time>2021-05-12T16:12:27Z</time>
      </trkpt>
      <trkpt lat="43.3763" lon="5.74096">
        <ele>339.3</ele>
        <time>2021-05-12T16:12:37Z</time>
      </trkpt>
      <trkpt lat="43.37637" lon="5.74107">
        <ele>339.1</ele>
        <time>2021-05-12T16:12:45Z</time>
      </trkpt>
      <trkpt lat="43.37644" lon="5.74116">
        <ele>338.9</ele>
        <time>2021-05-12T16:12:53Z</time>
      </trkpt>
      <trkpt lat="43.37653" lon="5.74127">
        <ele>338.4</ele>
        <time>2021-05-12T16:13:05Z</time>
      </trkpt>
      <trkpt lat="43.37664" lon="5.74129">
        <ele>337.4</ele>
        <time>2021-05-12T16:13:17Z</time>
      </trkpt>
      <trkpt lat="43.37675" lon="5.74128">
        <ele>338</ele>
        <time>2021-05-12T16:13:25Z</time>
      </trkpt>
      <trkpt lat="43.37684" lon="5.74121">
        <ele>338.5</ele>
        <time>2021-05-12T16:13:33Z</time>
      </trkpt>
      <trkpt lat="43.37692" lon="5.74112">
        <ele>338.7</ele>
        <time>2021-05-12T16:13:43Z</time>
      </trkpt>
      <trkpt lat="43.37697" lon="5.74098">
        <ele>338.2</ele>
        <time>2021-05-12T16:13:51Z</time>
      </trkpt>
      <trkpt lat="43.37701" lon="5.74083">
        <ele>337.3</ele>
        <time>2021-05-12T16:13:59Z</time>
      </trkpt>
      <trkpt lat="43.37706" lon="5.7407">
        <ele>337.7</ele>
        <time>2021-05-12T16:14:15Z</time>
      </trkpt>
      <trkpt lat="43.37709" lon="5.74054">
        <ele>337.8</ele>
        <time>2021-05-12T16:14:25Z</time>
      </trkpt>
      <trkpt lat="43.37711" lon="5.74037">
        <ele>337.8</ele>
        <time>2021-05-12T16:14:35Z</time>
      </trkpt>
      <trkpt lat="43.37715" lon="5.74025">
        <ele>337.4</ele>
        <time>2021-05-12T16:14:43Z</time>
      </trkpt>
      <trkpt lat="43.37716" lon="5.74009">
        <ele>337.1</ele>
        <time>2021-05-12T16:14:53Z</time>
      </trkpt>
      <trkpt lat="43.37718" lon="5.73995">
        <ele>337.3</ele>
        <time>2021-05-12T16:15:01Z</time>
      </trkpt>
      <trkpt lat="43.37721" lon="5.73983">
        <ele>339</ele>
        <time>2021-05-12T16:15:09Z</time>
      </trkpt>
      <trkpt lat="43.37728" lon="5.73971">
        <ele>339.5</ele>
        <time>2021-05-12T16:15:19Z</time>
      </trkpt>
      <trkpt lat="43.37735" lon="5.7396">
        <ele>339.7</ele>
        <time>2021-05-12T16:15:27Z</time>
      </trkpt>
      <trkpt lat="43.37743" lon="5.73949">
        <ele>339.5</ele>
        <time>2021-05-12T16:15:37Z</time>
      </trkpt>
      <trkpt lat="43.37755" lon="5.73946">
        <ele>338.4</ele>
        <time>2021-05-12T16:15:49Z</time>
      </trkpt>
      <trkpt lat="43.37767" lon="5.73943">
        <ele>338.7</ele>
        <time>2021-05-12T16:15:59Z</time>
      </trkpt>
      <trkpt lat="43.37776" lon="5.73942">
        <ele>338.7</ele>
        <time>2021-05-12T16:16:07Z</time>
      </trkpt>
      <trkpt lat="43.37789" lon="5.73943">
        <ele>338.4</ele>
        <time>2021-05-12T16:16:19Z</time>
      </trkpt>
      <trkpt lat="43.37799" lon="5.73946">
        <ele>337.9</ele>
        <time>2021-05-12T16:16:27Z</time>
      </trkpt>
      <trkpt lat="43.37812" lon="5.73949">
        <ele>337.2</ele>
        <time>2021-05-12T16:16:39Z</time>
      </trkpt>
      <trkpt lat="43.37821" lon="5.73957">
        <ele>335.5</ele>
        <time>2021-05-12T16:16:49Z</time>
      </trkpt>
      <trkpt lat="43.37831" lon="5.73964">
        <ele>333.9</ele>
        <time>2021-05-12T16:16:59Z</time>
      </trkpt>
      <trkpt lat="43.3784" lon="5.73975">
        <ele>331.8</ele>
        <time>2021-05-12T16:17:09Z</time>
      </trkpt>
      <trkpt lat="43.37847" lon="5.73984">
        <ele>330.3</ele>
        <time>2021-05-12T16:17:17Z</time>
      </trkpt>
      <trkpt lat="43.37855" lon="5.73995">
        <ele>328.2</ele>
        <time>2021-05-12T16:17:25Z</time>
      </trkpt>
      <trkpt lat="43.37863" lon="5.74004">
        <ele>327.8</ele>
        <time>2021-05-12T16:17:33Z</time>
      </trkpt>
      <trkpt lat="43.37871" lon="5.74013">
        <ele>328.7</ele>
        <time>2021-05-12T16:17:41Z</time>
      </trkpt>
      <trkpt lat="43.37879" lon="5.74022">
        <ele>329.2</ele>
        <time>2021-05-12T16:17:49Z</time>
      </trkpt>
      <trkpt lat="43.37888" lon="5.74029">
        <ele>329.2</ele>
        <time>2021-05-12T16:17:57Z</time>
      </trkpt>
      <trkpt lat="43.37897" lon="5.74036">
        <ele>329</ele>
        <time>2021-05-12T16:18:05Z</time>
      </trkpt>
      <trkpt lat="43.37908" lon="5.74037">
        <ele>328.2</ele>
        <time>2021-05-12T16:18:13Z</time>
      </trkpt>
      <trkpt lat="43.37918" lon="5.74036">
        <ele>327.6</ele>
        <time>2021-05-12T16:18:21Z</time>
      </trkpt>
      <trkpt lat="43.37929" lon="5.74033">
        <ele>328</ele>
        <time>2021-05-12T16:18:31Z</time>
      </trkpt>
      <trkpt lat="43.37939" lon="5.74028">
        <ele>328.2</ele>
        <time>2021-05-12T16:18:39Z</time>
      </trkpt>
      <trkpt lat="43.37949" lon="5.74024">
        <ele>328.3</ele>
        <time>2021-05-12T16:18:47Z</time>
      </trkpt>
      <trkpt lat="43.37959" lon="5.74015">
        <ele>327.9</ele>
        <time>2021-05-12T16:18:57Z</time>
      </trkpt>
      <trkpt lat="43.37966" lon="5.74004">
        <ele>327.1</ele>
        <time>2021-05-12T16:19:05Z</time>
      </trkpt>
      <trkpt lat="43.37973" lon="5.73989">
        <ele>327</ele>
        <time>2021-05-12T16:19:13Z</time>
      </trkpt>
      <trkpt lat="43.37976" lon="5.73976">
        <ele>327.2</ele>
        <time>2021-05-12T16:19:21Z</time>
      </trkpt>
      <trkpt lat="43.37976" lon="5.7396">
        <ele>327.6</ele>
        <time>2021-05-12T16:19:31Z</time>
      </trkpt>
      <trkpt lat="43.37978" lon="5.73946">
        <ele>327.7</ele>
        <time>2021-05-12T16:19:39Z</time>
      </trkpt>
      <trkpt lat="43.37981" lon="5.73931">
        <ele>327.4</ele>
        <time>2021-05-12T16:19:49Z</time>
      </trkpt>
      <trkpt lat="43.37984" lon="5.73917">
        <ele>327</ele>
        <time>2021-05-12T16:19:59Z</time>
      </trkpt>
      <trkpt lat="43.37989" lon="5.73903">
        <ele>327.5</ele>
        <time>2021-05-12T16:20:11Z</time>
      </trkpt>
      <trkpt lat="43.37998" lon="5.73891">
        <ele>327</ele>
        <time>2021-05-12T16:20:23Z</time>
      </trkpt>
      <trkpt lat="43.38007" lon="5.73882">
        <ele>327.4</ele>
        <time>2021-05-12T16:20:33Z</time>
      </trkpt>
      <trkpt lat="43.38015" lon="5.73869">
        <ele>328.6</ele>
        <time>2021-05-12T16:20:43Z</time>
      </trkpt>
      <trkpt lat="43.38025" lon="5.73862">
        <ele>328.7</ele>
        <time>2021-05-12T16:20:53Z</time>
      </trkpt>
      <trkpt lat="43.38036" lon="5.73855">
        <ele>328.6</ele>
        <time>2021-05-12T16:21:01Z</time>
      </trkpt>
      <trkpt lat="43.38047" lon="5.73847">
        <ele>328.3</ele>
        <time>2021-05-12T16:21:11Z</time>
      </trkpt>
      <trkpt lat="43.38057" lon="5.73842">
        <ele>327.5</ele>
        <time>2021-05-12T16:21:21Z</time>
      </trkpt>
      <trkpt lat="43.38066" lon="5.7384">
        <ele>326.8</ele>
        <time>2021-05-12T16:21:29Z</time>
      </trkpt>
      <trkpt lat="43.38077" lon="5.73842">
        <ele>325.7</ele>
        <time>2021-05-12T16:21:39Z</time>
      </trkpt>
      <trkpt lat="43.38088" lon="5.73844">
        <ele>325</ele>
        <time>2021-05-12T16:21:47Z</time>
      </trkpt>
      <trkpt lat="43.38098" lon="5.73852">
        <ele>324.9</ele>
        <time>2021-05-12T16:21:57Z</time>
      </trkpt>
      <trkpt lat="43.38108" lon="5.73854">
        <ele>324.7</ele>
        <time>2021-05-12T16:22:05Z</time>
      </trkpt>
      <trkpt lat="43.38119" lon="5.73858">
        <ele>324.4</ele>
        <time>2021-05-12T16:22:15Z</time>
      </trkpt>
      <trkpt lat="43.38132" lon="5.73866">
        <ele>324.2</ele>
        <time>2021-05-12T16:22:23Z</time>
      </trkpt>
      <trkpt lat="43.38143" lon="5.7387">
        <ele>324</ele>
        <time>2021-05-12T16:22:31Z</time>
      </trkpt>
      <trkpt lat="43.38152" lon="5.73877">
        <ele>323.9</ele>
        <time>2021-05-12T16:22:41Z</time>
      </trkpt>
      <trkpt lat="43.38163" lon="5.73875">
        <ele>323.6</ele>
        <time>2021-05-12T16:22:51Z</time>
      </trkpt>
      <trkpt lat="43.38172" lon="5.73868">
        <ele>323.8</ele>
        <time>2021-05-12T16:23:01Z</time>
      </trkpt>
      <trkpt lat="43.38183" lon="5.73867">
        <ele>324.6</ele>
        <time>2021-05-12T16:23:11Z</time>
      </trkpt>
      <trkpt lat="43.38194" lon="5.73869">
        <ele>325.3</ele>
        <time>2021-05-12T16:23:21Z</time>
      </trkpt>
      <trkpt lat="43.38194" lon="5.73863">
        <ele>325.3</ele>
        <time>2021-05-12T16:25:01Z</time>
      </trkpt>
      <trkpt lat="43.38192" lon="5.73861">
        <ele>325.1</ele>
        <time>2021-05-12T16:26:15Z</time>
      </trkpt>
      <trkpt lat="43.3819" lon="5.73859">
        <ele>325</ele>
        <time>2021-05-12T16:27:41Z</time>
      </trkpt>
      <trkpt lat="43.38188" lon="5.73846">
        <ele>324.8</ele>
        <time>2021-05-12T16:28:21Z</time>
      </trkpt>
      <trkpt lat="43.38189" lon="5.73831">
        <ele>324.9</ele>
        <time>2021-05-12T16:28:33Z</time>
      </trkpt>
      <trkpt lat="43.38191" lon="5.73817">
        <ele>325.2</ele>
        <time>2021-05-12T16:28:43Z</time>
      </trkpt>
      <trkpt lat="43.38189" lon="5.73799">
        <ele>325.3</ele>
        <time>2021-05-12T16:28:55Z</time>
      </trkpt>
      <trkpt lat="43.38189" lon="5.73781">
        <ele>325.5</ele>
        <time>2021-05-12T16:29:07Z</time>
      </trkpt>
      <trkpt lat="43.3819" lon="5.73766">
        <ele>325.7</ele>
        <time>2021-05-12T16:29:15Z</time>
      </trkpt>
      <trkpt lat="43.38191" lon="5.73752">
        <ele>325.8</ele>
        <time>2021-05-12T16:29:25Z</time>
      </trkpt>
      <trkpt lat="43.38197" lon="5.73734">
        <ele>326.2</ele>
        <time>2021-05-12T16:29:37Z</time>
      </trkpt>
      <trkpt lat="43.38203" lon="5.73717">
        <ele>326.1</ele>
        <time>2021-05-12T16:29:49Z</time>
      </trkpt>
      <trkpt lat="43.38207" lon="5.73702">
        <ele>325.7</ele>
        <time>2021-05-12T16:29:59Z</time>
      </trkpt>
      <trkpt lat="43.38213" lon="5.73685">
        <ele>324.8</ele>
        <time>2021-05-12T16:30:11Z</time>
      </trkpt>
      <trkpt lat="43.38219" lon="5.73672">
        <ele>323.1</ele>
        <time>2021-05-12T16:30:21Z</time>
      </trkpt>
      <trkpt lat="43.38223" lon="5.7366">
        <ele>322.9</ele>
        <time>2021-05-12T16:30:29Z</time>
      </trkpt>
      <trkpt lat="43.38228" lon="5.73649">
        <ele>323.3</ele>
        <time>2021-05-12T16:30:37Z</time>
      </trkpt>
      <trkpt lat="43.38234" lon="5.73637">
        <ele>323.3</ele>
        <time>2021-05-12T16:30:47Z</time>
      </trkpt>
      <trkpt lat="43.38245" lon="5.73628">
        <ele>321</ele>
        <time>2021-05-12T16:30:59Z</time>
      </trkpt>
      <trkpt lat="43.38254" lon="5.73621">
        <ele>320</ele>
        <time>2021-05-12T16:31:11Z</time>
      </trkpt>
      <trkpt lat="43.38264" lon="5.73614">
        <ele>320.4</ele>
        <time>2021-05-12T16:31:19Z</time>
      </trkpt>
      <trkpt lat="43.38273" lon="5.73606">
        <ele>320.4</ele>
        <time>2021-05-12T16:31:27Z</time>
      </trkpt>
      <trkpt lat="43.38282" lon="5.736">
        <ele>319.8</ele>
        <time>2021-05-12T16:31:35Z</time>
      </trkpt>
      <trkpt lat="43.38293" lon="5.73595">
        <ele>318.7</ele>
        <time>2021-05-12T16:31:47Z</time>
      </trkpt>
      <trkpt lat="43.38303" lon="5.73588">
        <ele>317</ele>
        <time>2021-05-12T16:31:55Z</time>
      </trkpt>
      <trkpt lat="43.38314" lon="5.73583">
        <ele>315.1</ele>
        <time>2021-05-12T16:32:05Z</time>
      </trkpt>
      <trkpt lat="43.38324" lon="5.73576">
        <ele>315.4</ele>
        <time>2021-05-12T16:32:13Z</time>
      </trkpt>
      <trkpt lat="43.38335" lon="5.73571">
        <ele>315.1</ele>
        <time>2021-05-12T16:32:23Z</time>
      </trkpt>
      <trkpt lat="43.38346" lon="5.73566">
        <ele>316.3</ele>
        <time>2021-05-12T16:32:31Z</time>
      </trkpt>
      <trkpt lat="43.38356" lon="5.73559">
        <ele>317.6</ele>
        <time>2021-05-12T16:32:39Z</time>
      </trkpt>
      <trkpt lat="43.38365" lon="5.73553">
        <ele>318</ele>
        <time>2021-05-12T16:32:47Z</time>
      </trkpt>
      <trkpt lat="43.38374" lon="5.7355">
        <ele>317.8</ele>
        <time>2021-05-12T16:32:55Z</time>
      </trkpt>
      <trkpt lat="43.38384" lon="5.73543">
        <ele>317.7</ele>
        <time>2021-05-12T16:33:03Z</time>
      </trkpt>
      <trkpt lat="43.38394" lon="5.73536">
        <ele>317.1</ele>
        <time>2021-05-12T16:33:11Z</time>
      </trkpt>
      <trkpt lat="43.38403" lon="5.7353">
        <ele>316.1</ele>
        <time>2021-05-12T16:33:19Z</time>
      </trkpt>
      <trkpt lat="43.38412" lon="5.73527">
        <ele>314.7</ele>
        <time>2021-05-12T16:33:27Z</time>
      </trkpt>
      <trkpt lat="43.38423" lon="5.73523">
        <ele>314</ele>
        <time>2021-05-12T16:33:37Z</time>
      </trkpt>
      <trkpt lat="43.38434" lon="5.73518">
        <ele>313.8</ele>
        <time>2021-05-12T16:33:47Z</time>
      </trkpt>
      <trkpt lat="43.38443" lon="5.73512">
        <ele>313.4</ele>
        <time>2021-05-12T16:33:55Z</time>
      </trkpt>
      <trkpt lat="43.38453" lon="5.73505">
        <ele>312.7</ele>
        <time>2021-05-12T16:34:05Z</time>
      </trkpt>
      <trkpt lat="43.3846" lon="5.73492">
        <ele>311.9</ele>
        <time>2021-05-12T16:34:13Z</time>
      </trkpt>
      <trkpt lat="43.38464" lon="5.73476">
        <ele>311.5</ele>
        <time>2021-05-12T16:34:21Z</time>
      </trkpt>
      <trkpt lat="43.38468" lon="5.73462">
        <ele>311.2</ele>
        <time>2021-05-12T16:34:29Z</time>
      </trkpt>
      <trkpt lat="43.38468" lon="5.73447">
        <ele>311</ele>
        <time>2021-05-12T16:34:37Z</time>
      </trkpt>
      <trkpt lat="43.38466" lon="5.73433">
        <ele>310.9</ele>
        <time>2021-05-12T16:34:45Z</time>
      </trkpt>
      <trkpt lat="43.38461" lon="5.73418">
        <ele>310.9</ele>
        <time>2021-05-12T16:34:55Z</time>
      </trkpt>
      <trkpt lat="43.38454" lon="5.7341">
        <ele>311.4</ele>
        <time>2021-05-12T16:35:03Z</time>
      </trkpt>
      <trkpt lat="43.38444" lon="5.73407">
        <ele>311.9</ele>
        <time>2021-05-12T16:35:11Z</time>
      </trkpt>
      <trkpt lat="43.38434" lon="5.73403">
        <ele>312.3</ele>
        <time>2021-05-12T16:35:19Z</time>
      </trkpt>
      <trkpt lat="43.38425" lon="5.73399">
        <ele>312.6</ele>
        <time>2021-05-12T16:35:27Z</time>
      </trkpt>
      <trkpt lat="43.38416" lon="5.73391">
        <ele>313.1</ele>
        <time>2021-05-12T16:35:37Z</time>
      </trkpt>
      <trkpt lat="43.38409" lon="5.73381">
        <ele>315.6</ele>
        <time>2021-05-12T16:35:45Z</time>
      </trkpt>
      <trkpt lat="43.38405" lon="5.73365">
        <ele>317</ele>
        <time>2021-05-12T16:35:55Z</time>
      </trkpt>
      <trkpt lat="43.38402" lon="5.73353">
        <ele>318.4</ele>
        <time>2021-05-12T16:36:03Z</time>
      </trkpt>
      <trkpt lat="43.384" lon="5.73337">
        <ele>319.1</ele>
        <time>2021-05-12T16:36:13Z</time>
      </trkpt>
      <trkpt lat="43.384" lon="5.73322">
        <ele>319.2</ele>
        <time>2021-05-12T16:36:23Z</time>
      </trkpt>
      <trkpt lat="43.38403" lon="5.73307">
        <ele>318.1</ele>
        <time>2021-05-12T16:36:33Z</time>
      </trkpt>
      <trkpt lat="43.38408" lon="5.73294">
        <ele>316.6</ele>
        <time>2021-05-12T16:36:43Z</time>
      </trkpt>
      <trkpt lat="43.38413" lon="5.73282">
        <ele>315.2</ele>
        <time>2021-05-12T16:36:51Z</time>
      </trkpt>
      <trkpt lat="43.38419" lon="5.7327">
        <ele>314.4</ele>
        <time>2021-05-12T16:37:03Z</time>
      </trkpt>
      <trkpt lat="43.38422" lon="5.73255">
        <ele>315.1</ele>
        <time>2021-05-12T16:37:13Z</time>
      </trkpt>
      <trkpt lat="43.38429" lon="5.73243">
        <ele>315.5</ele>
        <time>2021-05-12T16:37:21Z</time>
      </trkpt>
      <trkpt lat="43.38434" lon="5.73231">
        <ele>315.7</ele>
        <time>2021-05-12T16:37:29Z</time>
      </trkpt>
      <trkpt lat="43.3844" lon="5.73218">
        <ele>316</ele>
        <time>2021-05-12T16:37:37Z</time>
      </trkpt>
      <trkpt lat="43.38448" lon="5.73204">
        <ele>316.4</ele>
        <time>2021-05-12T16:37:47Z</time>
      </trkpt>
      <trkpt lat="43.38457" lon="5.73192">
        <ele>316.9</ele>
        <time>2021-05-12T16:37:57Z</time>
      </trkpt>
      <trkpt lat="43.38462" lon="5.73179">
        <ele>317.2</ele>
        <time>2021-05-12T16:38:05Z</time>
      </trkpt>
      <trkpt lat="43.38463" lon="5.73163">
        <ele>317.2</ele>
        <time>2021-05-12T16:38:13Z</time>
      </trkpt>
      <trkpt lat="43.38461" lon="5.73149">
        <ele>316.7</ele>
        <time>2021-05-12T16:38:23Z</time>
      </trkpt>
      <trkpt lat="43.38455" lon="5.73134">
        <ele>315.3</ele>
        <time>2021-05-12T16:38:27Z</time>
      </trkpt>
      <trkpt lat="43.38449" lon="5.7312">
        <ele>313.9</ele>
        <time>2021-05-12T16:38:39Z</time>
      </trkpt>
      <trkpt lat="43.38445" lon="5.73106">
        <ele>312.5</ele>
        <time>2021-05-12T16:38:47Z</time>
      </trkpt>
      <trkpt lat="43.38441" lon="5.73091">
        <ele>310.9</ele>
        <time>2021-05-12T16:38:57Z</time>
      </trkpt>
      <trkpt lat="43.38438" lon="5.73074">
        <ele>309.2</ele>
        <time>2021-05-12T16:39:09Z</time>
      </trkpt>
    </trkseg>
  </trk>
</gpx>